Darstellungsparameter: Aktuell verwendete Einstellungen:
Skalierung der Graphiken ... ?
xyx+y,   Skalierungsfaktor:      Skalierung: Modus: x, Faktor: 1
Darstellungszeitraum ... ?
Vom - - bis: - -   Zeitraum: 25.02.2020 - 24.05.2020
Min/Max/Avg-Anzeige ... ?
Zeige MMA aktuell
Zeige MMA Monat
Zeige MMA alles
Zeige --A aktuell
Zeige --A Monat
Zeige --A alles
Keine MMA-Anzeige
MMA:
Average (ber die Originaldaten)
MMA-Basis: 25.02.2020 - 24.05.2020
Quicknavigation für Darstellung... ?
Tage:      1T, 2T, 3T, 5T -1T -2T -3T -5T +1T +2T +3T +5T
Wochen: 1W, 2W, 3W -1W -2W -3W +1W +2W +3W
Monate: 1M, 3M, 6M -1M -3M -6M +1M +3M +6M
Jahre:    1J, 3J, 5J, 10J -1J -3J -5J -10J +1J +3J +5J +10J
Nutze für die Darstellung ... ?
Originaldaten oder Mittelwerte auf ...
Stundenbasis Tagesbasis Wochenbasis
Monatsbasis Jahresbasis      Datenbasis: Original-Daten
Darstellen als:
Statistik (Auto) Statistik J:M      Darstellung:
Zur Graphik,    zurück zur Übersicht aller Sensoren.
 
Tabellarische Datenbersicht: ?
 
Sensor: Nr:Datum:Temp:Abs-Feuchte:Windchill:Wind:
Aussen-T/F 1 25-02-2020 00:00:00 11.1 C 8.46 g/m*3 11.1 C 14.5 km/h
2 25-02-2020 00:05:00 11 C 8.41 g/m*3 9.02 C 16.1 km/h
3 25-02-2020 00:10:00 11 C 8.51 g/m*3 8.86 C 17.7 km/h
4 25-02-2020 00:15:00 11 C 8.51 g/m*3 9.63 C 11.3 km/h
5 25-02-2020 00:20:00 10.9 C 8.45 g/m*3 9.51 C 11.3 km/h
6 25-02-2020 00:25:00 10.9 C 8.45 g/m*3 8.9 C 16.1 km/h
7 25-02-2020 00:30:00 10.8 C 8.4 g/m*3 9.93 C 8.1 km/h
8 25-02-2020 00:35:00 10.8 C 8.5 g/m*3 10.8 C 4.8 km/h
9 25-02-2020 00:40:00 10.8 C 8.5 g/m*3 8.96 C 14.5 km/h
10 25-02-2020 00:45:00 10.8 C 8.5 g/m*3 8.61 C 17.7 km/h
11 25-02-2020 00:50:00 10.8 C 8.5 g/m*3 8.45 C 19.3 km/h
12 25-02-2020 00:55:00 10.8 C 8.5 g/m*3 9.16 C 12.9 km/h
13 25-02-2020 01:00:00 10.8 C 8.5 g/m*3 9.16 C 12.9 km/h
14 25-02-2020 01:05:00 10.8 C 8.5 g/m*3 9.16 C 12.9 km/h
15 25-02-2020 01:10:00 10.8 C 8.5 g/m*3 8.96 C 14.5 km/h
16 25-02-2020 01:15:00 10.8 C 8.5 g/m*3 9.38 C 11.3 km/h
17 25-02-2020 01:20:00 10.8 C 8.5 g/m*3 9.16 C 12.9 km/h
18 25-02-2020 01:25:00 10.8 C 8.5 g/m*3 8.96 C 14.5 km/h
19 25-02-2020 01:30:00 10.8 C 8.5 g/m*3 8.78 C 16.1 km/h
20 25-02-2020 01:35:00 10.8 C 8.5 g/m*3 9.16 C 12.9 km/h
21 25-02-2020 01:40:00 10.8 C 8.5 g/m*3 9.38 C 11.3 km/h
22 25-02-2020 01:45:00 10.8 C 8.5 g/m*3 8.45 C 19.3 km/h
23 25-02-2020 01:50:00 10.8 C 8.5 g/m*3 9.38 C 11.3 km/h
24 25-02-2020 01:55:00 10.8 C 8.5 g/m*3 8.3 C 20.9 km/h
25 25-02-2020 02:00:00 10.8 C 8.5 g/m*3 7.92 C 25.7 km/h
Sensor: Nr:Datum:Temp:Abs-Feuchte:Windchill:Wind:
Aussen-T/F 26 25-02-2020 02:05:00 10.8 C 8.5 g/m*3 9.16 C 12.9 km/h
27 25-02-2020 02:10:00 10.8 C 8.5 g/m*3 9.16 C 12.9 km/h
28 25-02-2020 02:15:00 10.7 C 8.45 g/m*3 9.26 C 11.3 km/h
29 25-02-2020 02:20:00 10.7 C 8.55 g/m*3 9.26 C 11.3 km/h
30 25-02-2020 02:25:00 10.7 C 8.55 g/m*3 9.52 C 9.7 km/h
31 25-02-2020 02:30:00 10.7 C 8.55 g/m*3 9.04 C 12.9 km/h
32 25-02-2020 02:35:00 10.7 C 8.55 g/m*3 9.26 C 11.3 km/h
33 25-02-2020 02:40:00 10.7 C 8.55 g/m*3 9.04 C 12.9 km/h
34 25-02-2020 02:45:00 10.7 C 8.55 g/m*3 9.04 C 12.9 km/h
35 25-02-2020 02:50:00 10.6 C 8.49 g/m*3 9.4 C 9.7 km/h
36 25-02-2020 02:55:00 10.6 C 8.49 g/m*3 8.92 C 12.9 km/h
37 25-02-2020 03:00:00 10.6 C 8.49 g/m*3 9.14 C 11.3 km/h
38 25-02-2020 03:05:00 10.6 C 8.49 g/m*3 9.4 C 9.7 km/h
39 25-02-2020 03:10:00 10.5 C 8.53 g/m*3 9.28 C 9.7 km/h
40 25-02-2020 03:15:00 10.4 C 8.48 g/m*3 9.46 C 8.1 km/h
41 25-02-2020 03:20:00 10.4 C 8.48 g/m*3 9.46 C 8.1 km/h
42 25-02-2020 03:25:00 10.3 C 8.43 g/m*3 8.78 C 11.3 km/h
43 25-02-2020 03:30:00 10.3 C 8.43 g/m*3 9.34 C 8.1 km/h
44 25-02-2020 03:35:00 10.3 C 8.43 g/m*3 8.55 C 12.9 km/h
45 25-02-2020 03:40:00 10.3 C 8.43 g/m*3 8.55 C 12.9 km/h
46 25-02-2020 03:45:00 10.3 C 8.43 g/m*3 9.04 C 9.7 km/h
47 25-02-2020 03:50:00 10.3 C 8.43 g/m*3 9.72 C 6.4 km/h
48 25-02-2020 03:55:00 10.3 C 8.43 g/m*3 8.34 C 14.5 km/h
49 25-02-2020 04:00:00 10.3 C 8.43 g/m*3 8.34 C 14.5 km/h
50 25-02-2020 04:05:00 10.3 C 8.43 g/m*3 9.04 C 9.7 km/h
Sensor: Nr:Datum:Temp:Abs-Feuchte:Windchill:Wind:
Aussen-T/F 51 25-02-2020 04:10:00 10.3 C 8.43 g/m*3 8.34 C 14.5 km/h
52 25-02-2020 04:15:00 10.3 C 8.43 g/m*3 9.04 C 9.7 km/h
53 25-02-2020 04:20:00 10.3 C 8.43 g/m*3 9.34 C 8.1 km/h
54 25-02-2020 04:25:00 10.3 C 8.43 g/m*3 7.67 C 20.9 km/h
55 25-02-2020 04:30:00 10.3 C 8.43 g/m*3 8.34 C 14.5 km/h
56 25-02-2020 04:35:00 10.3 C 8.33 g/m*3 8.78 C 11.3 km/h
57 25-02-2020 04:40:00 10.3 C 8.33 g/m*3 8.78 C 11.3 km/h
58 25-02-2020 04:45:00 10.3 C 8.33 g/m*3 8.16 C 16.1 km/h
59 25-02-2020 04:50:00 10.3 C 8.33 g/m*3 8.78 C 11.3 km/h
60 25-02-2020 04:55:00 10.3 C 8.33 g/m*3 8.55 C 12.9 km/h
61 25-02-2020 05:00:00 10.2 C 8.28 g/m*3 8.22 C 14.5 km/h
62 25-02-2020 05:05:00 10.2 C 8.28 g/m*3 8.22 C 14.5 km/h
63 25-02-2020 05:10:00 10.2 C 8.28 g/m*3 8.22 C 14.5 km/h
64 25-02-2020 05:15:00 10.2 C 8.28 g/m*3 8.92 C 9.7 km/h
65 25-02-2020 05:20:00 10.2 C 8.28 g/m*3 8.22 C 14.5 km/h
66 25-02-2020 05:25:00 10.1 C 8.23 g/m*3 8.31 C 12.9 km/h
67 25-02-2020 05:30:00 10.1 C 8.32 g/m*3 8.1 C 14.5 km/h
68 25-02-2020 05:35:00 10.1 C 8.32 g/m*3 7.91 C 16.1 km/h
69 25-02-2020 05:40:00 10.1 C 8.23 g/m*3 7.73 C 17.7 km/h
70 25-02-2020 05:45:00 10.1 C 8.23 g/m*3 8.54 C 11.3 km/h
71 25-02-2020 05:50:00 10.1 C 8.23 g/m*3 8.54 C 11.3 km/h
72 25-02-2020 05:55:00 10.1 C 8.23 g/m*3 8.31 C 12.9 km/h
73 25-02-2020 06:00:00 10.1 C 8.23 g/m*3 8.1 C 14.5 km/h
74 25-02-2020 06:05:00 10.1 C 8.23 g/m*3 7.28 C 22.5 km/h
75 25-02-2020 06:10:00 10.1 C 8.23 g/m*3 7.91 C 16.1 km/h
Sensor: Nr:Datum:Temp:Abs-Feuchte:Windchill:Wind:
Aussen-T/F 76 25-02-2020 06:15:00 10 C 8.17 g/m*3 7.61 C 17.7 km/h
77 25-02-2020 06:20:00 10 C 8.17 g/m*3 7.15 C 22.5 km/h
78 25-02-2020 06:25:00 9.9 C 8.12 g/m*3 7.32 C 19.3 km/h
79 25-02-2020 06:30:00 9.9 C 8.12 g/m*3 7.66 C 16.1 km/h
80 25-02-2020 06:35:00 9.9 C 8.12 g/m*3 7.66 C 16.1 km/h
81 25-02-2020 06:40:00 9.8 C 8.07 g/m*3 6.89 C 22.5 km/h
82 25-02-2020 06:45:00 9.8 C 8.07 g/m*3 7.54 C 16.1 km/h
83 25-02-2020 06:50:00 9.8 C 8.16 g/m*3 6.17 C 32.2 km/h
84 25-02-2020 06:55:00 9.7 C 8.11 g/m*3 6.04 C 32.2 km/h
85 25-02-2020 07:00:00 9.7 C 8.11 g/m*3 6.5 C 25.7 km/h
86 25-02-2020 07:05:00 9.7 C 8.11 g/m*3 7.07 C 19.3 km/h
87 25-02-2020 07:10:00 9.7 C 8.11 g/m*3 6.77 C 22.5 km/h
88 25-02-2020 07:15:00 9.6 C 8.06 g/m*3 7.94 C 11.3 km/h
89 25-02-2020 07:20:00 9.6 C 8.06 g/m*3 7.48 C 14.5 km/h
90 25-02-2020 07:25:00 9.6 C 8.15 g/m*3 7.7 C 12.9 km/h
91 25-02-2020 07:30:00 9.5 C 8.1 g/m*3 7.82 C 11.3 km/h
92 25-02-2020 07:35:00 9.5 C 8.1 g/m*3 8.09 C 9.7 km/h
93 25-02-2020 07:40:00 9.4 C 8.14 g/m*3 7.24 C 14.5 km/h
94 25-02-2020 07:45:00 9.3 C 8.09 g/m*3 7.85 C 9.7 km/h
95 25-02-2020 07:50:00 9.3 C 8.18 g/m*3 7.85 C 9.7 km/h
96 25-02-2020 07:55:00 9.2 C 8.13 g/m*3 7.73 C 9.7 km/h
97 25-02-2020 08:00:00 9.1 C 8.16 g/m*3 7.61 C 9.7 km/h
98 25-02-2020 08:05:00 9.1 C 8.16 g/m*3 7.93 C 8.1 km/h
99 25-02-2020 08:10:00 8.9 C 8.15 g/m*3 7.69 C 8.1 km/h
100 25-02-2020 08:15:00 8.9 C 8.15 g/m*3 7.69 C 8.1 km/h
Sensor: Nr:Datum:Temp:Abs-Feuchte:Windchill:Wind:
Aussen-T/F 101 25-02-2020 08:20:00 8.8 C 8.09 g/m*3 7.25 C 9.7 km/h
102 25-02-2020 08:25:00 8.8 C 8.18 g/m*3 7.98 C 6.4 km/h
103 25-02-2020 08:30:00 8.7 C 8.13 g/m*3 7.13 C 9.7 km/h
104 25-02-2020 08:35:00 8.7 C 8.13 g/m*3 6.85 C 11.3 km/h
105 25-02-2020 08:40:00 8.7 C 8.13 g/m*3 7.46 C 8.1 km/h
106 25-02-2020 08:45:00 8.7 C 8.13 g/m*3 8.7 C 4.8 km/h
107 25-02-2020 08:50:00 8.7 C 8.13 g/m*3 8.7 C 3.2 km/h
108 25-02-2020 08:55:00 8.7 C 8.13 g/m*3 8.7 C 4.8 km/h
109 25-02-2020 09:00:00 8.7 C 8.13 g/m*3 8.7 C 4.8 km/h
110 25-02-2020 09:05:00 8.8 C 8.18 g/m*3 8.8 C 3.2 km/h
111 25-02-2020 09:10:00 8.8 C 8.18 g/m*3 8.8 C 4.8 km/h
112 25-02-2020 09:15:00 8.7 C 8.13 g/m*3 8.7 C 4.8 km/h
113 25-02-2020 09:20:00 8.7 C 8.13 g/m*3 8.7 C 1.6 km/h
114 25-02-2020 09:25:00 8.7 C 8.13 g/m*3 7.87 C 6.4 km/h
115 25-02-2020 09:30:00 8.7 C 8.13 g/m*3 7.87 C 6.4 km/h
116 25-02-2020 09:35:00 8.7 C 8.13 g/m*3 8.7 C 4.8 km/h
117 25-02-2020 09:40:00 8.8 C 8.18 g/m*3 8.8 C 1.6 km/h
118 25-02-2020 09:45:00 8.8 C 8.09 g/m*3 7.25 C 9.7 km/h
119 25-02-2020 09:50:00 8.7 C 7.96 g/m*3 7.13 C 9.7 km/h
120 25-02-2020 09:55:00 8.5 C 7.68 g/m*3 6.36 C 12.9 km/h
121 25-02-2020 10:00:00 8.4 C 7.47 g/m*3 5.8 C 16.1 km/h
122 25-02-2020 10:05:00 8.4 C 7.21 g/m*3 6.01 C 14.5 km/h
123 25-02-2020 10:10:00 8.4 C 7.13 g/m*3 6.49 C 11.3 km/h
124 25-02-2020 10:15:00 8.4 C 7.13 g/m*3 6.01 C 14.5 km/h
125 25-02-2020 10:20:00 8.4 C 7.13 g/m*3 6.49 C 11.3 km/h
Sensor: Nr:Datum:Temp:Abs-Feuchte:Windchill:Wind:
Aussen-T/F 126 25-02-2020 10:25:00 8.4 C 7.21 g/m*3 7.11 C 8.1 km/h
127 25-02-2020 10:30:00 8.4 C 7.21 g/m*3 6.78 C 9.7 km/h
128 25-02-2020 10:35:00 8.6 C 7.22 g/m*3 6.25 C 14.5 km/h
129 25-02-2020 10:40:00 8.7 C 7.18 g/m*3 6.38 C 14.5 km/h
130 25-02-2020 10:45:00 8.8 C 7.14 g/m*3 6.3 C 16.1 km/h
131 25-02-2020 10:50:00 9 C 7.23 g/m*3 6.54 C 16.1 km/h
132 25-02-2020 10:55:00 9.2 C 7.32 g/m*3 7.21 C 12.9 km/h
133 25-02-2020 11:00:00 9.3 C 7.19 g/m*3 6.56 C 19.3 km/h
134 25-02-2020 11:05:00 9.3 C 7.1 g/m*3 7.12 C 14.5 km/h
135 25-02-2020 11:10:00 9.2 C 7.05 g/m*3 6.99 C 14.5 km/h
136 25-02-2020 11:15:00 8.9 C 7.01 g/m*3 6.62 C 14.5 km/h
137 25-02-2020 11:20:00 8.7 C 6.92 g/m*3 6.6 C 12.9 km/h
138 25-02-2020 11:25:00 8.6 C 6.79 g/m*3 6.05 C 16.1 km/h
139 25-02-2020 11:30:00 8.6 C 6.7 g/m*3 7.01 C 9.7 km/h
140 25-02-2020 11:35:00 8.5 C 6.57 g/m*3 6.13 C 14.5 km/h
141 25-02-2020 11:40:00 8.4 C 6.62 g/m*3 7.11 C 8.1 km/h
142 25-02-2020 11:45:00 8.4 C 6.62 g/m*3 6.78 C 9.7 km/h
143 25-02-2020 11:50:00 8.4 C 6.62 g/m*3 6.24 C 12.9 km/h
144 25-02-2020 11:55:00 8.5 C 6.57 g/m*3 7.22 C 8.1 km/h
145 25-02-2020 12:00:00 8.6 C 6.53 g/m*3 7.34 C 8.1 km/h
146 25-02-2020 12:05:00 8.7 C 6.75 g/m*3 8.7 C 3.2 km/h
147 25-02-2020 12:10:00 8.9 C 6.66 g/m*3 7.37 C 9.7 km/h
148 25-02-2020 12:15:00 9.2 C 6.61 g/m*3 8.05 C 8.1 km/h
149 25-02-2020 12:20:00 9.6 C 6.78 g/m*3 8.21 C 9.7 km/h
150 25-02-2020 12:25:00 9.8 C 6.49 g/m*3 8.45 C 9.7 km/h
Sensor: Nr:Datum:Temp:Abs-Feuchte:Windchill:Wind:
Aussen-T/F 151 25-02-2020 12:30:00 9.9 C 6.44 g/m*3 7.16 C 20.9 km/h
152 25-02-2020 12:35:00 9.9 C 6.44 g/m*3 7.48 C 17.7 km/h
153 25-02-2020 12:40:00 9.9 C 6.44 g/m*3 7.02 C 22.5 km/h
154 25-02-2020 12:45:00 9.9 C 6.35 g/m*3 7.48 C 17.7 km/h
155 25-02-2020 12:50:00 9.9 C 6.35 g/m*3 7.16 C 20.9 km/h
156 25-02-2020 12:55:00 9.9 C 6.63 g/m*3 7.48 C 17.7 km/h
157 25-02-2020 13:00:00 9.9 C 6.63 g/m*3 7.48 C 17.7 km/h
158 25-02-2020 13:05:00 9.9 C 6.72 g/m*3 7.85 C 14.5 km/h
159 25-02-2020 13:10:00 9.9 C 6.82 g/m*3 7.48 C 17.7 km/h
160 25-02-2020 13:15:00 10.1 C 6.9 g/m*3 8.1 C 14.5 km/h
161 25-02-2020 13:20:00 10.2 C 6.85 g/m*3 7.86 C 17.7 km/h
162 25-02-2020 13:25:00 10.3 C 6.9 g/m*3 8.55 C 12.9 km/h
163 25-02-2020 13:30:00 10.2 C 6.76 g/m*3 7.7 C 19.3 km/h
164 25-02-2020 13:35:00 10.2 C 6.66 g/m*3 8.22 C 14.5 km/h
165 25-02-2020 13:40:00 10.3 C 6.51 g/m*3 7.98 C 17.7 km/h
166 25-02-2020 13:45:00 10.3 C 6.51 g/m*3 7.27 C 25.7 km/h
167 25-02-2020 13:50:00 10.3 C 6.51 g/m*3 7.67 C 20.9 km/h
168 25-02-2020 13:55:00 10.2 C 6.38 g/m*3 7.7 C 19.3 km/h
169 25-02-2020 14:00:00 10.3 C 6.7 g/m*3 7.98 C 17.7 km/h
170 25-02-2020 14:05:00 10.5 C 6.5 g/m*3 8.23 C 17.7 km/h
171 25-02-2020 14:10:00 10.5 C 6.5 g/m*3 8.59 C 14.5 km/h
172 25-02-2020 14:15:00 10.4 C 6.17 g/m*3 7.95 C 19.3 km/h
173 25-02-2020 14:20:00 10.3 C 6.22 g/m*3 7.53 C 22.5 km/h
174 25-02-2020 14:25:00 10.2 C 6.38 g/m*3 8.03 C 16.1 km/h
175 25-02-2020 14:30:00 10.1 C 6.34 g/m*3 7.28 C 22.5 km/h
Sensor: Nr:Datum:Temp:Abs-Feuchte:Windchill:Wind:
Aussen-T/F 176 25-02-2020 14:35:00 10.1 C 6.43 g/m*3 7.91 C 16.1 km/h
177 25-02-2020 14:40:00 10.2 C 6.38 g/m*3 7.7 C 19.3 km/h
178 25-02-2020 14:45:00 10.3 C 6.42 g/m*3 7.67 C 20.9 km/h
179 25-02-2020 14:50:00 10.3 C 6.51 g/m*3 8.55 C 12.9 km/h
180 25-02-2020 14:55:00 10.2 C 6.57 g/m*3 8.03 C 16.1 km/h
181 25-02-2020 15:00:00 10.1 C 6.62 g/m*3 8.54 C 11.3 km/h
182 25-02-2020 15:05:00 9.9 C 6.63 g/m*3 8.87 C 8.1 km/h
183 25-02-2020 15:10:00 9.8 C 6.49 g/m*3 8.75 C 8.1 km/h
184 25-02-2020 15:15:00 9.8 C 6.59 g/m*3 8.75 C 8.1 km/h
185 25-02-2020 15:20:00 9.9 C 6.54 g/m*3 8.06 C 12.9 km/h
186 25-02-2020 15:25:00 10 C 6.48 g/m*3 7.98 C 14.5 km/h
187 25-02-2020 15:30:00 10.1 C 6.34 g/m*3 7.28 C 22.5 km/h
188 25-02-2020 15:35:00 10.2 C 6.19 g/m*3 7.7 C 19.3 km/h
189 25-02-2020 15:40:00 10.3 C 6.22 g/m*3 7.98 C 17.7 km/h
190 25-02-2020 15:45:00 10.4 C 6.17 g/m*3 7.95 C 19.3 km/h
191 25-02-2020 15:50:00 10.4 C 6.36 g/m*3 9.16 C 9.7 km/h
192 25-02-2020 15:55:00 10.6 C 6.44 g/m*3 9.14 C 11.3 km/h
193 25-02-2020 16:00:00 10.7 C 6.48 g/m*3 9.52 C 9.7 km/h
194 25-02-2020 16:05:00 10.6 C 6.54 g/m*3 9.69 C 8.1 km/h
195 25-02-2020 16:10:00 10.4 C 6.46 g/m*3 8.67 C 12.9 km/h
196 25-02-2020 16:15:00 10.3 C 6.42 g/m*3 9.04 C 9.7 km/h
197 25-02-2020 16:20:00 10.3 C 6.42 g/m*3 8.78 C 11.3 km/h
198 25-02-2020 16:25:00 10.2 C 6.28 g/m*3 8.66 C 11.3 km/h
199 25-02-2020 16:30:00 10.2 C 6.19 g/m*3 8.22 C 14.5 km/h
200 25-02-2020 16:35:00 10.2 C 6.19 g/m*3 8.43 C 12.9 km/h
Sensor: Nr:Datum:Temp:Abs-Feuchte:Windchill:Wind:
Aussen-T/F 201 25-02-2020 16:40:00 10.3 C 6.32 g/m*3 8.78 C 11.3 km/h
202 25-02-2020 16:45:00 10.6 C 6.34 g/m*3 8.92 C 12.9 km/h
203 25-02-2020 16:50:00 10.8 C 6.33 g/m*3 8.61 C 17.7 km/h
204 25-02-2020 16:55:00 10.6 C 6.05 g/m*3 8.71 C 14.5 km/h
205 25-02-2020 17:00:00 10.3 C 6.13 g/m*3 7.98 C 17.7 km/h
206 25-02-2020 17:05:00 10.2 C 6.28 g/m*3 8.43 C 12.9 km/h
207 25-02-2020 17:10:00 10.1 C 6.34 g/m*3 9.48 C 6.4 km/h
208 25-02-2020 17:15:00 10.2 C 6.57 g/m*3 9.6 C 6.4 km/h
209 25-02-2020 17:20:00 10.3 C 6.51 g/m*3 8.78 C 11.3 km/h
210 25-02-2020 17:25:00 10.2 C 6.57 g/m*3 8.66 C 11.3 km/h
211 25-02-2020 17:30:00 10 C 6.48 g/m*3 7.78 C 16.1 km/h
212 25-02-2020 17:35:00 9.8 C 6.31 g/m*3 7.36 C 17.7 km/h
213 25-02-2020 17:40:00 9.6 C 6.32 g/m*3 7.48 C 14.5 km/h
214 25-02-2020 17:45:00 9.4 C 6.33 g/m*3 7.7 C 11.3 km/h
215 25-02-2020 17:50:00 9.2 C 6.25 g/m*3 7.73 C 9.7 km/h
216 25-02-2020 17:55:00 9.2 C 6.43 g/m*3 6.99 C 14.5 km/h
217 25-02-2020 18:00:00 9.1 C 6.39 g/m*3 6.87 C 14.5 km/h
218 25-02-2020 18:05:00 9.1 C 6.39 g/m*3 6.87 C 14.5 km/h
219 25-02-2020 18:10:00 9.1 C 6.3 g/m*3 7.09 C 12.9 km/h
220 25-02-2020 18:15:00 9 C 6.35 g/m*3 7.21 C 11.3 km/h
221 25-02-2020 18:20:00 8.9 C 6.31 g/m*3 7.69 C 8.1 km/h
222 25-02-2020 18:25:00 8.8 C 6.35 g/m*3 8.8 C 4.8 km/h
223 25-02-2020 18:30:00 8.8 C 6.35 g/m*3 8.8 C 4.8 km/h
224 25-02-2020 18:35:00 8.7 C 6.4 g/m*3 7.46 C 8.1 km/h
225 25-02-2020 18:40:00 8.7 C 6.4 g/m*3 7.46 C 8.1 km/h
Sensor: Nr:Datum:Temp:Abs-Feuchte:Windchill:Wind:
Aussen-T/F 226 25-02-2020 18:45:00 8.7 C 6.4 g/m*3 7.46 C 8.1 km/h
227 25-02-2020 18:50:00 8.7 C 6.4 g/m*3 6.38 C 14.5 km/h
228 25-02-2020 18:55:00 8.6 C 6.44 g/m*3 6.48 C 12.9 km/h
229 25-02-2020 19:00:00 8.3 C 6.49 g/m*3 6.66 C 9.7 km/h
230 25-02-2020 19:05:00 8.1 C 6.57 g/m*3 8.1 C 4.8 km/h
231 25-02-2020 19:10:00 7.8 C 6.45 g/m*3 6.4 C 8.1 km/h
232 25-02-2020 19:15:00 7.6 C 6.53 g/m*3 7.6 C 3.2 km/h
233 25-02-2020 19:20:00 7.4 C 6.44 g/m*3 7.4 C 4.8 km/h
234 25-02-2020 19:25:00 7.3 C 6.4 g/m*3 7.3 C 3.2 km/h
235 25-02-2020 19:30:00 7.2 C 6.44 g/m*3 7.2 C 3.2 km/h
236 25-02-2020 19:35:00 7.1 C 6.47 g/m*3 7.1 C 0 km/h
237 25-02-2020 19:40:00 7.1 C 6.63 g/m*3 7.1 C 0 km/h
238 25-02-2020 19:45:00 7.1 C 6.71 g/m*3 7.1 C 0 km/h
239 25-02-2020 19:50:00 7 C 6.66 g/m*3 7 C 0 km/h
240 25-02-2020 19:55:00 6.9 C 6.7 g/m*3 6.9 C 1.6 km/h
241 25-02-2020 20:00:00 6.8 C 6.65 g/m*3 6.8 C 1.6 km/h
242 25-02-2020 20:05:00 6.7 C 6.69 g/m*3 6.7 C 0 km/h
243 25-02-2020 20:10:00 6.6 C 6.72 g/m*3 6.6 C 3.2 km/h
244 25-02-2020 20:15:00 6.5 C 6.67 g/m*3 6.5 C 1.6 km/h
245 25-02-2020 20:20:00 6.4 C 6.71 g/m*3 6.4 C 0 km/h
246 25-02-2020 20:25:00 6.4 C 6.71 g/m*3 6.4 C 1.6 km/h
247 25-02-2020 20:30:00 6.4 C 6.71 g/m*3 6.4 C 3.2 km/h
248 25-02-2020 20:35:00 6.4 C 6.71 g/m*3 6.4 C 3.2 km/h
249 25-02-2020 20:40:00 6.4 C 6.71 g/m*3 6.4 C 4.8 km/h
250 25-02-2020 20:45:00 6.5 C 6.75 g/m*3 6.5 C 3.2 km/h
Sensor: Nr:Datum:Temp:Abs-Feuchte:Windchill:Wind:
Aussen-T/F 251 25-02-2020 20:50:00 6.6 C 6.79 g/m*3 4.63 C 9.7 km/h
252 25-02-2020 20:55:00 6.8 C 6.81 g/m*3 4.04 C 14.5 km/h
253 25-02-2020 21:00:00 6.8 C 6.81 g/m*3 5.22 C 8.1 km/h
254 25-02-2020 21:05:00 6.8 C 6.73 g/m*3 6.8 C 3.2 km/h
255 25-02-2020 21:10:00 6.7 C 6.69 g/m*3 6.7 C 3.2 km/h
256 25-02-2020 21:15:00 6.6 C 6.72 g/m*3 6.6 C 1.6 km/h
257 25-02-2020 21:20:00 6.4 C 6.63 g/m*3 5.21 C 6.4 km/h
258 25-02-2020 21:25:00 6.3 C 6.59 g/m*3 6.3 C 3.2 km/h
259 25-02-2020 21:30:00 6.3 C 6.66 g/m*3 6.3 C 4.8 km/h
260 25-02-2020 21:35:00 6.2 C 6.62 g/m*3 6.2 C 1.6 km/h
261 25-02-2020 21:40:00 6.1 C 6.58 g/m*3 6.1 C 4.8 km/h
262 25-02-2020 21:45:00 6.1 C 6.58 g/m*3 3.43 C 12.9 km/h
263 25-02-2020 21:50:00 6.1 C 6.28 g/m*3 2.18 C 22.5 km/h
264 25-02-2020 21:55:00 6.2 C 6.1 g/m*3 3.07 C 16.1 km/h
265 25-02-2020 22:00:00 6.2 C 6.03 g/m*3 3.56 C 12.9 km/h
266 25-02-2020 22:05:00 6.2 C 5.88 g/m*3 2.48 C 20.9 km/h
267 25-02-2020 22:10:00 6.2 C 5.81 g/m*3 2.15 C 24.1 km/h
268 25-02-2020 22:15:00 6.2 C 5.74 g/m*3 2.86 C 17.7 km/h
269 25-02-2020 22:20:00 6.1 C 5.77 g/m*3 1.86 C 25.7 km/h
270 25-02-2020 22:25:00 6 C 5.59 g/m*3 2.82 C 16.1 km/h
271 25-02-2020 22:30:00 5.9 C 5.55 g/m*3 2.93 C 14.5 km/h
272 25-02-2020 22:35:00 5.8 C 5.52 g/m*3 3.07 C 12.9 km/h
273 25-02-2020 22:40:00 5.7 C 5.55 g/m*3 5.7 C 3.2 km/h
274 25-02-2020 22:45:00 5.5 C 5.55 g/m*3 5.5 C 4.8 km/h
275 25-02-2020 22:50:00 5.3 C 5.54 g/m*3 3.46 C 8.1 km/h
Sensor: Nr:Datum:Temp:Abs-Feuchte:Windchill:Wind:
Aussen-T/F 276 25-02-2020 22:55:00 5.2 C 5.51 g/m*3 3.82 C 6.4 km/h
277 25-02-2020 23:00:00 5 C 5.5 g/m*3 3.59 C 6.4 km/h
278 25-02-2020 23:05:00 4.9 C 5.47 g/m*3 2.99 C 8.1 km/h
279 25-02-2020 23:10:00 4.8 C 5.5 g/m*3 3.36 C 6.4 km/h
280 25-02-2020 23:15:00 4.7 C 5.53 g/m*3 4.7 C 1.6 km/h
281 25-02-2020 23:20:00 4.6 C 5.49 g/m*3 4.6 C 3.2 km/h
282 25-02-2020 23:25:00 4.6 C 5.56 g/m*3 3.13 C 6.4 km/h
283 25-02-2020 23:30:00 4.7 C 5.6 g/m*3 4.7 C 4.8 km/h
284 25-02-2020 23:35:00 4.8 C 5.63 g/m*3 4.8 C 4.8 km/h
285 25-02-2020 23:40:00 4.9 C 5.6 g/m*3 2.61 C 9.7 km/h
286 25-02-2020 23:45:00 5.2 C 5.65 g/m*3 3.34 C 8.1 km/h
287 25-02-2020 23:50:00 5.4 C 5.65 g/m*3 3.2 C 9.7 km/h
288 25-02-2020 23:55:00 5.6 C 5.73 g/m*3 3.11 C 11.3 km/h
289 26-02-2020 00:00:00 5.7 C 5.76 g/m*3 5.7 C 4.8 km/h
290 26-02-2020 00:05:00 5.7 C 5.76 g/m*3 5.7 C 1.6 km/h
291 26-02-2020 00:10:00 5.7 C 5.84 g/m*3 5.7 C 1.6 km/h
292 26-02-2020 00:15:00 5.7 C 5.84 g/m*3 5.7 C 0 km/h
293 26-02-2020 00:20:00 5.7 C 5.91 g/m*3 5.7 C 0 km/h
294 26-02-2020 00:25:00 5.6 C 5.87 g/m*3 5.6 C 0 km/h
295 26-02-2020 00:30:00 5.6 C 5.8 g/m*3 5.6 C 0 km/h
296 26-02-2020 00:35:00 5.6 C 5.8 g/m*3 5.6 C 1.6 km/h
297 26-02-2020 00:40:00 5.6 C 5.8 g/m*3 3.11 C 11.3 km/h
298 26-02-2020 00:45:00 5.8 C 5.87 g/m*3 3.36 C 11.3 km/h
299 26-02-2020 00:50:00 5.8 C 5.8 g/m*3 4.05 C 8.1 km/h
300 26-02-2020 00:55:00 5.9 C 5.91 g/m*3 4.63 C 6.4 km/h
Sensor: Nr:Datum:Temp:Abs-Feuchte:Windchill:Wind:
Aussen-T/F 301 26-02-2020 01:00:00 5.9 C 5.91 g/m*3 5.9 C 3.2 km/h
302 26-02-2020 01:05:00 6 C 5.95 g/m*3 4.75 C 6.4 km/h
303 26-02-2020 01:10:00 6 C 6.02 g/m*3 3.31 C 12.9 km/h
304 26-02-2020 01:15:00 6 C 6.02 g/m*3 4.28 C 8.1 km/h
305 26-02-2020 01:20:00 6 C 6.02 g/m*3 3.06 C 14.5 km/h
306 26-02-2020 01:25:00 6 C 6.1 g/m*3 3.31 C 12.9 km/h
307 26-02-2020 01:30:00 6 C 6.1 g/m*3 2.23 C 20.9 km/h
308 26-02-2020 01:35:00 5.9 C 6.06 g/m*3 2.93 C 14.5 km/h
309 26-02-2020 01:40:00 5.9 C 6.06 g/m*3 3.48 C 11.3 km/h
310 26-02-2020 01:45:00 5.8 C 6.02 g/m*3 2.81 C 14.5 km/h
311 26-02-2020 01:50:00 5.7 C 5.98 g/m*3 2.95 C 12.9 km/h
312 26-02-2020 01:55:00 5.6 C 5.87 g/m*3 2.11 C 17.7 km/h
313 26-02-2020 02:00:00 5.6 C 5.8 g/m*3 2.83 C 12.9 km/h
314 26-02-2020 02:05:00 5.6 C 5.8 g/m*3 2.11 C 17.7 km/h
315 26-02-2020 02:10:00 5.6 C 5.8 g/m*3 2.83 C 12.9 km/h
316 26-02-2020 02:15:00 5.6 C 5.73 g/m*3 3.44 C 9.7 km/h
317 26-02-2020 02:20:00 5.6 C 5.73 g/m*3 3.11 C 11.3 km/h
318 26-02-2020 02:25:00 5.6 C 5.8 g/m*3 3.81 C 8.1 km/h
319 26-02-2020 02:30:00 5.6 C 5.8 g/m*3 3.44 C 9.7 km/h
320 26-02-2020 02:35:00 5.6 C 5.73 g/m*3 2.57 C 14.5 km/h
321 26-02-2020 02:40:00 5.6 C 5.73 g/m*3 3.44 C 9.7 km/h
322 26-02-2020 02:45:00 5.5 C 5.55 g/m*3 2.2 C 16.1 km/h
323 26-02-2020 02:50:00 5.5 C 5.55 g/m*3 1.99 C 17.7 km/h
324 26-02-2020 02:55:00 5.5 C 5.55 g/m*3 2.7 C 12.9 km/h
325 26-02-2020 03:00:00 5.4 C 5.44 g/m*3 1.86 C 17.7 km/h
Sensor: Nr:Datum:Temp:Abs-Feuchte:Windchill:Wind:
Aussen-T/F 326 26-02-2020 03:05:00 5.4 C 5.44 g/m*3 3.2 C 9.7 km/h
327 26-02-2020 03:10:00 5.3 C 5.41 g/m*3 2.2 C 14.5 km/h
328 26-02-2020 03:15:00 5.3 C 5.41 g/m*3 2.46 C 12.9 km/h
329 26-02-2020 03:20:00 5.3 C 5.41 g/m*3 2.2 C 14.5 km/h
330 26-02-2020 03:25:00 5.2 C 5.44 g/m*3 2.63 C 11.3 km/h
331 26-02-2020 03:30:00 5.1 C 5.34 g/m*3 2.22 C 12.9 km/h
332 26-02-2020 03:35:00 4.9 C 5.27 g/m*3 1.97 C 12.9 km/h
333 26-02-2020 03:40:00 4.7 C 5.2 g/m*3 2.76 C 8.1 km/h
334 26-02-2020 03:45:00 4.6 C 5.16 g/m*3 2.25 C 9.7 km/h
335 26-02-2020 03:50:00 4.5 C 5.19 g/m*3 1.79 C 11.3 km/h
336 26-02-2020 03:55:00 4.5 C 5.26 g/m*3 1.79 C 11.3 km/h
337 26-02-2020 04:00:00 4.4 C 5.22 g/m*3 1.67 C 11.3 km/h
338 26-02-2020 04:05:00 4.4 C 5.29 g/m*3 1.09 C 14.5 km/h
339 26-02-2020 04:10:00 4.4 C 5.29 g/m*3 1.67 C 11.3 km/h
340 26-02-2020 04:15:00 4.4 C 5.29 g/m*3 1.09 C 14.5 km/h
341 26-02-2020 04:20:00 4.4 C 5.29 g/m*3 1.09 C 14.5 km/h
342 26-02-2020 04:25:00 4.4 C 5.29 g/m*3 1.36 C 12.9 km/h
343 26-02-2020 04:30:00 4.4 C 5.29 g/m*3 1.36 C 12.9 km/h
344 26-02-2020 04:35:00 4.4 C 5.29 g/m*3 0.4 C 19.3 km/h
345 26-02-2020 04:40:00 4.3 C 5.25 g/m*3 1.55 C 11.3 km/h
346 26-02-2020 04:45:00 4.3 C 5.25 g/m*3 0.49 C 17.7 km/h
347 26-02-2020 04:50:00 4.3 C 5.25 g/m*3 0.49 C 17.7 km/h
348 26-02-2020 04:55:00 4.3 C 5.25 g/m*3 1.89 C 9.7 km/h
349 26-02-2020 05:00:00 4.4 C 5.29 g/m*3 1.36 C 12.9 km/h
350 26-02-2020 05:05:00 4.4 C 5.22 g/m*3 0.84 C 16.1 km/h
Sensor: Nr:Datum:Temp:Abs-Feuchte:Windchill:Wind:
Aussen-T/F 351 26-02-2020 05:10:00 4.4 C 5.16 g/m*3 0.61 C 17.7 km/h
352 26-02-2020 05:15:00 4.5 C 5.19 g/m*3 0.52 C 19.3 km/h
353 26-02-2020 05:20:00 4.5 C 5.19 g/m*3 0.14 C 22.5 km/h
354 26-02-2020 05:25:00 4.5 C 5.19 g/m*3 -0.2 C 25.7 km/h
355 26-02-2020 05:30:00 4.5 C 5.19 g/m*3 0.14 C 22.5 km/h
356 26-02-2020 05:35:00 4.4 C 5.16 g/m*3 1.67 C 11.3 km/h
357 26-02-2020 05:40:00 4.4 C 5.16 g/m*3 1.67 C 11.3 km/h
358 26-02-2020 05:45:00 4.4 C 5.16 g/m*3 0.4 C 19.3 km/h
359 26-02-2020 05:50:00 4.3 C 5.12 g/m*3 0.27 C 19.3 km/h
360 26-02-2020 05:55:00 4.3 C 5.06 g/m*3 0.49 C 17.7 km/h
361 26-02-2020 06:00:00 4.3 C 5.12 g/m*3 0.97 C 14.5 km/h
362 26-02-2020 06:05:00 4.3 C 5.06 g/m*3 -0.46 C 25.7 km/h
363 26-02-2020 06:10:00 4.3 C 4.99 g/m*3 0.27 C 19.3 km/h
364 26-02-2020 06:15:00 4.4 C 5.03 g/m*3 0.4 C 19.3 km/h
365 26-02-2020 06:20:00 4.4 C 5.03 g/m*3 0.01 C 22.5 km/h
366 26-02-2020 06:25:00 4.4 C 5.09 g/m*3 0.61 C 17.7 km/h
367 26-02-2020 06:30:00 4.3 C 5.06 g/m*3 0.72 C 16.1 km/h
368 26-02-2020 06:35:00 4.2 C 5.03 g/m*3 -1.18 C 32.2 km/h
369 26-02-2020 06:40:00 4.2 C 4.96 g/m*3 -1.18 C 32.2 km/h
370 26-02-2020 06:45:00 4.2 C 4.96 g/m*3 -0.24 C 22.5 km/h
371 26-02-2020 06:50:00 4.2 C 5.03 g/m*3 0.36 C 17.7 km/h
372 26-02-2020 06:55:00 4.2 C 5.03 g/m*3 0.36 C 17.7 km/h
373 26-02-2020 07:00:00 4.1 C 4.99 g/m*3 0.24 C 17.7 km/h
374 26-02-2020 07:05:00 4.1 C 4.99 g/m*3 -0.71 C 25.7 km/h
375 26-02-2020 07:10:00 4.1 C 5.06 g/m*3 0.72 C 14.5 km/h
Sensor: Nr:Datum:Temp:Abs-Feuchte:Windchill:Wind:
Aussen-T/F 376 26-02-2020 07:15:00 4 C 5.02 g/m*3 0.11 C 17.7 km/h
377 26-02-2020 07:20:00 3.9 C 4.99 g/m*3 -0.23 C 19.3 km/h
378 26-02-2020 07:25:00 3.9 C 5.05 g/m*3 -0.01 C 17.7 km/h
379 26-02-2020 07:30:00 3.9 C 5.05 g/m*3 0.47 C 14.5 km/h
380 26-02-2020 07:35:00 3.8 C 5.08 g/m*3 0.63 C 12.9 km/h
381 26-02-2020 07:40:00 3.9 C 5.12 g/m*3 0.75 C 12.9 km/h
382 26-02-2020 07:45:00 3.9 C 5.12 g/m*3 0.75 C 12.9 km/h
383 26-02-2020 07:50:00 3.9 C 5.12 g/m*3 -0.01 C 17.7 km/h
384 26-02-2020 07:55:00 3.9 C 5.12 g/m*3 -1.58 C 32.2 km/h
385 26-02-2020 08:00:00 4 C 5.15 g/m*3 -0.31 C 20.9 km/h
386 26-02-2020 08:05:00 4 C 5.15 g/m*3 0.6 C 14.5 km/h
387 26-02-2020 08:10:00 4 C 5.15 g/m*3 -0.11 C 19.3 km/h
388 26-02-2020 08:15:00 4 C 5.15 g/m*3 0.34 C 16.1 km/h
389 26-02-2020 08:20:00 4 C 5.15 g/m*3 0.6 C 14.5 km/h
390 26-02-2020 08:25:00 4.1 C 5.12 g/m*3 0.02 C 19.3 km/h
391 26-02-2020 08:30:00 4.1 C 5.12 g/m*3 1.31 C 11.3 km/h
392 26-02-2020 08:35:00 4.1 C 5.12 g/m*3 0.02 C 19.3 km/h
393 26-02-2020 08:40:00 4.2 C 5.15 g/m*3 -0.42 C 24.1 km/h
394 26-02-2020 08:45:00 4.2 C 5.15 g/m*3 -0.05 C 20.9 km/h
395 26-02-2020 08:50:00 4.2 C 5.15 g/m*3 0.15 C 19.3 km/h
396 26-02-2020 08:55:00 4.2 C 5.22 g/m*3 -0.05 C 20.9 km/h
397 26-02-2020 09:00:00 4.1 C 5.18 g/m*3 0.72 C 14.5 km/h
398 26-02-2020 09:05:00 4 C 5.21 g/m*3 -0.31 C 20.9 km/h
399 26-02-2020 09:10:00 3.9 C 5.24 g/m*3 -0.62 C 22.5 km/h
400 26-02-2020 09:15:00 3.8 C 5.21 g/m*3 -0.36 C 19.3 km/h
Sensor: Nr:Datum:Temp:Abs-Feuchte:Windchill:Wind:
Aussen-T/F 401 26-02-2020 09:20:00 3.8 C 5.27 g/m*3 -0.14 C 17.7 km/h
402 26-02-2020 09:25:00 3.7 C 5.23 g/m*3 -0.48 C 19.3 km/h
403 26-02-2020 09:30:00 3.7 C 5.3 g/m*3 0.23 C 14.5 km/h
404 26-02-2020 09:35:00 3.7 C 5.3 g/m*3 0.23 C 14.5 km/h
405 26-02-2020 09:40:00 3.8 C 5.33 g/m*3 0.35 C 14.5 km/h
406 26-02-2020 09:45:00 4 C 5.4 g/m*3 0.88 C 12.9 km/h
407 26-02-2020 09:50:00 4.2 C 5.41 g/m*3 0.15 C 19.3 km/h
408 26-02-2020 09:55:00 4.2 C 5.35 g/m*3 0.15 C 19.3 km/h
409 26-02-2020 10:00:00 4.3 C 5.45 g/m*3 0.72 C 16.1 km/h
410 26-02-2020 10:05:00 4.2 C 5.41 g/m*3 0.84 C 14.5 km/h
411 26-02-2020 10:10:00 4.2 C 5.41 g/m*3 0.36 C 17.7 km/h
412 26-02-2020 10:15:00 4.2 C 5.41 g/m*3 0.59 C 16.1 km/h
413 26-02-2020 10:20:00 4.2 C 5.41 g/m*3 0.15 C 19.3 km/h
414 26-02-2020 10:25:00 4.2 C 5.48 g/m*3 0.36 C 17.7 km/h
415 26-02-2020 10:30:00 4.1 C 5.5 g/m*3 0.02 C 19.3 km/h
416 26-02-2020 10:35:00 4.2 C 5.48 g/m*3 0.36 C 17.7 km/h
417 26-02-2020 10:40:00 4.2 C 5.54 g/m*3 0.36 C 17.7 km/h
418 26-02-2020 10:45:00 4.3 C 5.51 g/m*3 -0.46 C 25.7 km/h
419 26-02-2020 10:50:00 4.4 C 5.55 g/m*3 1.09 C 14.5 km/h
420 26-02-2020 10:55:00 4.6 C 5.56 g/m*3 1.09 C 16.1 km/h
421 26-02-2020 11:00:00 4.7 C 5.6 g/m*3 0.78 C 19.3 km/h
422 26-02-2020 11:05:00 4.8 C 5.57 g/m*3 0.9 C 19.3 km/h
423 26-02-2020 11:10:00 4.9 C 5.54 g/m*3 1.03 C 19.3 km/h
424 26-02-2020 11:15:00 5 C 5.5 g/m*3 1.58 C 16.1 km/h
425 26-02-2020 11:20:00 5.1 C 5.47 g/m*3 0.91 C 22.5 km/h
Sensor: Nr:Datum:Temp:Abs-Feuchte:Windchill:Wind:
Aussen-T/F 426 26-02-2020 11:25:00 5.2 C 5.58 g/m*3 1.61 C 17.7 km/h
427 26-02-2020 11:30:00 5.3 C 5.61 g/m*3 1.96 C 16.1 km/h
428 26-02-2020 11:35:00 5.4 C 5.58 g/m*3 2.32 C 14.5 km/h
429 26-02-2020 11:40:00 5.5 C 5.55 g/m*3 1.59 C 20.9 km/h
430 26-02-2020 11:45:00 5.6 C 5.59 g/m*3 1.72 C 20.9 km/h
431 26-02-2020 11:50:00 5.6 C 5.59 g/m*3 1.72 C 20.9 km/h
432 26-02-2020 11:55:00 5.7 C 5.55 g/m*3 2.24 C 17.7 km/h
433 26-02-2020 12:00:00 5.9 C 5.7 g/m*3 2.29 C 19.3 km/h
434 26-02-2020 12:05:00 6 C 5.66 g/m*3 3.06 C 14.5 km/h
435 26-02-2020 12:10:00 6.1 C 5.7 g/m*3 2.54 C 19.3 km/h
436 26-02-2020 12:15:00 6.1 C 5.7 g/m*3 2.54 C 19.3 km/h
437 26-02-2020 12:20:00 6.2 C 5.74 g/m*3 3.07 C 16.1 km/h
438 26-02-2020 12:25:00 6.1 C 5.55 g/m*3 2.18 C 22.5 km/h
439 26-02-2020 12:30:00 6.1 C 5.63 g/m*3 2.35 C 20.9 km/h
440 26-02-2020 12:35:00 6 C 5.59 g/m*3 2.23 C 20.9 km/h
441 26-02-2020 12:40:00 5.9 C 5.55 g/m*3 2.29 C 19.3 km/h
442 26-02-2020 12:45:00 5.9 C 5.55 g/m*3 1.93 C 22.5 km/h
443 26-02-2020 12:50:00 5.9 C 5.48 g/m*3 2.29 C 19.3 km/h
444 26-02-2020 12:55:00 6.1 C 5.55 g/m*3 2.73 C 17.7 km/h
445 26-02-2020 13:00:00 6.3 C 5.55 g/m*3 2.98 C 17.7 km/h
446 26-02-2020 13:05:00 6.4 C 5.59 g/m*3 2.73 C 20.9 km/h
447 26-02-2020 13:10:00 6.3 C 5.48 g/m*3 2.61 C 20.9 km/h
448 26-02-2020 13:15:00 6.3 C 5.55 g/m*3 3.2 C 16.1 km/h
449 26-02-2020 13:20:00 6.3 C 5.55 g/m*3 2.79 C 19.3 km/h
450 26-02-2020 13:25:00 6.1 C 5.63 g/m*3 1.86 C 25.7 km/h
Sensor: Nr:Datum:Temp:Abs-Feuchte:Windchill:Wind:
Aussen-T/F 451 26-02-2020 13:30:00 5.8 C 5.66 g/m*3 2.36 C 17.7 km/h
452 26-02-2020 13:35:00 5.7 C 5.55 g/m*3 2.03 C 19.3 km/h
453 26-02-2020 13:40:00 5.7 C 5.62 g/m*3 1.5 C 24.1 km/h
454 26-02-2020 13:45:00 5.7 C 5.69 g/m*3 2.95 C 12.9 km/h
455 26-02-2020 13:50:00 5.8 C 5.73 g/m*3 2.81 C 14.5 km/h
456 26-02-2020 13:55:00 5.7 C 5.62 g/m*3 2.03 C 19.3 km/h
457 26-02-2020 14:00:00 5.7 C 5.69 g/m*3 2.03 C 19.3 km/h
458 26-02-2020 14:05:00 5.7 C 5.76 g/m*3 1.85 C 20.9 km/h
459 26-02-2020 14:10:00 5.6 C 5.73 g/m*3 2.11 C 17.7 km/h
460 26-02-2020 14:15:00 5.6 C 5.73 g/m*3 2.57 C 14.5 km/h
461 26-02-2020 14:20:00 5.7 C 5.76 g/m*3 2.69 C 14.5 km/h
462 26-02-2020 14:25:00 5.6 C 5.73 g/m*3 2.83 C 12.9 km/h
463 26-02-2020 14:30:00 5.6 C 5.73 g/m*3 1.72 C 20.9 km/h
464 26-02-2020 14:35:00 5.6 C 5.8 g/m*3 2.11 C 17.7 km/h
465 26-02-2020 14:40:00 5.7 C 5.91 g/m*3 2.95 C 12.9 km/h
466 26-02-2020 14:45:00 5.8 C 5.8 g/m*3 1.97 C 20.9 km/h
467 26-02-2020 14:50:00 5.8 C 5.8 g/m*3 3.07 C 12.9 km/h
468 26-02-2020 14:55:00 5.9 C 5.77 g/m*3 2.7 C 16.1 km/h
469 26-02-2020 15:00:00 5.9 C 5.77 g/m*3 2.29 C 19.3 km/h
470 26-02-2020 15:05:00 6.1 C 5.92 g/m*3 2.73 C 17.7 km/h
471 26-02-2020 15:10:00 6 C 5.88 g/m*3 2.82 C 16.1 km/h
472 26-02-2020 15:15:00 6.1 C 5.92 g/m*3 3.72 C 11.3 km/h
473 26-02-2020 15:20:00 6.2 C 5.88 g/m*3 3.56 C 12.9 km/h
474 26-02-2020 15:25:00 6.3 C 5.85 g/m*3 3.2 C 16.1 km/h
475 26-02-2020 15:30:00 6.5 C 5.85 g/m*3 1.6 C 35.4 km/h
Sensor: Nr:Datum:Temp:Abs-Feuchte:Windchill:Wind:
Aussen-T/F 476 26-02-2020 15:35:00 6.7 C 5.85 g/m*3 3.69 C 16.1 km/h
477 26-02-2020 15:40:00 6.6 C 5.74 g/m*3 3.17 C 19.3 km/h
478 26-02-2020 15:45:00 6.5 C 5.55 g/m*3 2.69 C 22.5 km/h
479 26-02-2020 15:50:00 6.3 C 5.55 g/m*3 2.61 C 20.9 km/h
480 26-02-2020 15:55:00 6.2 C 5.44 g/m*3 2.86 C 17.7 km/h
481 26-02-2020 16:00:00 6.1 C 5.41 g/m*3 2.35 C 20.9 km/h
482 26-02-2020 16:05:00 6.1 C 5.48 g/m*3 2.73 C 17.7 km/h
483 26-02-2020 16:10:00 6.1 C 5.33 g/m*3 2.54 C 19.3 km/h
484 26-02-2020 16:15:00 6.1 C 5.48 g/m*3 3.18 C 14.5 km/h
485 26-02-2020 16:20:00 6 C 5.44 g/m*3 2.61 C 17.7 km/h
486 26-02-2020 16:25:00 5.9 C 5.41 g/m*3 2.93 C 14.5 km/h
487 26-02-2020 16:30:00 5.9 C 5.41 g/m*3 2.1 C 20.9 km/h
488 26-02-2020 16:35:00 5.9 C 5.41 g/m*3 3.19 C 12.9 km/h
489 26-02-2020 16:40:00 5.8 C 5.37 g/m*3 1.8 C 22.5 km/h
490 26-02-2020 16:45:00 5.9 C 5.41 g/m*3 2.93 C 14.5 km/h
491 26-02-2020 16:50:00 5.9 C 5.41 g/m*3 2.7 C 16.1 km/h
492 26-02-2020 16:55:00 5.9 C 5.48 g/m*3 2.93 C 14.5 km/h
493 26-02-2020 17:00:00 5.8 C 5.44 g/m*3 2.16 C 19.3 km/h
494 26-02-2020 17:05:00 5.8 C 5.44 g/m*3 3.07 C 12.9 km/h
495 26-02-2020 17:10:00 5.8 C 5.37 g/m*3 2.81 C 14.5 km/h
496 26-02-2020 17:15:00 5.7 C 5.34 g/m*3 2.45 C 16.1 km/h
497 26-02-2020 17:20:00 5.6 C 5.3 g/m*3 2.11 C 17.7 km/h
498 26-02-2020 17:25:00 5.6 C 5.3 g/m*3 2.83 C 12.9 km/h
499 26-02-2020 17:30:00 5.6 C 5.3 g/m*3 1.72 C 20.9 km/h
500 26-02-2020 17:35:00 5.5 C 5.27 g/m*3 2.7 C 12.9 km/h
Sensor: Nr:Datum:Temp:Abs-Feuchte:Windchill:Wind:
Aussen-T/F 501 26-02-2020 17:40:00 5.4 C 5.23 g/m*3 1.66 C 19.3 km/h
502 26-02-2020 17:45:00 5.4 C 5.23 g/m*3 2.32 C 14.5 km/h
503 26-02-2020 17:50:00 5.3 C 5.27 g/m*3 3.08 C 9.7 km/h
504 26-02-2020 17:55:00 5.1 C 5.27 g/m*3 2.22 C 12.9 km/h
505 26-02-2020 18:00:00 4.9 C 5.27 g/m*3 2.61 C 9.7 km/h
506 26-02-2020 18:05:00 4.8 C 5.23 g/m*3 2.15 C 11.3 km/h
507 26-02-2020 18:10:00 4.7 C 5.26 g/m*3 2.76 C 8.1 km/h
508 26-02-2020 18:15:00 4.6 C 5.23 g/m*3 2.25 C 9.7 km/h
509 26-02-2020 18:20:00 4.4 C 5.22 g/m*3 1.67 C 11.3 km/h
510 26-02-2020 18:25:00 4.4 C 5.22 g/m*3 1.09 C 14.5 km/h
511 26-02-2020 18:30:00 4.4 C 5.16 g/m*3 1.67 C 11.3 km/h
512 26-02-2020 18:35:00 4.4 C 5.22 g/m*3 2.01 C 9.7 km/h
513 26-02-2020 18:40:00 4.4 C 5.22 g/m*3 1.36 C 12.9 km/h
514 26-02-2020 18:45:00 4.4 C 5.22 g/m*3 1.09 C 14.5 km/h
515 26-02-2020 18:50:00 4.5 C 5.26 g/m*3 1.79 C 11.3 km/h
516 26-02-2020 18:55:00 4.5 C 5.26 g/m*3 1.79 C 11.3 km/h
517 26-02-2020 19:00:00 4.6 C 5.29 g/m*3 2.64 C 8.1 km/h
518 26-02-2020 19:05:00 4.5 C 5.26 g/m*3 1.79 C 11.3 km/h
519 26-02-2020 19:10:00 4.5 C 5.26 g/m*3 2.13 C 9.7 km/h
520 26-02-2020 19:15:00 4.5 C 5.32 g/m*3 2.13 C 9.7 km/h
521 26-02-2020 19:20:00 4.5 C 5.32 g/m*3 2.13 C 9.7 km/h
522 26-02-2020 19:25:00 4.5 C 5.39 g/m*3 3.02 C 6.4 km/h
523 26-02-2020 19:30:00 4.4 C 5.35 g/m*3 2.01 C 9.7 km/h
524 26-02-2020 19:35:00 4.4 C 5.35 g/m*3 4.4 C 4.8 km/h
525 26-02-2020 19:40:00 4.4 C 5.35 g/m*3 2.9 C 6.4 km/h
Sensor: Nr:Datum:Temp:Abs-Feuchte:Windchill:Wind:
Aussen-T/F 526 26-02-2020 19:45:00 4.3 C 5.38 g/m*3 2.78 C 6.4 km/h
527 26-02-2020 19:50:00 4.3 C 5.38 g/m*3 1.89 C 9.7 km/h
528 26-02-2020 19:55:00 4.2 C 5.35 g/m*3 1.77 C 9.7 km/h
529 26-02-2020 20:00:00 4.2 C 5.35 g/m*3 2.67 C 6.4 km/h
530 26-02-2020 20:05:00 4.1 C 5.31 g/m*3 2.05 C 8.1 km/h
531 26-02-2020 20:10:00 3.9 C 5.24 g/m*3 2.32 C 6.4 km/h
532 26-02-2020 20:15:00 3.8 C 5.21 g/m*3 1.7 C 8.1 km/h
533 26-02-2020 20:20:00 3.8 C 5.21 g/m*3 0.63 C 12.9 km/h
534 26-02-2020 20:25:00 3.9 C 5.24 g/m*3 1.41 C 9.7 km/h
535 26-02-2020 20:30:00 4 C 5.21 g/m*3 1.18 C 11.3 km/h
536 26-02-2020 20:35:00 4.1 C 5.25 g/m*3 1.65 C 9.7 km/h
537 26-02-2020 20:40:00 4.1 C 5.25 g/m*3 2.55 C 6.4 km/h
538 26-02-2020 20:45:00 4.1 C 5.25 g/m*3 2.05 C 8.1 km/h
539 26-02-2020 20:50:00 4.1 C 5.25 g/m*3 1.65 C 9.7 km/h
540 26-02-2020 20:55:00 4.1 C 5.31 g/m*3 1.65 C 9.7 km/h
541 26-02-2020 21:00:00 4.1 C 5.31 g/m*3 1 C 12.9 km/h
542 26-02-2020 21:05:00 4.1 C 5.31 g/m*3 1.65 C 9.7 km/h
543 26-02-2020 21:10:00 4.1 C 5.38 g/m*3 1.31 C 11.3 km/h
544 26-02-2020 21:15:00 4.1 C 5.31 g/m*3 2.55 C 6.4 km/h
545 26-02-2020 21:20:00 4.1 C 5.31 g/m*3 4.1 C 3.2 km/h
546 26-02-2020 21:25:00 4 C 5.34 g/m*3 2.44 C 6.4 km/h
547 26-02-2020 21:30:00 3.9 C 5.31 g/m*3 1.82 C 8.1 km/h
548 26-02-2020 21:35:00 3.9 C 5.24 g/m*3 2.32 C 6.4 km/h
549 26-02-2020 21:40:00 3.9 C 5.31 g/m*3 2.32 C 6.4 km/h
550 26-02-2020 21:45:00 3.9 C 5.31 g/m*3 3.9 C 4.8 km/h
Sensor: Nr:Datum:Temp:Abs-Feuchte:Windchill:Wind:
Aussen-T/F 551 26-02-2020 21:50:00 3.9 C 5.31 g/m*3 1.82 C 8.1 km/h
552 26-02-2020 21:55:00 3.9 C 5.31 g/m*3 2.32 C 6.4 km/h
553 26-02-2020 22:00:00 3.9 C 5.31 g/m*3 1.41 C 9.7 km/h
554 26-02-2020 22:05:00 3.9 C 5.31 g/m*3 3.9 C 4.8 km/h
555 26-02-2020 22:10:00 3.9 C 5.31 g/m*3 1.82 C 8.1 km/h
556 26-02-2020 22:15:00 3.9 C 5.31 g/m*3 2.32 C 6.4 km/h
557 26-02-2020 22:20:00 3.9 C 5.37 g/m*3 3.9 C 4.8 km/h
558 26-02-2020 22:25:00 3.9 C 5.37 g/m*3 3.9 C 4.8 km/h
559 26-02-2020 22:30:00 3.9 C 5.37 g/m*3 3.9 C 4.8 km/h
560 26-02-2020 22:35:00 3.9 C 5.37 g/m*3 2.32 C 6.4 km/h
561 26-02-2020 22:40:00 3.9 C 5.37 g/m*3 0.75 C 12.9 km/h
562 26-02-2020 22:45:00 3.9 C 5.43 g/m*3 2.32 C 6.4 km/h
563 26-02-2020 22:50:00 3.9 C 5.43 g/m*3 3.9 C 4.8 km/h
564 26-02-2020 22:55:00 3.9 C 5.43 g/m*3 1.41 C 9.7 km/h
565 26-02-2020 23:00:00 3.9 C 5.43 g/m*3 1.06 C 11.3 km/h
566 26-02-2020 23:05:00 3.9 C 5.43 g/m*3 1.06 C 11.3 km/h
567 26-02-2020 23:10:00 3.8 C 5.46 g/m*3 2.21 C 6.4 km/h
568 26-02-2020 23:15:00 3.8 C 5.46 g/m*3 3.8 C 3.2 km/h
569 26-02-2020 23:20:00 3.7 C 5.42 g/m*3 1.58 C 8.1 km/h
570 26-02-2020 23:25:00 3.7 C 5.36 g/m*3 1.58 C 8.1 km/h
571 26-02-2020 23:30:00 3.6 C 5.32 g/m*3 3.6 C 4.8 km/h
572 26-02-2020 23:35:00 3.5 C 5.29 g/m*3 0.94 C 9.7 km/h
573 26-02-2020 23:40:00 3.4 C 5.31 g/m*3 0.82 C 9.7 km/h
574 26-02-2020 23:45:00 3.4 C 5.31 g/m*3 0.82 C 9.7 km/h
575 26-02-2020 23:50:00 3.4 C 5.31 g/m*3 0.82 C 9.7 km/h
Sensor: Nr:Datum:Temp:Abs-Feuchte:Windchill:Wind:
Aussen-T/F 576 26-02-2020 23:55:00 3.4 C 5.31 g/m*3 0.82 C 9.7 km/h
577 27-02-2020 00:00:00 3.4 C 5.25 g/m*3 1.75 C 6.4 km/h
578 27-02-2020 00:05:00 3.4 C 5.25 g/m*3 -0.14 C 14.5 km/h
579 27-02-2020 00:10:00 3.4 C 5.25 g/m*3 1.23 C 8.1 km/h
580 27-02-2020 00:15:00 3.5 C 5.29 g/m*3 0.58 C 11.3 km/h
581 27-02-2020 00:20:00 3.5 C 5.29 g/m*3 1.34 C 8.1 km/h
582 27-02-2020 00:25:00 3.5 C 5.29 g/m*3 3.5 C 4.8 km/h
583 27-02-2020 00:30:00 3.4 C 5.25 g/m*3 3.4 C 4.8 km/h
584 27-02-2020 00:35:00 3.5 C 5.29 g/m*3 0.58 C 11.3 km/h
585 27-02-2020 00:40:00 3.6 C 5.32 g/m*3 1.98 C 6.4 km/h
586 27-02-2020 00:45:00 3.6 C 5.32 g/m*3 1.98 C 6.4 km/h
587 27-02-2020 00:50:00 3.6 C 5.32 g/m*3 1.06 C 9.7 km/h
588 27-02-2020 00:55:00 3.6 C 5.32 g/m*3 1.46 C 8.1 km/h
589 27-02-2020 01:00:00 3.5 C 5.29 g/m*3 3.5 C 4.8 km/h
590 27-02-2020 01:05:00 3.4 C 5.25 g/m*3 3.4 C 4.8 km/h
591 27-02-2020 01:10:00 3.3 C 5.22 g/m*3 3.3 C 3.2 km/h
592 27-02-2020 01:15:00 3.2 C 5.18 g/m*3 3.2 C 3.2 km/h
593 27-02-2020 01:20:00 3.1 C 5.15 g/m*3 1.4 C 6.4 km/h
594 27-02-2020 01:25:00 3 C 5.11 g/m*3 0.76 C 8.1 km/h
595 27-02-2020 01:30:00 2.9 C 5.14 g/m*3 2.9 C 3.2 km/h
596 27-02-2020 01:35:00 2.8 C 5.1 g/m*3 2.8 C 4.8 km/h
597 27-02-2020 01:40:00 2.7 C 5.07 g/m*3 2.7 C 4.8 km/h
598 27-02-2020 01:45:00 2.7 C 5.13 g/m*3 2.7 C 3.2 km/h
599 27-02-2020 01:50:00 2.8 C 5.16 g/m*3 1.05 C 6.4 km/h
600 27-02-2020 01:55:00 2.8 C 5.16 g/m*3 0.52 C 8.1 km/h
Sensor: Nr:Datum:Temp:Abs-Feuchte:Windchill:Wind:
Aussen-T/F 601 27-02-2020 02:00:00 3 C 5.23 g/m*3 0.76 C 8.1 km/h
602 27-02-2020 02:05:00 3.1 C 5.21 g/m*3 0.87 C 8.1 km/h
603 27-02-2020 02:10:00 3.2 C 5.24 g/m*3 0.99 C 8.1 km/h
604 27-02-2020 02:15:00 3.1 C 5.21 g/m*3 0.46 C 9.7 km/h
605 27-02-2020 02:20:00 3.2 C 5.24 g/m*3 -0.1 C 12.9 km/h
606 27-02-2020 02:25:00 3.3 C 5.28 g/m*3 0.02 C 12.9 km/h
607 27-02-2020 02:30:00 3.3 C 5.22 g/m*3 -0.76 C 17.7 km/h
608 27-02-2020 02:35:00 3.3 C 5.22 g/m*3 1.63 C 6.4 km/h
609 27-02-2020 02:40:00 3.2 C 5.18 g/m*3 0.58 C 9.7 km/h
610 27-02-2020 02:45:00 3.2 C 5.24 g/m*3 0.58 C 9.7 km/h
611 27-02-2020 02:50:00 3.2 C 5.24 g/m*3 0.99 C 8.1 km/h
612 27-02-2020 02:55:00 3.2 C 5.24 g/m*3 0.22 C 11.3 km/h
613 27-02-2020 03:00:00 3.4 C 5.31 g/m*3 0.46 C 11.3 km/h
614 27-02-2020 03:05:00 3.6 C 5.32 g/m*3 0.11 C 14.5 km/h
615 27-02-2020 03:10:00 3.7 C 5.36 g/m*3 0.82 C 11.3 km/h
616 27-02-2020 03:15:00 3.7 C 5.42 g/m*3 0.51 C 12.9 km/h
617 27-02-2020 03:20:00 3.7 C 5.48 g/m*3 0.51 C 12.9 km/h
618 27-02-2020 03:25:00 3.6 C 5.51 g/m*3 1.98 C 6.4 km/h
619 27-02-2020 03:30:00 3.5 C 5.47 g/m*3 1.34 C 8.1 km/h
620 27-02-2020 03:35:00 3.4 C 5.44 g/m*3 0.82 C 9.7 km/h
621 27-02-2020 03:40:00 3.4 C 5.44 g/m*3 0.46 C 11.3 km/h
622 27-02-2020 03:45:00 3.4 C 5.44 g/m*3 0.46 C 11.3 km/h
623 27-02-2020 03:50:00 3.4 C 5.44 g/m*3 0.46 C 11.3 km/h
624 27-02-2020 03:55:00 3.4 C 5.44 g/m*3 0.46 C 11.3 km/h
625 27-02-2020 04:00:00 3.4 C 5.44 g/m*3 0.46 C 11.3 km/h
Sensor: Nr:Datum:Temp:Abs-Feuchte:Windchill:Wind:
Aussen-T/F 626 27-02-2020 04:05:00 3.4 C 5.44 g/m*3 1.23 C 8.1 km/h
627 27-02-2020 04:10:00 3.4 C 5.44 g/m*3 1.23 C 8.1 km/h
628 27-02-2020 04:15:00 3.3 C 5.4 g/m*3 1.63 C 6.4 km/h
629 27-02-2020 04:20:00 3.3 C 5.4 g/m*3 -0.26 C 14.5 km/h
630 27-02-2020 04:25:00 3.3 C 5.4 g/m*3 0.7 C 9.7 km/h
631 27-02-2020 04:30:00 3.3 C 5.4 g/m*3 0.34 C 11.3 km/h
632 27-02-2020 04:35:00 3.3 C 5.4 g/m*3 0.7 C 9.7 km/h
633 27-02-2020 04:40:00 3.3 C 5.34 g/m*3 0.7 C 9.7 km/h
634 27-02-2020 04:45:00 3.3 C 5.34 g/m*3 1.63 C 6.4 km/h
635 27-02-2020 04:50:00 3.2 C 5.3 g/m*3 1.51 C 6.4 km/h
636 27-02-2020 04:55:00 3.1 C 5.27 g/m*3 0.46 C 9.7 km/h
637 27-02-2020 05:00:00 3 C 5.23 g/m*3 3 C 3.2 km/h
638 27-02-2020 05:05:00 2.9 C 5.26 g/m*3 2.9 C 4.8 km/h
639 27-02-2020 05:10:00 2.8 C 5.22 g/m*3 2.8 C 4.8 km/h
640 27-02-2020 05:15:00 2.8 C 5.22 g/m*3 2.8 C 4.8 km/h
641 27-02-2020 05:20:00 2.8 C 5.22 g/m*3 1.05 C 6.4 km/h
642 27-02-2020 05:25:00 2.7 C 5.19 g/m*3 2.7 C 4.8 km/h
643 27-02-2020 05:30:00 2.7 C 5.19 g/m*3 2.7 C 4.8 km/h
644 27-02-2020 05:35:00 2.6 C 5.21 g/m*3 2.6 C 4.8 km/h
645 27-02-2020 05:40:00 2.6 C 5.21 g/m*3 2.6 C 4.8 km/h
646 27-02-2020 05:45:00 2.6 C 5.21 g/m*3 0.82 C 6.4 km/h
647 27-02-2020 05:50:00 2.6 C 5.21 g/m*3 0.29 C 8.1 km/h
648 27-02-2020 05:55:00 2.6 C 5.21 g/m*3 0.82 C 6.4 km/h
649 27-02-2020 06:00:00 2.6 C 5.21 g/m*3 0.29 C 8.1 km/h
650 27-02-2020 06:05:00 2.6 C 5.15 g/m*3 2.6 C 4.8 km/h
Sensor: Nr:Datum:Temp:Abs-Feuchte:Windchill:Wind:
Aussen-T/F 651 27-02-2020 06:10:00 2.6 C 5.15 g/m*3 0.29 C 8.1 km/h
652 27-02-2020 06:15:00 2.6 C 5.15 g/m*3 -0.5 C 11.3 km/h
653 27-02-2020 06:20:00 2.7 C 5.19 g/m*3 -0.02 C 9.7 km/h
654 27-02-2020 06:25:00 2.7 C 5.13 g/m*3 0.94 C 6.4 km/h
655 27-02-2020 06:30:00 2.8 C 5.16 g/m*3 0.52 C 8.1 km/h
656 27-02-2020 06:35:00 2.8 C 5.16 g/m*3 0.52 C 8.1 km/h
657 27-02-2020 06:40:00 2.8 C 5.1 g/m*3 -0.88 C 14.5 km/h
658 27-02-2020 06:45:00 2.8 C 5.1 g/m*3 0.52 C 8.1 km/h
659 27-02-2020 06:50:00 2.8 C 5.1 g/m*3 1.05 C 6.4 km/h
660 27-02-2020 06:55:00 2.9 C 5.14 g/m*3 1.17 C 6.4 km/h
661 27-02-2020 07:00:00 2.9 C 5.14 g/m*3 0.22 C 9.7 km/h
662 27-02-2020 07:05:00 2.9 C 5.14 g/m*3 2.9 C 4.8 km/h
663 27-02-2020 07:10:00 3 C 5.17 g/m*3 1.28 C 6.4 km/h
664 27-02-2020 07:15:00 3.1 C 5.21 g/m*3 1.4 C 6.4 km/h
665 27-02-2020 07:20:00 3.1 C 5.21 g/m*3 3.1 C 1.6 km/h
666 27-02-2020 07:25:00 3.1 C 5.21 g/m*3 3.1 C 3.2 km/h
667 27-02-2020 07:30:00 3.1 C 5.27 g/m*3 3.1 C 3.2 km/h
668 27-02-2020 07:35:00 3.1 C 5.27 g/m*3 3.1 C 3.2 km/h
669 27-02-2020 07:40:00 3.1 C 5.27 g/m*3 0.46 C 9.7 km/h
670 27-02-2020 07:45:00 3.2 C 5.24 g/m*3 3.2 C 0 km/h
671 27-02-2020 07:50:00 3.2 C 5.24 g/m*3 3.2 C 3.2 km/h
672 27-02-2020 07:55:00 3.2 C 5.24 g/m*3 3.2 C 3.2 km/h
673 27-02-2020 08:00:00 3.2 C 5.3 g/m*3 3.2 C 0 km/h
674 27-02-2020 08:05:00 3.3 C 5.34 g/m*3 3.3 C 1.6 km/h
675 27-02-2020 08:10:00 3.3 C 5.34 g/m*3 3.3 C 0 km/h
Sensor: Nr:Datum:Temp:Abs-Feuchte:Windchill:Wind:
Aussen-T/F 676 27-02-2020 08:15:00 3.3 C 5.34 g/m*3 3.3 C 0 km/h
677 27-02-2020 08:20:00 3.4 C 5.44 g/m*3 3.4 C 0 km/h
678 27-02-2020 08:25:00 3.4 C 5.44 g/m*3 3.4 C 0 km/h
679 27-02-2020 08:30:00 3.5 C 5.47 g/m*3 3.5 C 0 km/h
680 27-02-2020 08:35:00 3.6 C 5.51 g/m*3 3.6 C 0 km/h
681 27-02-2020 08:40:00 3.7 C 5.55 g/m*3 3.7 C 0 km/h
682 27-02-2020 08:45:00 3.7 C 5.55 g/m*3 3.7 C 1.6 km/h
683 27-02-2020 08:50:00 3.8 C 5.52 g/m*3 3.8 C 1.6 km/h
684 27-02-2020 08:55:00 3.9 C 5.49 g/m*3 3.9 C 1.6 km/h
685 27-02-2020 09:00:00 4 C 5.53 g/m*3 4 C 0 km/h
686 27-02-2020 09:05:00 4.2 C 5.54 g/m*3 2.67 C 6.4 km/h
687 27-02-2020 09:10:00 4.3 C 5.58 g/m*3 4.3 C 3.2 km/h
688 27-02-2020 09:15:00 4.4 C 5.62 g/m*3 4.4 C 3.2 km/h
689 27-02-2020 09:20:00 4.5 C 5.65 g/m*3 4.5 C 0 km/h
690 27-02-2020 09:25:00 4.6 C 5.62 g/m*3 4.6 C 4.8 km/h
691 27-02-2020 09:30:00 4.7 C 5.6 g/m*3 4.7 C 3.2 km/h
692 27-02-2020 09:35:00 4.8 C 5.57 g/m*3 3.36 C 6.4 km/h
693 27-02-2020 09:40:00 4.8 C 5.57 g/m*3 4.8 C 3.2 km/h
694 27-02-2020 09:45:00 4.9 C 5.6 g/m*3 4.9 C 3.2 km/h
695 27-02-2020 09:50:00 4.9 C 5.6 g/m*3 4.9 C 1.6 km/h
696 27-02-2020 09:55:00 5.1 C 5.68 g/m*3 5.1 C 1.6 km/h
697 27-02-2020 10:00:00 5.1 C 5.68 g/m*3 5.1 C 3.2 km/h
698 27-02-2020 10:05:00 5.2 C 5.65 g/m*3 5.2 C 3.2 km/h
699 27-02-2020 10:10:00 5.2 C 5.65 g/m*3 5.2 C 4.8 km/h
700 27-02-2020 10:15:00 5.2 C 5.58 g/m*3 3.34 C 8.1 km/h
Sensor: Nr:Datum:Temp:Abs-Feuchte:Windchill:Wind:
Aussen-T/F 701 27-02-2020 10:20:00 5.3 C 5.61 g/m*3 5.3 C 4.8 km/h
702 27-02-2020 10:25:00 5.3 C 5.61 g/m*3 5.3 C 0 km/h
703 27-02-2020 10:30:00 5.3 C 5.54 g/m*3 5.3 C 4.8 km/h
704 27-02-2020 10:35:00 5.4 C 5.58 g/m*3 5.4 C 1.6 km/h
705 27-02-2020 10:40:00 5.4 C 5.58 g/m*3 5.4 C 4.8 km/h
706 27-02-2020 10:45:00 5.5 C 5.69 g/m*3 5.5 C 3.2 km/h
707 27-02-2020 10:50:00 5.5 C 5.62 g/m*3 5.5 C 0 km/h
708 27-02-2020 10:55:00 5.6 C 5.66 g/m*3 5.6 C 3.2 km/h
709 27-02-2020 11:00:00 5.5 C 5.62 g/m*3 3.7 C 8.1 km/h
710 27-02-2020 11:05:00 5.4 C 5.58 g/m*3 4.06 C 6.4 km/h
711 27-02-2020 11:10:00 5.4 C 5.65 g/m*3 4.06 C 6.4 km/h
712 27-02-2020 11:15:00 5.3 C 5.61 g/m*3 3.94 C 6.4 km/h
713 27-02-2020 11:20:00 5.3 C 5.68 g/m*3 3.94 C 6.4 km/h
714 27-02-2020 11:25:00 5.1 C 5.68 g/m*3 1.95 C 14.5 km/h
715 27-02-2020 11:30:00 4.9 C 5.67 g/m*3 2.61 C 9.7 km/h
716 27-02-2020 11:35:00 4.7 C 5.66 g/m*3 4.7 C 1.6 km/h
717 27-02-2020 11:40:00 4.7 C 5.66 g/m*3 4.7 C 1.6 km/h
718 27-02-2020 11:45:00 4.6 C 5.69 g/m*3 4.6 C 3.2 km/h
719 27-02-2020 11:50:00 4.6 C 5.76 g/m*3 4.6 C 1.6 km/h
720 27-02-2020 11:55:00 4.6 C 5.76 g/m*3 4.6 C 4.8 km/h
721 27-02-2020 12:00:00 4.6 C 5.76 g/m*3 2.64 C 8.1 km/h
722 27-02-2020 12:05:00 4.6 C 5.82 g/m*3 4.6 C 4.8 km/h
723 27-02-2020 12:10:00 4.6 C 5.82 g/m*3 4.6 C 4.8 km/h
724 27-02-2020 12:15:00 4.6 C 5.82 g/m*3 4.6 C 4.8 km/h
725 27-02-2020 12:20:00 4.6 C 5.89 g/m*3 3.13 C 6.4 km/h
Sensor: Nr:Datum:Temp:Abs-Feuchte:Windchill:Wind:
Aussen-T/F 726 27-02-2020 12:25:00 4.6 C 5.89 g/m*3 3.13 C 6.4 km/h
727 27-02-2020 12:30:00 4.5 C 5.85 g/m*3 4.5 C 4.8 km/h
728 27-02-2020 12:35:00 4.4 C 5.81 g/m*3 2.9 C 6.4 km/h
729 27-02-2020 12:40:00 4.4 C 5.81 g/m*3 2.01 C 9.7 km/h
730 27-02-2020 12:45:00 4.3 C 5.77 g/m*3 4.3 C 4.8 km/h
731 27-02-2020 12:50:00 4.3 C 5.84 g/m*3 2.78 C 6.4 km/h
732 27-02-2020 12:55:00 4.2 C 5.8 g/m*3 2.67 C 6.4 km/h
733 27-02-2020 13:00:00 4.1 C 5.76 g/m*3 4.1 C 3.2 km/h
734 27-02-2020 13:05:00 4.1 C 5.76 g/m*3 4.1 C 3.2 km/h
735 27-02-2020 13:10:00 4 C 5.79 g/m*3 4 C 4.8 km/h
736 27-02-2020 13:15:00 3.9 C 5.75 g/m*3 3.9 C 1.6 km/h
737 27-02-2020 13:20:00 3.9 C 5.75 g/m*3 3.9 C 1.6 km/h
738 27-02-2020 13:25:00 3.8 C 5.71 g/m*3 1.7 C 8.1 km/h
739 27-02-2020 13:30:00 3.7 C 5.73 g/m*3 3.7 C 4.8 km/h
740 27-02-2020 13:35:00 3.6 C 5.69 g/m*3 3.6 C 4.8 km/h
741 27-02-2020 13:40:00 3.5 C 5.6 g/m*3 3.5 C 4.8 km/h
742 27-02-2020 13:45:00 3.4 C 5.62 g/m*3 3.4 C 4.8 km/h
743 27-02-2020 13:50:00 3.4 C 5.62 g/m*3 1.23 C 8.1 km/h
744 27-02-2020 13:55:00 3.3 C 5.58 g/m*3 3.3 C 3.2 km/h
745 27-02-2020 14:00:00 3.3 C 5.64 g/m*3 1.11 C 8.1 km/h
746 27-02-2020 14:05:00 3.3 C 5.64 g/m*3 3.3 C 4.8 km/h
747 27-02-2020 14:10:00 3.3 C 5.64 g/m*3 0.34 C 11.3 km/h
748 27-02-2020 14:15:00 3.3 C 5.64 g/m*3 1.11 C 8.1 km/h
749 27-02-2020 14:20:00 3.3 C 5.64 g/m*3 1.63 C 6.4 km/h
750 27-02-2020 14:25:00 3.3 C 5.64 g/m*3 1.11 C 8.1 km/h
Sensor: Nr:Datum:Temp:Abs-Feuchte:Windchill:Wind:
Aussen-T/F 751 27-02-2020 14:30:00 3.2 C 5.6 g/m*3 0.99 C 8.1 km/h
752 27-02-2020 14:35:00 3.2 C 5.66 g/m*3 3.2 C 4.8 km/h
753 27-02-2020 14:40:00 3.2 C 5.66 g/m*3 3.2 C 4.8 km/h
754 27-02-2020 14:45:00 3.2 C 5.6 g/m*3 1.51 C 6.4 km/h
755 27-02-2020 14:50:00 3.1 C 5.63 g/m*3 1.4 C 6.4 km/h
756 27-02-2020 14:55:00 3.1 C 5.57 g/m*3 1.4 C 6.4 km/h
757 27-02-2020 15:00:00 3.1 C 5.63 g/m*3 -0.22 C 12.9 km/h
758 27-02-2020 15:05:00 3.1 C 5.63 g/m*3 0.87 C 8.1 km/h
759 27-02-2020 15:10:00 3.1 C 5.63 g/m*3 3.1 C 4.8 km/h
760 27-02-2020 15:15:00 3.1 C 5.63 g/m*3 1.4 C 6.4 km/h
761 27-02-2020 15:20:00 3 C 5.59 g/m*3 1.28 C 6.4 km/h
762 27-02-2020 15:25:00 3 C 5.59 g/m*3 0.76 C 8.1 km/h
763 27-02-2020 15:30:00 3 C 5.59 g/m*3 3 C 4.8 km/h
764 27-02-2020 15:35:00 3 C 5.59 g/m*3 3 C 3.2 km/h
765 27-02-2020 15:40:00 2.9 C 5.55 g/m*3 0.64 C 8.1 km/h
766 27-02-2020 15:45:00 2.9 C 5.55 g/m*3 2.9 C 1.6 km/h
767 27-02-2020 15:50:00 2.8 C 5.51 g/m*3 0.52 C 8.1 km/h
768 27-02-2020 15:55:00 2.8 C 5.51 g/m*3 -0.26 C 11.3 km/h
769 27-02-2020 16:00:00 2.7 C 5.48 g/m*3 2.7 C 3.2 km/h
770 27-02-2020 16:05:00 2.6 C 5.44 g/m*3 2.6 C 3.2 km/h
771 27-02-2020 16:10:00 2.6 C 5.44 g/m*3 2.6 C 1.6 km/h
772 27-02-2020 16:15:00 2.5 C 5.4 g/m*3 2.5 C 0 km/h
773 27-02-2020 16:20:00 2.4 C 5.37 g/m*3 2.4 C 0 km/h
774 27-02-2020 16:25:00 2.3 C 5.33 g/m*3 2.3 C 0 km/h
775 27-02-2020 16:30:00 2.2 C 5.29 g/m*3 2.2 C 0 km/h
Sensor: Nr:Datum:Temp:Abs-Feuchte:Windchill:Wind:
Aussen-T/F 776 27-02-2020 16:35:00 2 C 5.22 g/m*3 2 C 0 km/h
777 27-02-2020 16:40:00 1.8 C 5.15 g/m*3 1.8 C 0 km/h
778 27-02-2020 16:45:00 1.7 C 5.12 g/m*3 1.7 C 0 km/h
779 27-02-2020 16:50:00 1.6 C 5.08 g/m*3 1.6 C 0 km/h
780 27-02-2020 16:55:00 1.5 C 5.05 g/m*3 1.5 C 0 km/h
781 27-02-2020 17:00:00 1.4 C 5.01 g/m*3 1.4 C 0 km/h
782 27-02-2020 17:05:00 1.3 C 4.98 g/m*3 1.3 C 1.6 km/h
783 27-02-2020 17:10:00 1.3 C 4.98 g/m*3 1.3 C 1.6 km/h
784 27-02-2020 17:15:00 1.2 C 4.95 g/m*3 1.2 C 0 km/h
785 27-02-2020 17:20:00 1.2 C 4.95 g/m*3 1.2 C 0 km/h
786 27-02-2020 17:25:00 1.2 C 4.95 g/m*3 1.2 C 0 km/h
787 27-02-2020 17:30:00 1.1 C 4.91 g/m*3 1.1 C 0 km/h
788 27-02-2020 17:35:00 1.1 C 4.96 g/m*3 1.1 C 1.6 km/h
789 27-02-2020 17:40:00 1.1 C 4.96 g/m*3 1.1 C 0 km/h
790 27-02-2020 17:45:00 1.1 C 4.96 g/m*3 1.1 C 0 km/h
791 27-02-2020 17:50:00 1.1 C 4.96 g/m*3 1.1 C 1.6 km/h
792 27-02-2020 17:55:00 1.1 C 4.96 g/m*3 1.1 C 0 km/h
793 27-02-2020 18:00:00 1.1 C 4.96 g/m*3 1.1 C 1.6 km/h
794 27-02-2020 18:05:00 1.1 C 4.96 g/m*3 1.1 C 1.6 km/h
795 27-02-2020 18:10:00 1.1 C 4.96 g/m*3 1.1 C 0 km/h
796 27-02-2020 18:15:00 1.1 C 4.96 g/m*3 1.1 C 0 km/h
797 27-02-2020 18:20:00 1.1 C 4.96 g/m*3 1.1 C 0 km/h
798 27-02-2020 18:25:00 1.1 C 4.96 g/m*3 1.1 C 1.6 km/h
799 27-02-2020 18:30:00 1.2 C 5.05 g/m*3 1.2 C 0 km/h
800 27-02-2020 18:35:00 1.3 C 5.09 g/m*3 1.3 C 0 km/h
Sensor: Nr:Datum:Temp:Abs-Feuchte:Windchill:Wind:
Aussen-T/F 801 27-02-2020 18:40:00 1.3 C 5.09 g/m*3 1.3 C 0 km/h
802 27-02-2020 18:45:00 1.3 C 5.09 g/m*3 1.3 C 0 km/h
803 27-02-2020 18:50:00 1.2 C 5 g/m*3 1.2 C 0 km/h
804 27-02-2020 18:55:00 1.2 C 5 g/m*3 1.2 C 0 km/h
805 27-02-2020 19:00:00 1.3 C 5.09 g/m*3 1.3 C 3.2 km/h
806 27-02-2020 19:05:00 1.4 C 5.12 g/m*3 1.4 C 4.8 km/h
807 27-02-2020 19:10:00 1.5 C 5.16 g/m*3 -1.83 C 11.3 km/h
808 27-02-2020 19:15:00 1.6 C 5.19 g/m*3 -1.33 C 9.7 km/h
809 27-02-2020 19:20:00 1.6 C 5.19 g/m*3 1.6 C 4.8 km/h
810 27-02-2020 19:25:00 1.6 C 5.19 g/m*3 1.6 C 4.8 km/h
811 27-02-2020 19:30:00 1.6 C 5.19 g/m*3 1.6 C 4.8 km/h
812 27-02-2020 19:35:00 1.6 C 5.19 g/m*3 -0.89 C 8.1 km/h
813 27-02-2020 19:40:00 1.7 C 5.23 g/m*3 -1.59 C 11.3 km/h
814 27-02-2020 19:45:00 1.7 C 5.23 g/m*3 -0.22 C 6.4 km/h
815 27-02-2020 19:50:00 1.7 C 5.23 g/m*3 -1.21 C 9.7 km/h
816 27-02-2020 19:55:00 1.7 C 5.17 g/m*3 1.7 C 4.8 km/h
817 27-02-2020 20:00:00 1.7 C 5.17 g/m*3 -1.21 C 9.7 km/h
818 27-02-2020 20:05:00 1.8 C 5.21 g/m*3 -1.8 C 12.9 km/h
819 27-02-2020 20:10:00 1.8 C 5.21 g/m*3 -0.1 C 6.4 km/h
820 27-02-2020 20:15:00 1.8 C 5.21 g/m*3 1.8 C 4.8 km/h
821 27-02-2020 20:20:00 1.7 C 5.17 g/m*3 -0.77 C 8.1 km/h
822 27-02-2020 20:25:00 1.7 C 5.17 g/m*3 -1.21 C 9.7 km/h
823 27-02-2020 20:30:00 1.7 C 5.17 g/m*3 1.7 C 3.2 km/h
824 27-02-2020 20:35:00 1.7 C 5.17 g/m*3 -0.77 C 8.1 km/h
825 27-02-2020 20:40:00 1.7 C 5.17 g/m*3 -1.21 C 9.7 km/h
Sensor: Nr:Datum:Temp:Abs-Feuchte:Windchill:Wind:
Aussen-T/F 826 27-02-2020 20:45:00 1.7 C 5.17 g/m*3 1.7 C 3.2 km/h
827 27-02-2020 20:50:00 1.7 C 5.17 g/m*3 1.7 C 4.8 km/h
828 27-02-2020 20:55:00 1.7 C 5.17 g/m*3 1.7 C 0 km/h
829 27-02-2020 21:00:00 1.6 C 5.14 g/m*3 -0.33 C 6.4 km/h
830 27-02-2020 21:05:00 1.7 C 5.17 g/m*3 1.7 C 4.8 km/h
831 27-02-2020 21:10:00 1.7 C 5.17 g/m*3 1.7 C 4.8 km/h
832 27-02-2020 21:15:00 1.7 C 5.17 g/m*3 -0.22 C 6.4 km/h
833 27-02-2020 21:20:00 1.7 C 5.17 g/m*3 1.7 C 4.8 km/h
834 27-02-2020 21:25:00 1.7 C 5.17 g/m*3 1.7 C 3.2 km/h
835 27-02-2020 21:30:00 1.7 C 5.17 g/m*3 -0.77 C 8.1 km/h
836 27-02-2020 21:35:00 1.7 C 5.17 g/m*3 -0.77 C 8.1 km/h
837 27-02-2020 21:40:00 1.7 C 5.17 g/m*3 -0.77 C 8.1 km/h
838 27-02-2020 21:45:00 1.7 C 5.17 g/m*3 -0.22 C 6.4 km/h
839 27-02-2020 21:50:00 1.7 C 5.17 g/m*3 1.7 C 3.2 km/h
840 27-02-2020 21:55:00 1.7 C 5.17 g/m*3 1.7 C 3.2 km/h
841 27-02-2020 22:00:00 1.7 C 5.17 g/m*3 1.7 C 3.2 km/h
842 27-02-2020 22:05:00 1.7 C 5.17 g/m*3 1.7 C 1.6 km/h
843 27-02-2020 22:10:00 1.7 C 5.17 g/m*3 1.7 C 3.2 km/h
844 27-02-2020 22:15:00 1.6 C 5.14 g/m*3 1.6 C 0 km/h
845 27-02-2020 22:20:00 1.6 C 5.14 g/m*3 1.6 C 1.6 km/h
846 27-02-2020 22:25:00 1.6 C 5.14 g/m*3 1.6 C 1.6 km/h
847 27-02-2020 22:30:00 1.6 C 5.19 g/m*3 1.6 C 4.8 km/h
848 27-02-2020 22:35:00 1.7 C 5.23 g/m*3 -0.22 C 6.4 km/h
849 27-02-2020 22:40:00 1.8 C 5.26 g/m*3 -0.1 C 6.4 km/h
850 27-02-2020 22:45:00 1.9 C 5.3 g/m*3 0.01 C 6.4 km/h
Sensor: Nr:Datum:Temp:Abs-Feuchte:Windchill:Wind:
Aussen-T/F 851 27-02-2020 22:50:00 1.9 C 5.3 g/m*3 1.9 C 3.2 km/h
852 27-02-2020 22:55:00 1.9 C 5.3 g/m*3 0.01 C 6.4 km/h
853 27-02-2020 23:00:00 1.9 C 5.3 g/m*3 0.01 C 6.4 km/h
854 27-02-2020 23:05:00 2.1 C 5.37 g/m*3 2.1 C 4.8 km/h
855 27-02-2020 23:10:00 2.1 C 5.37 g/m*3 0.24 C 6.4 km/h
856 27-02-2020 23:15:00 2.2 C 5.35 g/m*3 -0.18 C 8.1 km/h
857 27-02-2020 23:20:00 2.2 C 5.41 g/m*3 -0.18 C 8.1 km/h
858 27-02-2020 23:25:00 2.3 C 5.39 g/m*3 -0.49 C 9.7 km/h
859 27-02-2020 23:30:00 2.3 C 5.39 g/m*3 -0.87 C 11.3 km/h
860 27-02-2020 23:35:00 2.4 C 5.42 g/m*3 -1.37 C 14.5 km/h
861 27-02-2020 23:40:00 2.5 C 5.46 g/m*3 -0.62 C 11.3 km/h
862 27-02-2020 23:45:00 2.5 C 5.46 g/m*3 -0.62 C 11.3 km/h
863 27-02-2020 23:50:00 2.6 C 5.44 g/m*3 -1.39 C 16.1 km/h
864 27-02-2020 23:55:00 2.6 C 5.44 g/m*3 0.29 C 8.1 km/h
865 28-02-2020 00:00:00 2.7 C 5.48 g/m*3 -0.38 C 11.3 km/h
866 28-02-2020 00:05:00 2.7 C 5.42 g/m*3 -0.38 C 11.3 km/h
867 28-02-2020 00:10:00 2.7 C 5.42 g/m*3 -0.71 C 12.9 km/h
868 28-02-2020 00:15:00 2.8 C 5.46 g/m*3 1.05 C 6.4 km/h
869 28-02-2020 00:20:00 2.8 C 5.4 g/m*3 -0.88 C 14.5 km/h
870 28-02-2020 00:25:00 2.8 C 5.4 g/m*3 1.05 C 6.4 km/h
871 28-02-2020 00:30:00 2.8 C 5.4 g/m*3 1.05 C 6.4 km/h
872 28-02-2020 00:35:00 2.8 C 5.4 g/m*3 2.8 C 3.2 km/h
873 28-02-2020 00:40:00 2.8 C 5.4 g/m*3 2.8 C 4.8 km/h
874 28-02-2020 00:45:00 2.7 C 5.42 g/m*3 2.7 C 3.2 km/h
875 28-02-2020 00:50:00 2.7 C 5.42 g/m*3 -0.02 C 9.7 km/h
Sensor: Nr:Datum:Temp:Abs-Feuchte:Windchill:Wind:
Aussen-T/F 876 28-02-2020 00:55:00 2.7 C 5.42 g/m*3 2.7 C 4.8 km/h
877 28-02-2020 01:00:00 2.7 C 5.42 g/m*3 2.7 C 0 km/h
878 28-02-2020 01:05:00 2.7 C 5.42 g/m*3 2.7 C 3.2 km/h
879 28-02-2020 01:10:00 2.6 C 5.38 g/m*3 2.6 C 4.8 km/h
880 28-02-2020 01:15:00 2.5 C 5.35 g/m*3 2.5 C 4.8 km/h
881 28-02-2020 01:20:00 2.4 C 5.31 g/m*3 2.4 C 3.2 km/h
882 28-02-2020 01:25:00 2.4 C 5.37 g/m*3 2.4 C 4.8 km/h
883 28-02-2020 01:30:00 2.3 C 5.33 g/m*3 2.3 C 3.2 km/h
884 28-02-2020 01:35:00 2.3 C 5.33 g/m*3 2.3 C 4.8 km/h
885 28-02-2020 01:40:00 2.3 C 5.33 g/m*3 0.47 C 6.4 km/h
886 28-02-2020 01:45:00 2.3 C 5.33 g/m*3 2.3 C 4.8 km/h
887 28-02-2020 01:50:00 2.3 C 5.33 g/m*3 2.3 C 3.2 km/h
888 28-02-2020 01:55:00 2.3 C 5.33 g/m*3 2.3 C 0 km/h
889 28-02-2020 02:00:00 2.3 C 5.33 g/m*3 2.3 C 4.8 km/h
890 28-02-2020 02:05:00 2.3 C 5.33 g/m*3 2.3 C 4.8 km/h
891 28-02-2020 02:10:00 2.2 C 5.29 g/m*3 2.2 C 3.2 km/h
892 28-02-2020 02:15:00 2.2 C 5.29 g/m*3 2.2 C 3.2 km/h
893 28-02-2020 02:20:00 2.2 C 5.29 g/m*3 2.2 C 0 km/h
894 28-02-2020 02:25:00 2.2 C 5.35 g/m*3 2.2 C 3.2 km/h
895 28-02-2020 02:30:00 2.1 C 5.26 g/m*3 2.1 C 4.8 km/h
896 28-02-2020 02:35:00 2.1 C 5.26 g/m*3 2.1 C 4.8 km/h
897 28-02-2020 02:40:00 2.1 C 5.26 g/m*3 2.1 C 4.8 km/h
898 28-02-2020 02:45:00 2.1 C 5.26 g/m*3 2.1 C 4.8 km/h
899 28-02-2020 02:50:00 2.1 C 5.26 g/m*3 2.1 C 4.8 km/h
900 28-02-2020 02:55:00 2.1 C 5.26 g/m*3 0.24 C 6.4 km/h
Sensor: Nr:Datum:Temp:Abs-Feuchte:Windchill:Wind:
Aussen-T/F 901 28-02-2020 03:00:00 2.1 C 5.26 g/m*3 -0.3 C 8.1 km/h
902 28-02-2020 03:05:00 2 C 5.22 g/m*3 2 C 4.8 km/h
903 28-02-2020 03:10:00 2 C 5.22 g/m*3 2 C 4.8 km/h
904 28-02-2020 03:15:00 2 C 5.22 g/m*3 2 C 4.8 km/h
905 28-02-2020 03:20:00 2 C 5.22 g/m*3 2 C 4.8 km/h
906 28-02-2020 03:25:00 1.9 C 5.19 g/m*3 1.9 C 3.2 km/h
907 28-02-2020 03:30:00 1.9 C 5.19 g/m*3 1.9 C 4.8 km/h
908 28-02-2020 03:35:00 1.8 C 5.15 g/m*3 1.8 C 4.8 km/h
909 28-02-2020 03:40:00 1.8 C 5.15 g/m*3 1.8 C 4.8 km/h
910 28-02-2020 03:45:00 1.8 C 5.15 g/m*3 1.8 C 3.2 km/h
911 28-02-2020 03:50:00 1.8 C 5.15 g/m*3 1.8 C 4.8 km/h
912 28-02-2020 03:55:00 1.7 C 5.12 g/m*3 1.7 C 4.8 km/h
913 28-02-2020 04:00:00 1.7 C 5.12 g/m*3 -0.22 C 6.4 km/h
914 28-02-2020 04:05:00 1.7 C 5.12 g/m*3 -0.22 C 6.4 km/h
915 28-02-2020 04:10:00 1.8 C 5.15 g/m*3 1.8 C 4.8 km/h
916 28-02-2020 04:15:00 1.8 C 5.15 g/m*3 1.8 C 1.6 km/h
917 28-02-2020 04:20:00 1.8 C 5.15 g/m*3 -0.1 C 6.4 km/h
918 28-02-2020 04:25:00 1.8 C 5.15 g/m*3 1.8 C 3.2 km/h
919 28-02-2020 04:30:00 1.9 C 5.19 g/m*3 1.9 C 3.2 km/h
920 28-02-2020 04:35:00 1.9 C 5.19 g/m*3 1.9 C 3.2 km/h
921 28-02-2020 04:40:00 1.9 C 5.19 g/m*3 -0.54 C 8.1 km/h
922 28-02-2020 04:45:00 1.9 C 5.19 g/m*3 1.9 C 3.2 km/h
923 28-02-2020 04:50:00 1.8 C 5.15 g/m*3 1.8 C 3.2 km/h
924 28-02-2020 04:55:00 1.8 C 5.15 g/m*3 -0.1 C 6.4 km/h
925 28-02-2020 05:00:00 1.9 C 5.19 g/m*3 0.01 C 6.4 km/h
Sensor: Nr:Datum:Temp:Abs-Feuchte:Windchill:Wind:
Aussen-T/F 926 28-02-2020 05:05:00 1.8 C 5.15 g/m*3 -1.47 C 11.3 km/h
927 28-02-2020 05:10:00 1.9 C 5.19 g/m*3 1.9 C 3.2 km/h
928 28-02-2020 05:15:00 1.8 C 5.15 g/m*3 -0.1 C 6.4 km/h
929 28-02-2020 05:20:00 1.8 C 5.15 g/m*3 1.8 C 3.2 km/h
930 28-02-2020 05:25:00 1.7 C 5.12 g/m*3 1.7 C 4.8 km/h
931 28-02-2020 05:30:00 1.6 C 5.08 g/m*3 -0.89 C 8.1 km/h
932 28-02-2020 05:35:00 1.6 C 5.08 g/m*3 -0.89 C 8.1 km/h
933 28-02-2020 05:40:00 1.7 C 5.12 g/m*3 -1.59 C 11.3 km/h
934 28-02-2020 05:45:00 1.7 C 5.12 g/m*3 1.7 C 4.8 km/h
935 28-02-2020 05:50:00 1.7 C 5.12 g/m*3 1.7 C 4.8 km/h
936 28-02-2020 05:55:00 1.6 C 5.08 g/m*3 1.6 C 4.8 km/h
937 28-02-2020 06:00:00 1.6 C 5.03 g/m*3 -1.33 C 9.7 km/h
938 28-02-2020 06:05:00 1.6 C 5.08 g/m*3 -1.33 C 9.7 km/h
939 28-02-2020 06:10:00 1.5 C 5.05 g/m*3 -0.45 C 6.4 km/h
940 28-02-2020 06:15:00 1.4 C 4.96 g/m*3 1.4 C 4.8 km/h
941 28-02-2020 06:20:00 1.4 C 5.01 g/m*3 -1.57 C 9.7 km/h
942 28-02-2020 06:25:00 1.4 C 5.01 g/m*3 -1.57 C 9.7 km/h
943 28-02-2020 06:30:00 1.4 C 5.01 g/m*3 -0.56 C 6.4 km/h
944 28-02-2020 06:35:00 1.4 C 4.96 g/m*3 -1.57 C 9.7 km/h
945 28-02-2020 06:40:00 1.4 C 4.96 g/m*3 -0.56 C 6.4 km/h
946 28-02-2020 06:45:00 1.3 C 4.93 g/m*3 1.3 C 4.8 km/h
947 28-02-2020 06:50:00 1.3 C 4.98 g/m*3 -1.24 C 8.1 km/h
948 28-02-2020 06:55:00 1.3 C 4.98 g/m*3 -0.68 C 6.4 km/h
949 28-02-2020 07:00:00 1.3 C 4.98 g/m*3 1.3 C 4.8 km/h
950 28-02-2020 07:05:00 1.2 C 4.89 g/m*3 1.2 C 4.8 km/h
Sensor: Nr:Datum:Temp:Abs-Feuchte:Windchill:Wind:
Aussen-T/F 951 28-02-2020 07:10:00 1.2 C 4.89 g/m*3 1.2 C 3.2 km/h
952 28-02-2020 07:15:00 1.2 C 4.89 g/m*3 -0.8 C 6.4 km/h
953 28-02-2020 07:20:00 1.1 C 4.86 g/m*3 -1.48 C 8.1 km/h
954 28-02-2020 07:25:00 1.1 C 4.86 g/m*3 -1.92 C 9.7 km/h
955 28-02-2020 07:30:00 1.1 C 4.86 g/m*3 -1.92 C 9.7 km/h
956 28-02-2020 07:35:00 1.1 C 4.86 g/m*3 -1.48 C 8.1 km/h
957 28-02-2020 07:40:00 1.2 C 4.89 g/m*3 -1.8 C 9.7 km/h
958 28-02-2020 07:45:00 1.2 C 4.89 g/m*3 1.2 C 4.8 km/h
959 28-02-2020 07:50:00 1.1 C 4.86 g/m*3 1.1 C 4.8 km/h
960 28-02-2020 07:55:00 1.1 C 4.86 g/m*3 -0.91 C 6.4 km/h
961 28-02-2020 08:00:00 1.1 C 4.86 g/m*3 1.1 C 4.8 km/h
962 28-02-2020 08:05:00 1.1 C 4.86 g/m*3 1.1 C 3.2 km/h
963 28-02-2020 08:10:00 1 C 4.83 g/m*3 1 C 4.8 km/h
964 28-02-2020 08:15:00 1.1 C 4.91 g/m*3 -0.91 C 6.4 km/h
965 28-02-2020 08:20:00 1.1 C 4.91 g/m*3 1.1 C 4.8 km/h
966 28-02-2020 08:25:00 1.1 C 4.91 g/m*3 1.1 C 3.2 km/h
967 28-02-2020 08:30:00 1.1 C 4.91 g/m*3 1.1 C 4.8 km/h
968 28-02-2020 08:35:00 1.1 C 4.91 g/m*3 1.1 C 4.8 km/h
969 28-02-2020 08:40:00 1.2 C 4.95 g/m*3 -0.8 C 6.4 km/h
970 28-02-2020 08:45:00 1.2 C 4.95 g/m*3 1.2 C 4.8 km/h
971 28-02-2020 08:50:00 1.3 C 4.98 g/m*3 -1.24 C 8.1 km/h
972 28-02-2020 08:55:00 1.4 C 5.01 g/m*3 -0.56 C 6.4 km/h
973 28-02-2020 09:00:00 1.5 C 5.05 g/m*3 -0.45 C 6.4 km/h
974 28-02-2020 09:05:00 1.6 C 5.08 g/m*3 -0.89 C 8.1 km/h
975 28-02-2020 09:10:00 1.7 C 5.12 g/m*3 -0.77 C 8.1 km/h
Sensor: Nr:Datum:Temp:Abs-Feuchte:Windchill:Wind:
Aussen-T/F 976 28-02-2020 09:15:00 1.8 C 5.15 g/m*3 -0.65 C 8.1 km/h
977 28-02-2020 09:20:00 1.9 C 5.19 g/m*3 0.01 C 6.4 km/h
978 28-02-2020 09:25:00 1.9 C 5.13 g/m*3 0.01 C 6.4 km/h
979 28-02-2020 09:30:00 2 C 5.17 g/m*3 -1.23 C 11.3 km/h
980 28-02-2020 09:35:00 2.1 C 5.2 g/m*3 0.24 C 6.4 km/h
981 28-02-2020 09:40:00 2.2 C 5.24 g/m*3 0.36 C 6.4 km/h
982 28-02-2020 09:45:00 2.3 C 5.27 g/m*3 0.47 C 6.4 km/h
983 28-02-2020 09:50:00 2.3 C 5.22 g/m*3 -0.49 C 9.7 km/h
984 28-02-2020 09:55:00 2.4 C 5.25 g/m*3 -0.74 C 11.3 km/h
985 28-02-2020 10:00:00 2.5 C 5.29 g/m*3 0.17 C 8.1 km/h
986 28-02-2020 10:05:00 2.6 C 5.32 g/m*3 -0.14 C 9.7 km/h
987 28-02-2020 10:10:00 2.7 C 5.3 g/m*3 -0.02 C 9.7 km/h
988 28-02-2020 10:15:00 2.7 C 5.3 g/m*3 -0.02 C 9.7 km/h
989 28-02-2020 10:20:00 2.8 C 5.34 g/m*3 -0.59 C 12.9 km/h
990 28-02-2020 10:25:00 2.9 C 5.32 g/m*3 -0.14 C 11.3 km/h
991 28-02-2020 10:30:00 3.1 C 5.39 g/m*3 0.87 C 8.1 km/h
992 28-02-2020 10:35:00 3.2 C 5.42 g/m*3 0.22 C 11.3 km/h
993 28-02-2020 10:40:00 3.3 C 5.4 g/m*3 0.7 C 9.7 km/h
994 28-02-2020 10:45:00 3.4 C 5.37 g/m*3 0.14 C 12.9 km/h
995 28-02-2020 10:50:00 3.4 C 5.37 g/m*3 0.14 C 12.9 km/h
996 28-02-2020 10:55:00 3.5 C 5.41 g/m*3 0.27 C 12.9 km/h
997 28-02-2020 11:00:00 3.5 C 5.35 g/m*3 0.27 C 12.9 km/h
998 28-02-2020 11:05:00 3.6 C 5.39 g/m*3 0.7 C 11.3 km/h
999 28-02-2020 11:10:00 3.6 C 5.39 g/m*3 0.11 C 14.5 km/h
1000 28-02-2020 11:15:00 3.6 C 5.39 g/m*3 0.39 C 12.9 km/h
Sensor: Nr:Datum:Temp:Abs-Feuchte:Windchill:Wind:
Aussen-T/F 1001 28-02-2020 11:20:00 3.7 C 5.42 g/m*3 0.23 C 14.5 km/h
1002 28-02-2020 11:25:00 3.7 C 5.36 g/m*3 0.51 C 12.9 km/h
1003 28-02-2020 11:30:00 3.8 C 5.4 g/m*3 0.63 C 12.9 km/h
1004 28-02-2020 11:35:00 3.8 C 5.46 g/m*3 0.94 C 11.3 km/h
1005 28-02-2020 11:40:00 3.9 C 5.49 g/m*3 1.41 C 9.7 km/h
1006 28-02-2020 11:45:00 4 C 5.47 g/m*3 0.11 C 17.7 km/h
1007 28-02-2020 11:50:00 4.1 C 5.5 g/m*3 1.31 C 11.3 km/h
1008 28-02-2020 11:55:00 4.1 C 5.5 g/m*3 0.47 C 16.1 km/h
1009 28-02-2020 12:00:00 4.2 C 5.54 g/m*3 0.84 C 14.5 km/h
1010 28-02-2020 12:05:00 4.3 C 5.58 g/m*3 0.97 C 14.5 km/h
1011 28-02-2020 12:10:00 4.3 C 5.51 g/m*3 0.97 C 14.5 km/h
1012 28-02-2020 12:15:00 4.3 C 5.58 g/m*3 1.24 C 12.9 km/h
1013 28-02-2020 12:20:00 4.3 C 5.58 g/m*3 1.24 C 12.9 km/h
1014 28-02-2020 12:25:00 4.6 C 5.69 g/m*3 1.09 C 16.1 km/h
1015 28-02-2020 12:30:00 4.6 C 5.62 g/m*3 0.65 C 19.3 km/h
1016 28-02-2020 12:35:00 4.7 C 5.6 g/m*3 1.46 C 14.5 km/h
1017 28-02-2020 12:40:00 4.7 C 5.6 g/m*3 1.46 C 14.5 km/h
1018 28-02-2020 12:45:00 4.9 C 5.67 g/m*3 1.46 C 16.1 km/h
1019 28-02-2020 12:50:00 5.1 C 5.75 g/m*3 2.84 C 9.7 km/h
1020 28-02-2020 12:55:00 5.2 C 5.78 g/m*3 2.96 C 9.7 km/h
1021 28-02-2020 13:00:00 5.4 C 5.86 g/m*3 2.87 C 11.3 km/h
1022 28-02-2020 13:05:00 5.6 C 5.8 g/m*3 2.33 C 16.1 km/h
1023 28-02-2020 13:10:00 5.7 C 5.84 g/m*3 2.45 C 16.1 km/h
1024 28-02-2020 13:15:00 5.8 C 5.87 g/m*3 3.36 C 11.3 km/h
1025 28-02-2020 13:20:00 5.9 C 5.84 g/m*3 3.19 C 12.9 km/h
Sensor: Nr:Datum:Temp:Abs-Feuchte:Windchill:Wind:
Aussen-T/F 1026 28-02-2020 13:25:00 6 C 5.81 g/m*3 3.6 C 11.3 km/h
1027 28-02-2020 13:30:00 6.1 C 5.77 g/m*3 3.72 C 11.3 km/h
1028 28-02-2020 13:35:00 6.2 C 5.81 g/m*3 4.52 C 8.1 km/h
1029 28-02-2020 13:40:00 6.3 C 5.77 g/m*3 4.64 C 8.1 km/h
1030 28-02-2020 13:45:00 6.4 C 5.81 g/m*3 3.8 C 12.9 km/h
1031 28-02-2020 13:50:00 6.6 C 5.81 g/m*3 4.63 C 9.7 km/h
1032 28-02-2020 13:55:00 6.7 C 5.7 g/m*3 4.75 C 9.7 km/h
1033 28-02-2020 14:00:00 6.9 C 5.77 g/m*3 4.16 C 14.5 km/h
1034 28-02-2020 14:05:00 7.1 C 5.85 g/m*3 5.58 C 8.1 km/h
1035 28-02-2020 14:10:00 7.3 C 5.93 g/m*3 5.47 C 9.7 km/h
1036 28-02-2020 14:15:00 7.3 C 5.85 g/m*3 5.81 C 8.1 km/h
1037 28-02-2020 14:20:00 7.3 C 5.85 g/m*3 6.25 C 6.4 km/h
1038 28-02-2020 14:25:00 7.3 C 5.85 g/m*3 4.66 C 14.5 km/h
1039 28-02-2020 14:30:00 7.4 C 5.81 g/m*3 5.58 C 9.7 km/h
1040 28-02-2020 14:35:00 7.5 C 5.84 g/m*3 4.3 C 19.3 km/h
1041 28-02-2020 14:40:00 7.6 C 5.8 g/m*3 5.26 C 12.9 km/h
1042 28-02-2020 14:45:00 7.6 C 5.88 g/m*3 6.6 C 6.4 km/h
1043 28-02-2020 14:50:00 7.6 C 5.8 g/m*3 5.53 C 11.3 km/h
1044 28-02-2020 14:55:00 7.5 C 5.84 g/m*3 5.41 C 11.3 km/h
1045 28-02-2020 15:00:00 7.3 C 5.69 g/m*3 5.16 C 11.3 km/h
1046 28-02-2020 15:05:00 7.3 C 5.93 g/m*3 7.3 C 4.8 km/h
1047 28-02-2020 15:10:00 7.4 C 5.96 g/m*3 6.37 C 6.4 km/h
1048 28-02-2020 15:15:00 7.4 C 5.81 g/m*3 5.58 C 9.7 km/h
1049 28-02-2020 15:20:00 7.4 C 5.81 g/m*3 5.28 C 11.3 km/h
1050 28-02-2020 15:25:00 7.5 C 5.76 g/m*3 5.7 C 9.7 km/h
Sensor: Nr:Datum:Temp:Abs-Feuchte:Windchill:Wind:
Aussen-T/F 1051 28-02-2020 15:30:00 7.6 C 5.88 g/m*3 6.6 C 6.4 km/h
1052 28-02-2020 15:35:00 7.6 C 5.8 g/m*3 6.16 C 8.1 km/h
1053 28-02-2020 15:40:00 7.6 C 5.64 g/m*3 6.6 C 6.4 km/h
1054 28-02-2020 15:45:00 7.5 C 5.6 g/m*3 5.7 C 9.7 km/h
1055 28-02-2020 15:50:00 7.4 C 5.65 g/m*3 5.58 C 9.7 km/h
1056 28-02-2020 15:55:00 7.4 C 5.65 g/m*3 7.4 C 4.8 km/h
1057 28-02-2020 16:00:00 7.4 C 5.73 g/m*3 5.28 C 11.3 km/h
1058 28-02-2020 16:05:00 7.3 C 5.61 g/m*3 5.81 C 8.1 km/h
1059 28-02-2020 16:10:00 7.3 C 5.85 g/m*3 7.3 C 4.8 km/h
1060 28-02-2020 16:15:00 7.2 C 5.73 g/m*3 7.2 C 3.2 km/h
1061 28-02-2020 16:20:00 7.2 C 5.89 g/m*3 7.2 C 3.2 km/h
1062 28-02-2020 16:25:00 7.3 C 5.93 g/m*3 7.3 C 3.2 km/h
1063 28-02-2020 16:30:00 7.2 C 5.89 g/m*3 7.2 C 1.6 km/h
1064 28-02-2020 16:35:00 7.2 C 6.04 g/m*3 7.2 C 0 km/h
1065 28-02-2020 16:40:00 7.2 C 6.12 g/m*3 7.2 C 0 km/h
1066 28-02-2020 16:45:00 7.2 C 6.04 g/m*3 6.13 C 6.4 km/h
1067 28-02-2020 16:50:00 7.1 C 6.16 g/m*3 7.1 C 1.6 km/h
1068 28-02-2020 16:55:00 7.1 C 6.08 g/m*3 7.1 C 1.6 km/h
1069 28-02-2020 17:00:00 7 C 6.2 g/m*3 7 C 0 km/h
1070 28-02-2020 17:05:00 7 C 6.12 g/m*3 7 C 1.6 km/h
1071 28-02-2020 17:10:00 6.9 C 6.24 g/m*3 6.9 C 0 km/h
1072 28-02-2020 17:15:00 6.8 C 6.19 g/m*3 6.8 C 0 km/h
1073 28-02-2020 17:20:00 6.8 C 6.27 g/m*3 6.8 C 0 km/h
1074 28-02-2020 17:25:00 6.6 C 6.19 g/m*3 6.6 C 1.6 km/h
1075 28-02-2020 17:30:00 6.4 C 6.11 g/m*3 6.4 C 3.2 km/h
Sensor: Nr:Datum:Temp:Abs-Feuchte:Windchill:Wind:
Aussen-T/F 1076 28-02-2020 17:35:00 6.2 C 5.88 g/m*3 6.2 C 3.2 km/h
1077 28-02-2020 17:40:00 6 C 5.88 g/m*3 6 C 3.2 km/h
1078 28-02-2020 17:45:00 5.9 C 5.98 g/m*3 5.9 C 3.2 km/h
1079 28-02-2020 17:50:00 5.8 C 5.95 g/m*3 5.8 C 1.6 km/h
1080 28-02-2020 17:55:00 5.7 C 5.98 g/m*3 5.7 C 0 km/h
1081 28-02-2020 18:00:00 5.5 C 5.9 g/m*3 5.5 C 0 km/h
1082 28-02-2020 18:05:00 5.4 C 5.86 g/m*3 5.4 C 0 km/h
1083 28-02-2020 18:10:00 5.3 C 5.89 g/m*3 5.3 C 0 km/h
1084 28-02-2020 18:15:00 5.2 C 5.85 g/m*3 5.2 C 0 km/h
1085 28-02-2020 18:20:00 5.1 C 5.81 g/m*3 5.1 C 0 km/h
1086 28-02-2020 18:25:00 5.1 C 5.81 g/m*3 5.1 C 4.8 km/h
1087 28-02-2020 18:30:00 5.1 C 5.75 g/m*3 3.71 C 6.4 km/h
1088 28-02-2020 18:35:00 5.3 C 5.61 g/m*3 2.75 C 11.3 km/h
1089 28-02-2020 18:40:00 5.5 C 5.76 g/m*3 5.5 C 1.6 km/h
1090 28-02-2020 18:45:00 5.6 C 5.59 g/m*3 5.6 C 4.8 km/h
1091 28-02-2020 18:50:00 5.7 C 5.62 g/m*3 4.4 C 6.4 km/h
1092 28-02-2020 18:55:00 5.7 C 5.69 g/m*3 5.7 C 4.8 km/h
1093 28-02-2020 19:00:00 5.7 C 5.76 g/m*3 5.7 C 1.6 km/h
1094 28-02-2020 19:05:00 5.7 C 5.62 g/m*3 3.93 C 8.1 km/h
1095 28-02-2020 19:10:00 5.7 C 5.62 g/m*3 4.4 C 6.4 km/h
1096 28-02-2020 19:15:00 5.7 C 5.76 g/m*3 5.7 C 3.2 km/h
1097 28-02-2020 19:20:00 5.6 C 5.37 g/m*3 3.81 C 8.1 km/h
1098 28-02-2020 19:25:00 5.7 C 5.55 g/m*3 4.4 C 6.4 km/h
1099 28-02-2020 19:30:00 5.7 C 5.69 g/m*3 5.7 C 1.6 km/h
1100 28-02-2020 19:35:00 5.6 C 5.66 g/m*3 5.6 C 1.6 km/h
Sensor: Nr:Datum:Temp:Abs-Feuchte:Windchill:Wind:
Aussen-T/F 1101 28-02-2020 19:40:00 5.5 C 5.48 g/m*3 3.7 C 8.1 km/h
1102 28-02-2020 19:45:00 5.6 C 5.66 g/m*3 5.6 C 3.2 km/h
1103 28-02-2020 19:50:00 5.6 C 5.66 g/m*3 5.6 C 3.2 km/h
1104 28-02-2020 19:55:00 5.6 C 5.66 g/m*3 5.6 C 1.6 km/h
1105 28-02-2020 20:00:00 5.5 C 5.69 g/m*3 5.5 C 0 km/h
1106 28-02-2020 20:05:00 5.4 C 5.72 g/m*3 5.4 C 4.8 km/h
1107 28-02-2020 20:10:00 5.4 C 5.51 g/m*3 5.4 C 3.2 km/h
1108 28-02-2020 20:15:00 5.4 C 5.58 g/m*3 5.4 C 1.6 km/h
1109 28-02-2020 20:20:00 5.5 C 5.69 g/m*3 3.7 C 8.1 km/h
1110 28-02-2020 20:25:00 5.6 C 5.73 g/m*3 3.44 C 9.7 km/h
1111 28-02-2020 20:30:00 5.6 C 5.73 g/m*3 5.6 C 3.2 km/h
1112 28-02-2020 20:35:00 5.6 C 5.73 g/m*3 2.83 C 12.9 km/h
1113 28-02-2020 20:40:00 5.6 C 5.73 g/m*3 5.6 C 4.8 km/h
1114 28-02-2020 20:45:00 5.6 C 5.87 g/m*3 3.81 C 8.1 km/h
1115 28-02-2020 20:50:00 5.4 C 5.86 g/m*3 2.08 C 16.1 km/h
1116 28-02-2020 20:55:00 5.4 C 5.79 g/m*3 3.58 C 8.1 km/h
1117 28-02-2020 21:00:00 5.3 C 5.89 g/m*3 5.3 C 4.8 km/h
1118 28-02-2020 21:05:00 5.3 C 5.96 g/m*3 5.3 C 3.2 km/h
1119 28-02-2020 21:10:00 5.2 C 5.92 g/m*3 5.2 C 3.2 km/h
1120 28-02-2020 21:15:00 5.1 C 5.95 g/m*3 5.1 C 1.6 km/h
1121 28-02-2020 21:20:00 5 C 5.98 g/m*3 5 C 4.8 km/h
1122 28-02-2020 21:25:00 4.9 C 5.87 g/m*3 2.99 C 8.1 km/h
1123 28-02-2020 21:30:00 4.9 C 5.94 g/m*3 4.9 C 3.2 km/h
1124 28-02-2020 21:35:00 4.8 C 5.9 g/m*3 4.8 C 4.8 km/h
1125 28-02-2020 21:40:00 4.8 C 5.83 g/m*3 4.8 C 4.8 km/h
Sensor: Nr:Datum:Temp:Abs-Feuchte:Windchill:Wind:
Aussen-T/F 1126 28-02-2020 21:45:00 4.9 C 5.81 g/m*3 2.61 C 9.7 km/h
1127 28-02-2020 21:50:00 5 C 5.84 g/m*3 3.11 C 8.1 km/h
1128 28-02-2020 21:55:00 5.1 C 5.88 g/m*3 5.1 C 4.8 km/h
1129 28-02-2020 22:00:00 5.1 C 5.88 g/m*3 5.1 C 4.8 km/h
1130 28-02-2020 22:05:00 5.2 C 5.85 g/m*3 3.82 C 6.4 km/h
1131 28-02-2020 22:10:00 5.2 C 5.85 g/m*3 5.2 C 3.2 km/h
1132 28-02-2020 22:15:00 5.2 C 5.85 g/m*3 3.82 C 6.4 km/h
1133 28-02-2020 22:20:00 5.2 C 5.92 g/m*3 5.2 C 4.8 km/h
1134 28-02-2020 22:25:00 5.1 C 6.02 g/m*3 5.1 C 1.6 km/h
1135 28-02-2020 22:30:00 5 C 6.05 g/m*3 5 C 3.2 km/h
1136 28-02-2020 22:35:00 4.9 C 6.01 g/m*3 4.9 C 0 km/h
1137 28-02-2020 22:40:00 4.8 C 5.97 g/m*3 4.8 C 1.6 km/h
1138 28-02-2020 22:45:00 4.7 C 6 g/m*3 4.7 C 3.2 km/h
1139 28-02-2020 22:50:00 4.7 C 6.06 g/m*3 4.7 C 3.2 km/h
1140 28-02-2020 22:55:00 4.6 C 6.02 g/m*3 4.6 C 3.2 km/h
1141 28-02-2020 23:00:00 4.6 C 6.09 g/m*3 4.6 C 0 km/h
1142 28-02-2020 23:05:00 4.5 C 6.05 g/m*3 4.5 C 3.2 km/h
1143 28-02-2020 23:10:00 4.4 C 6.01 g/m*3 4.4 C 3.2 km/h
1144 28-02-2020 23:15:00 4.3 C 5.97 g/m*3 4.3 C 1.6 km/h
1145 28-02-2020 23:20:00 4.3 C 6.03 g/m*3 4.3 C 3.2 km/h
1146 28-02-2020 23:25:00 4.3 C 6.03 g/m*3 4.3 C 1.6 km/h
1147 28-02-2020 23:30:00 4.3 C 6.03 g/m*3 4.3 C 3.2 km/h
1148 28-02-2020 23:35:00 4.4 C 6.07 g/m*3 2.9 C 6.4 km/h
1149 28-02-2020 23:40:00 4.4 C 6.07 g/m*3 4.4 C 0 km/h
1150 28-02-2020 23:45:00 4.5 C 6.11 g/m*3 4.5 C 3.2 km/h
Sensor: Nr:Datum:Temp:Abs-Feuchte:Windchill:Wind:
Aussen-T/F 1151 28-02-2020 23:50:00 4.5 C 6.11 g/m*3 4.5 C 1.6 km/h
1152 28-02-2020 23:55:00 4.5 C 6.11 g/m*3 4.5 C 1.6 km/h
1153 29-02-2020 00:00:00 4.6 C 6.22 g/m*3 4.6 C 1.6 km/h
1154 29-02-2020 00:05:00 4.6 C 6.22 g/m*3 3.13 C 6.4 km/h
1155 29-02-2020 00:10:00 4.7 C 6.26 g/m*3 4.7 C 1.6 km/h
1156 29-02-2020 00:15:00 4.8 C 6.3 g/m*3 4.8 C 1.6 km/h
1157 29-02-2020 00:20:00 4.9 C 6.35 g/m*3 2.61 C 9.7 km/h
1158 29-02-2020 00:25:00 5.1 C 6.43 g/m*3 2.84 C 9.7 km/h
1159 29-02-2020 00:30:00 5.2 C 6.47 g/m*3 2.63 C 11.3 km/h
1160 29-02-2020 00:35:00 5.3 C 6.52 g/m*3 5.3 C 4.8 km/h
1161 29-02-2020 00:40:00 5.5 C 6.53 g/m*3 5.5 C 4.8 km/h
1162 29-02-2020 00:45:00 5.6 C 6.57 g/m*3 5.6 C 1.6 km/h
1163 29-02-2020 00:50:00 5.6 C 6.57 g/m*3 5.6 C 3.2 km/h
1164 29-02-2020 00:55:00 5.7 C 6.62 g/m*3 5.7 C 3.2 km/h
1165 29-02-2020 01:00:00 5.6 C 6.57 g/m*3 5.6 C 0 km/h
1166 29-02-2020 01:05:00 5.7 C 6.62 g/m*3 5.7 C 1.6 km/h
1167 29-02-2020 01:10:00 5.7 C 6.62 g/m*3 5.7 C 1.6 km/h
1168 29-02-2020 01:15:00 5.7 C 6.62 g/m*3 5.7 C 0 km/h
1169 29-02-2020 01:20:00 5.6 C 6.57 g/m*3 5.6 C 0 km/h
1170 29-02-2020 01:25:00 5.6 C 6.57 g/m*3 5.6 C 3.2 km/h
1171 29-02-2020 01:30:00 5.6 C 6.65 g/m*3 5.6 C 3.2 km/h
1172 29-02-2020 01:35:00 5.7 C 6.69 g/m*3 5.7 C 1.6 km/h
1173 29-02-2020 01:40:00 5.7 C 6.69 g/m*3 5.7 C 0 km/h
1174 29-02-2020 01:45:00 5.8 C 6.73 g/m*3 5.8 C 3.2 km/h
1175 29-02-2020 01:50:00 5.8 C 6.73 g/m*3 5.8 C 0 km/h
Sensor: Nr:Datum:Temp:Abs-Feuchte:Windchill:Wind:
Aussen-T/F 1176 29-02-2020 01:55:00 5.8 C 6.81 g/m*3 5.8 C 4.8 km/h
1177 29-02-2020 02:00:00 5.9 C 6.85 g/m*3 5.9 C 4.8 km/h
1178 29-02-2020 02:05:00 5.9 C 6.85 g/m*3 5.9 C 1.6 km/h
1179 29-02-2020 02:10:00 5.9 C 6.85 g/m*3 5.9 C 1.6 km/h
1180 29-02-2020 02:15:00 5.9 C 6.78 g/m*3 5.9 C 0 km/h
1181 29-02-2020 02:20:00 5.9 C 6.85 g/m*3 4.63 C 6.4 km/h
1182 29-02-2020 02:25:00 5.9 C 6.85 g/m*3 5.9 C 3.2 km/h
1183 29-02-2020 02:30:00 5.9 C 6.85 g/m*3 5.9 C 1.6 km/h
1184 29-02-2020 02:35:00 6.1 C 6.94 g/m*3 6.1 C 4.8 km/h
1185 29-02-2020 02:40:00 6.2 C 6.99 g/m*3 4.98 C 6.4 km/h
1186 29-02-2020 02:45:00 6.4 C 7.08 g/m*3 5.21 C 6.4 km/h
1187 29-02-2020 02:50:00 6.6 C 7.17 g/m*3 6.6 C 0 km/h
1188 29-02-2020 02:55:00 6.7 C 7.22 g/m*3 5.11 C 8.1 km/h
1189 29-02-2020 03:00:00 7.1 C 7.41 g/m*3 5.58 C 8.1 km/h
1190 29-02-2020 03:05:00 7.4 C 7.55 g/m*3 5.93 C 8.1 km/h
1191 29-02-2020 03:10:00 7.7 C 7.62 g/m*3 5.94 C 9.7 km/h
1192 29-02-2020 03:15:00 7.9 C 7.72 g/m*3 6.18 C 9.7 km/h
1193 29-02-2020 03:20:00 8.2 C 7.79 g/m*3 5.99 C 12.9 km/h
1194 29-02-2020 03:25:00 8.5 C 7.85 g/m*3 6.36 C 12.9 km/h
1195 29-02-2020 03:30:00 8.7 C 7.96 g/m*3 7.13 C 9.7 km/h
1196 29-02-2020 03:35:00 8.8 C 7.92 g/m*3 6.97 C 11.3 km/h
1197 29-02-2020 03:40:00 8.9 C 7.97 g/m*3 6.62 C 14.5 km/h
1198 29-02-2020 03:45:00 9.1 C 7.99 g/m*3 6.67 C 16.1 km/h
1199 29-02-2020 03:50:00 9.2 C 8.04 g/m*3 7.46 C 11.3 km/h
1200 29-02-2020 03:55:00 9.3 C 8.09 g/m*3 8.16 C 8.1 km/h
Sensor: Nr:Datum:Temp:Abs-Feuchte:Windchill:Wind:
Aussen-T/F 1201 29-02-2020 04:00:00 9.4 C 8.05 g/m*3 7.04 C 16.1 km/h
1202 29-02-2020 04:05:00 9.6 C 8.15 g/m*3 7.29 C 16.1 km/h
1203 29-02-2020 04:10:00 9.6 C 8.15 g/m*3 7.11 C 17.7 km/h
1204 29-02-2020 04:15:00 9.7 C 8.11 g/m*3 6.77 C 22.5 km/h
1205 29-02-2020 04:20:00 9.8 C 8.16 g/m*3 7.36 C 17.7 km/h
1206 29-02-2020 04:25:00 9.8 C 8.16 g/m*3 7.19 C 19.3 km/h
1207 29-02-2020 04:30:00 9.8 C 8.07 g/m*3 7.19 C 19.3 km/h
1208 29-02-2020 04:35:00 9.8 C 8.07 g/m*3 7.94 C 12.9 km/h
1209 29-02-2020 04:40:00 9.8 C 8.07 g/m*3 8.45 C 9.7 km/h
1210 29-02-2020 04:45:00 9.8 C 8.07 g/m*3 7.94 C 12.9 km/h
1211 29-02-2020 04:50:00 9.8 C 8.07 g/m*3 7.36 C 17.7 km/h
1212 29-02-2020 04:55:00 9.8 C 8.07 g/m*3 7.73 C 14.5 km/h
1213 29-02-2020 05:00:00 9.7 C 8.02 g/m*3 8.33 C 9.7 km/h
1214 29-02-2020 05:05:00 9.7 C 8.02 g/m*3 8.06 C 11.3 km/h
1215 29-02-2020 05:10:00 9.7 C 7.93 g/m*3 8.33 C 9.7 km/h
1216 29-02-2020 05:15:00 9.7 C 7.93 g/m*3 8.33 C 9.7 km/h
1217 29-02-2020 05:20:00 9.7 C 7.93 g/m*3 9.7 C 4.8 km/h
1218 29-02-2020 05:25:00 9.6 C 7.88 g/m*3 7.94 C 11.3 km/h
1219 29-02-2020 05:30:00 9.6 C 7.88 g/m*3 8.21 C 9.7 km/h
1220 29-02-2020 05:35:00 9.6 C 7.88 g/m*3 8.91 C 6.4 km/h
1221 29-02-2020 05:40:00 9.5 C 7.83 g/m*3 7.82 C 11.3 km/h
1222 29-02-2020 05:45:00 9.5 C 7.83 g/m*3 8.4 C 8.1 km/h
1223 29-02-2020 05:50:00 9.5 C 7.83 g/m*3 9.5 C 4.8 km/h
1224 29-02-2020 05:55:00 9.5 C 7.83 g/m*3 7.58 C 12.9 km/h
1225 29-02-2020 06:00:00 9.5 C 7.83 g/m*3 8.4 C 8.1 km/h
Sensor: Nr:Datum:Temp:Abs-Feuchte:Windchill:Wind:
Aussen-T/F 1226 29-02-2020 06:05:00 9.5 C 7.83 g/m*3 8.79 C 6.4 km/h
1227 29-02-2020 06:10:00 9.4 C 7.78 g/m*3 7.97 C 9.7 km/h
1228 29-02-2020 06:15:00 9.4 C 7.78 g/m*3 8.68 C 6.4 km/h
1229 29-02-2020 06:20:00 9.4 C 7.78 g/m*3 8.28 C 8.1 km/h
1230 29-02-2020 06:25:00 9.3 C 7.73 g/m*3 8.56 C 6.4 km/h
1231 29-02-2020 06:30:00 9.2 C 7.68 g/m*3 7.21 C 12.9 km/h
1232 29-02-2020 06:35:00 9.2 C 7.68 g/m*3 9.2 C 4.8 km/h
1233 29-02-2020 06:40:00 9.2 C 7.68 g/m*3 9.2 C 4.8 km/h
1234 29-02-2020 06:45:00 9.2 C 7.68 g/m*3 7.46 C 11.3 km/h
1235 29-02-2020 06:50:00 9.2 C 7.68 g/m*3 7.73 C 9.7 km/h
1236 29-02-2020 06:55:00 9.2 C 7.68 g/m*3 9.2 C 4.8 km/h
1237 29-02-2020 07:00:00 9.2 C 7.68 g/m*3 9.2 C 4.8 km/h
1238 29-02-2020 07:05:00 9.1 C 7.63 g/m*3 9.1 C 3.2 km/h
1239 29-02-2020 07:10:00 9 C 7.58 g/m*3 9 C 3.2 km/h
1240 29-02-2020 07:15:00 8.9 C 7.53 g/m*3 8.1 C 6.4 km/h
1241 29-02-2020 07:20:00 8.8 C 7.57 g/m*3 7.25 C 9.7 km/h
1242 29-02-2020 07:25:00 8.8 C 7.57 g/m*3 8.8 C 4.8 km/h
1243 29-02-2020 07:30:00 8.7 C 7.52 g/m*3 8.7 C 4.8 km/h
1244 29-02-2020 07:35:00 8.7 C 7.52 g/m*3 8.7 C 4.8 km/h
1245 29-02-2020 07:40:00 8.6 C 7.48 g/m*3 8.6 C 4.8 km/h
1246 29-02-2020 07:45:00 8.6 C 7.48 g/m*3 8.6 C 3.2 km/h
1247 29-02-2020 07:50:00 8.5 C 7.51 g/m*3 8.5 C 3.2 km/h
1248 29-02-2020 07:55:00 8.4 C 7.47 g/m*3 8.4 C 1.6 km/h
1249 29-02-2020 08:00:00 8.3 C 7.42 g/m*3 8.3 C 0 km/h
1250 29-02-2020 08:05:00 8.3 C 7.42 g/m*3 8.3 C 3.2 km/h
Sensor: Nr:Datum:Temp:Abs-Feuchte:Windchill:Wind:
Aussen-T/F 1251 29-02-2020 08:10:00 8.3 C 7.5 g/m*3 8.3 C 1.6 km/h
1252 29-02-2020 08:15:00 8.3 C 7.5 g/m*3 8.3 C 1.6 km/h
1253 29-02-2020 08:20:00 8.2 C 7.45 g/m*3 8.2 C 1.6 km/h
1254 29-02-2020 08:25:00 8.2 C 7.45 g/m*3 8.2 C 4.8 km/h
1255 29-02-2020 08:30:00 8.2 C 7.54 g/m*3 8.2 C 4.8 km/h
1256 29-02-2020 08:35:00 8.2 C 7.54 g/m*3 8.2 C 3.2 km/h
1257 29-02-2020 08:40:00 8.2 C 7.54 g/m*3 8.2 C 3.2 km/h
1258 29-02-2020 08:45:00 8.2 C 7.54 g/m*3 8.2 C 0 km/h
1259 29-02-2020 08:50:00 8.2 C 7.54 g/m*3 8.2 C 0 km/h
1260 29-02-2020 08:55:00 8.2 C 7.54 g/m*3 8.2 C 1.6 km/h
1261 29-02-2020 09:00:00 8.3 C 7.59 g/m*3 8.3 C 0 km/h
1262 29-02-2020 09:05:00 8.4 C 7.72 g/m*3 8.4 C 3.2 km/h
1263 29-02-2020 09:10:00 8.5 C 7.68 g/m*3 8.5 C 3.2 km/h
1264 29-02-2020 09:15:00 8.6 C 7.65 g/m*3 8.6 C 3.2 km/h
1265 29-02-2020 09:20:00 8.7 C 7.61 g/m*3 8.7 C 1.6 km/h
1266 29-02-2020 09:25:00 8.9 C 7.71 g/m*3 8.9 C 0 km/h
1267 29-02-2020 09:30:00 9.1 C 7.81 g/m*3 9.1 C 1.6 km/h
1268 29-02-2020 09:35:00 9.2 C 7.86 g/m*3 9.2 C 1.6 km/h
1269 29-02-2020 09:40:00 9.3 C 7.82 g/m*3 9.3 C 3.2 km/h
1270 29-02-2020 09:45:00 9.4 C 7.78 g/m*3 9.4 C 3.2 km/h
1271 29-02-2020 09:50:00 9.6 C 7.6 g/m*3 7.7 C 12.9 km/h
1272 29-02-2020 09:55:00 9.7 C 7.47 g/m*3 8.33 C 9.7 km/h
1273 29-02-2020 10:00:00 9.8 C 7.42 g/m*3 9.8 C 4.8 km/h
1274 29-02-2020 10:05:00 9.9 C 7.47 g/m*3 9.9 C 1.6 km/h
1275 29-02-2020 10:10:00 10 C 7.42 g/m*3 9.37 C 6.4 km/h
Sensor: Nr:Datum:Temp:Abs-Feuchte:Windchill:Wind:
Aussen-T/F 1276 29-02-2020 10:15:00 10.1 C 7.38 g/m*3 10.1 C 3.2 km/h
1277 29-02-2020 10:20:00 10.1 C 7.38 g/m*3 10.1 C 3.2 km/h
1278 29-02-2020 10:25:00 10.1 C 7.19 g/m*3 9.1 C 8.1 km/h
1279 29-02-2020 10:30:00 10.1 C 7.28 g/m*3 10.1 C 1.6 km/h
1280 29-02-2020 10:35:00 10.2 C 7.33 g/m*3 10.2 C 3.2 km/h
1281 29-02-2020 10:40:00 10.2 C 7.33 g/m*3 10.2 C 3.2 km/h
1282 29-02-2020 10:45:00 10.3 C 7.37 g/m*3 10.3 C 3.2 km/h
1283 29-02-2020 10:50:00 10.4 C 7.52 g/m*3 10.4 C 3.2 km/h
1284 29-02-2020 10:55:00 10.4 C 7.32 g/m*3 9.83 C 6.4 km/h
1285 29-02-2020 11:00:00 10.6 C 7.42 g/m*3 10.06 C 6.4 km/h
1286 29-02-2020 11:05:00 10.7 C 7.56 g/m*3 10.7 C 3.2 km/h
1287 29-02-2020 11:10:00 10.7 C 7.37 g/m*3 10.18 C 6.4 km/h
1288 29-02-2020 11:15:00 10.9 C 7.56 g/m*3 10.9 C 3.2 km/h
1289 29-02-2020 11:20:00 11 C 7.41 g/m*3 9.88 C 9.7 km/h
1290 29-02-2020 11:25:00 11.3 C 7.45 g/m*3 11.3 C 12.9 km/h
1291 29-02-2020 11:30:00 11.6 C 7.48 g/m*3 11.6 C 8.1 km/h
1292 29-02-2020 11:35:00 11.9 C 7.52 g/m*3 11.9 C 4.8 km/h
1293 29-02-2020 11:40:00 12.2 C 7.55 g/m*3 12.2 C 9.7 km/h
1294 29-02-2020 11:45:00 12.3 C 7.6 g/m*3 12.3 C 8.1 km/h
1295 29-02-2020 11:50:00 12.6 C 7.41 g/m*3 12.6 C 4.8 km/h
1296 29-02-2020 11:55:00 12.7 C 7.57 g/m*3 12.7 C 4.8 km/h
1297 29-02-2020 12:00:00 12.9 C 7.66 g/m*3 12.9 C 11.3 km/h
1298 29-02-2020 12:05:00 13.2 C 7.58 g/m*3 13.2 C 11.3 km/h
1299 29-02-2020 12:10:00 13.5 C 7.6 g/m*3 13.5 C 9.7 km/h
1300 29-02-2020 12:15:00 13.8 C 7.86 g/m*3 13.8 C 9.7 km/h
Sensor: Nr:Datum:Temp:Abs-Feuchte:Windchill:Wind:
Aussen-T/F 1301 29-02-2020 12:20:00 13.9 C 7.55 g/m*3 13.9 C 6.4 km/h
1302 29-02-2020 12:25:00 14.1 C 7.65 g/m*3 14.1 C 8.1 km/h
1303 29-02-2020 12:30:00 14.2 C 7.82 g/m*3 14.2 C 9.7 km/h
1304 29-02-2020 12:35:00 14.3 C 7.86 g/m*3 14.3 C 8.1 km/h
1305 29-02-2020 12:40:00 14.4 C 7.79 g/m*3 14.4 C 6.4 km/h
1306 29-02-2020 12:45:00 14.4 C 7.54 g/m*3 14.4 C 14.5 km/h
1307 29-02-2020 12:50:00 14.4 C 7.79 g/m*3 14.4 C 8.1 km/h
1308 29-02-2020 12:55:00 14.4 C 7.79 g/m*3 14.4 C 11.3 km/h
1309 29-02-2020 13:00:00 14.4 C 7.79 g/m*3 14.4 C 8.1 km/h
1310 29-02-2020 13:05:00 14.6 C 7.88 g/m*3 14.6 C 4.8 km/h
1311 29-02-2020 13:10:00 14.6 C 7.76 g/m*3 14.6 C 9.7 km/h
1312 29-02-2020 13:15:00 14.6 C 8.01 g/m*3 14.6 C 8.1 km/h
1313 29-02-2020 13:20:00 14.6 C 8.01 g/m*3 14.6 C 14.5 km/h
1314 29-02-2020 13:25:00 14.6 C 8.13 g/m*3 14.6 C 9.7 km/h
1315 29-02-2020 13:30:00 14.5 C 7.84 g/m*3 14.5 C 11.3 km/h
1316 29-02-2020 13:35:00 14.6 C 7.88 g/m*3 14.6 C 11.3 km/h
1317 29-02-2020 13:40:00 14.6 C 8.13 g/m*3 14.6 C 11.3 km/h
1318 29-02-2020 13:45:00 14.8 C 8.11 g/m*3 14.8 C 9.7 km/h
1319 29-02-2020 13:50:00 14.9 C 8.28 g/m*3 14.9 C 9.7 km/h
1320 29-02-2020 13:55:00 15.1 C 8.26 g/m*3 15.1 C 6.4 km/h
1321 29-02-2020 14:00:00 15.2 C 8.05 g/m*3 15.2 C 14.5 km/h
1322 29-02-2020 14:05:00 15.3 C 8.23 g/m*3 15.3 C 25.7 km/h
1323 29-02-2020 14:10:00 15.2 C 8.31 g/m*3 15.2 C 25.7 km/h
1324 29-02-2020 14:15:00 15.2 C 8.31 g/m*3 15.2 C 17.7 km/h
1325 29-02-2020 14:20:00 15.1 C 8.26 g/m*3 15.1 C 24.1 km/h
Sensor: Nr:Datum:Temp:Abs-Feuchte:Windchill:Wind:
Aussen-T/F 1326 29-02-2020 14:25:00 15.1 C 8.13 g/m*3 15.1 C 12.9 km/h
1327 29-02-2020 14:30:00 15 C 8.33 g/m*3 15 C 14.5 km/h
1328 29-02-2020 14:35:00 14.9 C 8.54 g/m*3 14.9 C 9.7 km/h
1329 29-02-2020 14:40:00 14.6 C 8.76 g/m*3 14.6 C 9.7 km/h
1330 29-02-2020 14:45:00 14.1 C 8.86 g/m*3 14.1 C 20.9 km/h
1331 29-02-2020 14:50:00 13.6 C 8.94 g/m*3 13.6 C 12.9 km/h
1332 29-02-2020 14:55:00 12.9 C 9.13 g/m*3 12.9 C 22.5 km/h
1333 29-02-2020 15:00:00 12.2 C 9.06 g/m*3 12.2 C 16.1 km/h
1334 29-02-2020 15:05:00 11.6 C 9.04 g/m*3 11.6 C 20.9 km/h
1335 29-02-2020 15:10:00 11.3 C 9.08 g/m*3 11.3 C 9.7 km/h
1336 29-02-2020 15:15:00 11.2 C 9.12 g/m*3 11.2 C 12.9 km/h
1337 29-02-2020 15:20:00 11.2 C 9.22 g/m*3 11.2 C 11.3 km/h
1338 29-02-2020 15:25:00 11.2 C 9.22 g/m*3 11.2 C 8.1 km/h
1339 29-02-2020 15:30:00 11.2 C 9.22 g/m*3 11.2 C 3.2 km/h
1340 29-02-2020 15:35:00 11.2 C 9.12 g/m*3 11.2 C 8.1 km/h
1341 29-02-2020 15:40:00 11.2 C 9.12 g/m*3 11.2 C 12.9 km/h
1342 29-02-2020 15:45:00 11.2 C 9.12 g/m*3 11.2 C 12.9 km/h
1343 29-02-2020 15:50:00 11.2 C 9.02 g/m*3 11.2 C 12.9 km/h
1344 29-02-2020 15:55:00 11.3 C 8.98 g/m*3 11.3 C 19.3 km/h
1345 29-02-2020 16:00:00 11.3 C 8.87 g/m*3 11.3 C 24.1 km/h
1346 29-02-2020 16:05:00 11.6 C 8.94 g/m*3 11.6 C 24.1 km/h
1347 29-02-2020 16:10:00 11.8 C 8.84 g/m*3 11.8 C 20.9 km/h
1348 29-02-2020 16:15:00 11.9 C 8.79 g/m*3 11.9 C 22.5 km/h
1349 29-02-2020 16:20:00 11.9 C 8.68 g/m*3 11.9 C 24.1 km/h
1350 29-02-2020 16:25:00 11.8 C 8.74 g/m*3 11.8 C 22.5 km/h
Sensor: Nr:Datum:Temp:Abs-Feuchte:Windchill:Wind:
Aussen-T/F 1351 29-02-2020 16:30:00 11.6 C 8.73 g/m*3 11.6 C 14.5 km/h
1352 29-02-2020 16:35:00 11.4 C 8.83 g/m*3 11.4 C 25.7 km/h
1353 29-02-2020 16:40:00 11 C 8.71 g/m*3 8.17 C 25.7 km/h
1354 29-02-2020 16:45:00 10.7 C 8.55 g/m*3 8.18 C 20.9 km/h
1355 29-02-2020 16:50:00 10.6 C 8.49 g/m*3 8.71 C 14.5 km/h
1356 29-02-2020 16:55:00 10.3 C 8.24 g/m*3 7.67 C 20.9 km/h
1357 29-02-2020 17:00:00 10.2 C 8.18 g/m*3 7.86 C 17.7 km/h
1358 29-02-2020 17:05:00 9.9 C 7.75 g/m*3 7.02 C 22.5 km/h
1359 29-02-2020 17:10:00 9.7 C 7.47 g/m*3 7.07 C 19.3 km/h
1360 29-02-2020 17:15:00 9.5 C 7.37 g/m*3 7.82 C 11.3 km/h
1361 29-02-2020 17:20:00 9.3 C 7.37 g/m*3 7.33 C 12.9 km/h
1362 29-02-2020 17:25:00 9.2 C 7.14 g/m*3 6.44 C 19.3 km/h
1363 29-02-2020 17:30:00 9.1 C 7.1 g/m*3 6.87 C 14.5 km/h
1364 29-02-2020 17:35:00 9.1 C 7.1 g/m*3 6.48 C 17.7 km/h
1365 29-02-2020 17:40:00 9 C 7.14 g/m*3 7.21 C 11.3 km/h
1366 29-02-2020 17:45:00 8.9 C 7.1 g/m*3 7.37 C 9.7 km/h
1367 29-02-2020 17:50:00 8.9 C 7.18 g/m*3 7.09 C 11.3 km/h
1368 29-02-2020 17:55:00 8.9 C 7.18 g/m*3 7.69 C 8.1 km/h
1369 29-02-2020 18:00:00 8.9 C 7.18 g/m*3 7.69 C 8.1 km/h
1370 29-02-2020 18:05:00 8.8 C 7.14 g/m*3 6.5 C 14.5 km/h
1371 29-02-2020 18:10:00 8.9 C 7.18 g/m*3 7.09 C 11.3 km/h
1372 29-02-2020 18:15:00 8.9 C 7.27 g/m*3 7.37 C 9.7 km/h
1373 29-02-2020 18:20:00 8.8 C 7.22 g/m*3 7.25 C 9.7 km/h
1374 29-02-2020 18:25:00 8.7 C 7.18 g/m*3 6.38 C 14.5 km/h
1375 29-02-2020 18:30:00 8.6 C 7.22 g/m*3 7.01 C 9.7 km/h
Sensor: Nr:Datum:Temp:Abs-Feuchte:Windchill:Wind:
Aussen-T/F 1376 29-02-2020 18:35:00 8.4 C 7.13 g/m*3 7.11 C 8.1 km/h
1377 29-02-2020 18:40:00 8.3 C 6.91 g/m*3 6.37 C 11.3 km/h
1378 29-02-2020 18:45:00 8.3 C 6.83 g/m*3 4.7 C 25.7 km/h
1379 29-02-2020 18:50:00 8.1 C 6.74 g/m*3 4.3 C 27.4 km/h
1380 29-02-2020 18:55:00 7.4 C 6.44 g/m*3 4 C 20.9 km/h
1381 29-02-2020 19:00:00 7 C 6.43 g/m*3 4.06 C 16.1 km/h
1382 29-02-2020 19:05:00 6.8 C 6.42 g/m*3 5.67 C 6.4 km/h
1383 29-02-2020 19:10:00 6.6 C 6.49 g/m*3 4.99 C 8.1 km/h
1384 29-02-2020 19:15:00 6.5 C 6.45 g/m*3 4.87 C 8.1 km/h
1385 29-02-2020 19:20:00 6.4 C 6.33 g/m*3 3.8 C 12.9 km/h
1386 29-02-2020 19:25:00 6.4 C 6.26 g/m*3 3.8 C 12.9 km/h
1387 29-02-2020 19:30:00 6.4 C 6.26 g/m*3 3.55 C 14.5 km/h
1388 29-02-2020 19:35:00 6.6 C 6.27 g/m*3 4.04 C 12.9 km/h
1389 29-02-2020 19:40:00 6.7 C 6.15 g/m*3 3.48 C 17.7 km/h
1390 29-02-2020 19:45:00 6.8 C 6.19 g/m*3 4.04 C 14.5 km/h
1391 29-02-2020 19:50:00 6.8 C 6.19 g/m*3 3.82 C 16.1 km/h
1392 29-02-2020 19:55:00 6.8 C 6.12 g/m*3 4.04 C 14.5 km/h
1393 29-02-2020 20:00:00 6.8 C 6.12 g/m*3 4.04 C 14.5 km/h
1394 29-02-2020 20:05:00 6.8 C 6.12 g/m*3 4.29 C 12.9 km/h
1395 29-02-2020 20:10:00 6.8 C 6.12 g/m*3 4.29 C 12.9 km/h
1396 29-02-2020 20:15:00 6.8 C 6.12 g/m*3 4.56 C 11.3 km/h
1397 29-02-2020 20:20:00 6.7 C 6.08 g/m*3 4.17 C 12.9 km/h
1398 29-02-2020 20:25:00 6.7 C 6.08 g/m*3 4.75 C 9.7 km/h
1399 29-02-2020 20:30:00 6.6 C 5.96 g/m*3 4.04 C 12.9 km/h
1400 29-02-2020 20:35:00 6.6 C 5.96 g/m*3 3.79 C 14.5 km/h
Sensor: Nr:Datum:Temp:Abs-Feuchte:Windchill:Wind:
Aussen-T/F 1401 29-02-2020 20:40:00 6.5 C 5.92 g/m*3 4.51 C 9.7 km/h
1402 29-02-2020 20:45:00 6.4 C 5.89 g/m*3 3.8 C 12.9 km/h
1403 29-02-2020 20:50:00 6.3 C 5.85 g/m*3 4.64 C 8.1 km/h
1404 29-02-2020 20:55:00 6.2 C 5.81 g/m*3 4.15 C 9.7 km/h
1405 29-02-2020 21:00:00 6.1 C 5.7 g/m*3 6.1 C 3.2 km/h
1406 29-02-2020 21:05:00 6 C 5.73 g/m*3 4.75 C 6.4 km/h
1407 29-02-2020 21:10:00 5.9 C 5.62 g/m*3 4.17 C 8.1 km/h
1408 29-02-2020 21:15:00 5.8 C 5.66 g/m*3 3.68 C 9.7 km/h
1409 29-02-2020 21:20:00 5.8 C 5.66 g/m*3 4.05 C 8.1 km/h
1410 29-02-2020 21:25:00 5.8 C 5.73 g/m*3 3.07 C 12.9 km/h
1411 29-02-2020 21:30:00 5.7 C 5.69 g/m*3 3.93 C 8.1 km/h
1412 29-02-2020 21:35:00 5.6 C 5.66 g/m*3 4.29 C 6.4 km/h
1413 29-02-2020 21:40:00 5.5 C 5.62 g/m*3 5.5 C 3.2 km/h
1414 29-02-2020 21:45:00 5.4 C 5.58 g/m*3 4.06 C 6.4 km/h
1415 29-02-2020 21:50:00 5.4 C 5.65 g/m*3 5.4 C 4.8 km/h
1416 29-02-2020 21:55:00 5.3 C 5.68 g/m*3 5.3 C 3.2 km/h
1417 29-02-2020 22:00:00 5.2 C 5.71 g/m*3 5.2 C 4.8 km/h
1418 29-02-2020 22:05:00 4.9 C 5.6 g/m*3 4.9 C 4.8 km/h
1419 29-02-2020 22:10:00 4.8 C 5.63 g/m*3 4.8 C 4.8 km/h
1420 29-02-2020 22:15:00 4.7 C 5.6 g/m*3 4.7 C 4.8 km/h
1421 29-02-2020 22:20:00 4.6 C 5.62 g/m*3 4.6 C 3.2 km/h
1422 29-02-2020 22:25:00 4.4 C 5.62 g/m*3 4.4 C 4.8 km/h
1423 29-02-2020 22:30:00 4.4 C 5.62 g/m*3 4.4 C 4.8 km/h
1424 29-02-2020 22:35:00 4.3 C 5.64 g/m*3 4.3 C 3.2 km/h
1425 29-02-2020 22:40:00 4.3 C 5.64 g/m*3 4.3 C 4.8 km/h
Sensor: Nr:Datum:Temp:Abs-Feuchte:Windchill:Wind:
Aussen-T/F 1426 29-02-2020 22:45:00 4.3 C 5.71 g/m*3 2.78 C 6.4 km/h
1427 29-02-2020 22:50:00 4.3 C 5.71 g/m*3 4.3 C 0 km/h
1428 29-02-2020 22:55:00 4.3 C 5.77 g/m*3 4.3 C 1.6 km/h
1429 29-02-2020 23:00:00 4.4 C 5.81 g/m*3 4.4 C 3.2 km/h
1430 29-02-2020 23:05:00 4.5 C 5.85 g/m*3 3.02 C 6.4 km/h
1431 29-02-2020 23:10:00 4.7 C 5.86 g/m*3 3.25 C 6.4 km/h
1432 29-02-2020 23:15:00 4.9 C 5.94 g/m*3 4.9 C 3.2 km/h
1433 29-02-2020 23:20:00 5.1 C 5.95 g/m*3 3.71 C 6.4 km/h
1434 29-02-2020 23:25:00 5.3 C 5.96 g/m*3 5.3 C 3.2 km/h
1435 29-02-2020 23:30:00 5.3 C 5.96 g/m*3 5.3 C 1.6 km/h
1436 29-02-2020 23:35:00 5.4 C 6 g/m*3 5.4 C 1.6 km/h
1437 29-02-2020 23:40:00 5.4 C 6 g/m*3 5.4 C 4.8 km/h
1438 29-02-2020 23:45:00 5.6 C 6.08 g/m*3 3.44 C 9.7 km/h
1439 29-02-2020 23:50:00 5.8 C 6.09 g/m*3 3.07 C 12.9 km/h
1440 29-02-2020 23:55:00 6.1 C 6.14 g/m*3 3.72 C 11.3 km/h
1441 01-03-2020 00:00:00 6.4 C 6.18 g/m*3 2.4 C 24.1 km/h
1442 01-03-2020 00:05:00 6.8 C 6.19 g/m*3 4.04 C 14.5 km/h
1443 01-03-2020 00:10:00 6.9 C 6.24 g/m*3 4.41 C 12.9 km/h
1444 01-03-2020 00:15:00 7.1 C 6.24 g/m*3 3.8 C 19.3 km/h
1445 01-03-2020 00:20:00 7.2 C 6.28 g/m*3 4.53 C 14.5 km/h
1446 01-03-2020 00:25:00 7.1 C 6.16 g/m*3 3.98 C 17.7 km/h
1447 01-03-2020 00:30:00 7.1 C 6.24 g/m*3 4.19 C 16.1 km/h
1448 01-03-2020 00:35:00 6.9 C 6.16 g/m*3 3.94 C 16.1 km/h
1449 01-03-2020 00:40:00 6.8 C 6.12 g/m*3 4.87 C 9.7 km/h
1450 01-03-2020 00:45:00 6.7 C 6.08 g/m*3 4.44 C 11.3 km/h
Sensor: Nr:Datum:Temp:Abs-Feuchte:Windchill:Wind:
Aussen-T/F 1451 01-03-2020 00:50:00 6.7 C 6.15 g/m*3 2.94 C 22.5 km/h
1452 01-03-2020 00:55:00 6.7 C 6.15 g/m*3 3.69 C 16.1 km/h
1453 01-03-2020 01:00:00 6.7 C 6.15 g/m*3 3.29 C 19.3 km/h
1454 01-03-2020 01:05:00 6.6 C 6.11 g/m*3 4.99 C 8.1 km/h
1455 01-03-2020 01:10:00 6.5 C 6.07 g/m*3 3.44 C 16.1 km/h
1456 01-03-2020 01:15:00 6.4 C 6.04 g/m*3 4.75 C 8.1 km/h
1457 01-03-2020 01:20:00 6.4 C 6.11 g/m*3 3.55 C 14.5 km/h
1458 01-03-2020 01:25:00 6.4 C 6.11 g/m*3 3.8 C 12.9 km/h
1459 01-03-2020 01:30:00 6.4 C 6.11 g/m*3 3.11 C 17.7 km/h
1460 01-03-2020 01:35:00 6.3 C 6.07 g/m*3 4.64 C 8.1 km/h
1461 01-03-2020 01:40:00 6.3 C 6.07 g/m*3 5.1 C 6.4 km/h
1462 01-03-2020 01:45:00 6.2 C 6.1 g/m*3 3.84 C 11.3 km/h
1463 01-03-2020 01:50:00 6.2 C 6.1 g/m*3 2.86 C 17.7 km/h
1464 01-03-2020 01:55:00 6.2 C 6.1 g/m*3 3.07 C 16.1 km/h
1465 01-03-2020 02:00:00 6.2 C 6.1 g/m*3 3.84 C 11.3 km/h
1466 01-03-2020 02:05:00 6.3 C 6.14 g/m*3 3.96 C 11.3 km/h
1467 01-03-2020 02:10:00 6.3 C 6.14 g/m*3 4.27 C 9.7 km/h
1468 01-03-2020 02:15:00 6.3 C 6.14 g/m*3 3.68 C 12.9 km/h
1469 01-03-2020 02:20:00 6.3 C 6.14 g/m*3 3.96 C 11.3 km/h
1470 01-03-2020 02:25:00 6.2 C 6.1 g/m*3 4.15 C 9.7 km/h
1471 01-03-2020 02:30:00 6.2 C 6.1 g/m*3 4.15 C 9.7 km/h
1472 01-03-2020 02:35:00 6.3 C 6.14 g/m*3 4.27 C 9.7 km/h
1473 01-03-2020 02:40:00 6.3 C 6.14 g/m*3 3.96 C 11.3 km/h
1474 01-03-2020 02:45:00 6.4 C 6.18 g/m*3 3.55 C 14.5 km/h
1475 01-03-2020 02:50:00 6.7 C 6.23 g/m*3 3.11 C 20.9 km/h
Sensor: Nr:Datum:Temp:Abs-Feuchte:Windchill:Wind:
Aussen-T/F 1476 01-03-2020 02:55:00 6.8 C 6.27 g/m*3 3.24 C 20.9 km/h
1477 01-03-2020 03:00:00 7 C 6.28 g/m*3 3.67 C 19.3 km/h
1478 01-03-2020 03:05:00 7.1 C 6.32 g/m*3 4.19 C 16.1 km/h
1479 01-03-2020 03:10:00 7.1 C 6.32 g/m*3 3.62 C 20.9 km/h
1480 01-03-2020 03:15:00 7.1 C 6.32 g/m*3 4.41 C 14.5 km/h
1481 01-03-2020 03:20:00 7.1 C 6.32 g/m*3 4.92 C 11.3 km/h
1482 01-03-2020 03:25:00 7.2 C 6.36 g/m*3 5.04 C 11.3 km/h
1483 01-03-2020 03:30:00 7.2 C 6.36 g/m*3 7.2 C 4.8 km/h
1484 01-03-2020 03:35:00 7.1 C 6.4 g/m*3 6.02 C 6.4 km/h
1485 01-03-2020 03:40:00 7.1 C 6.4 g/m*3 7.1 C 4.8 km/h
1486 01-03-2020 03:45:00 7.1 C 6.4 g/m*3 7.1 C 4.8 km/h
1487 01-03-2020 03:50:00 7.1 C 6.4 g/m*3 5.23 C 9.7 km/h
1488 01-03-2020 03:55:00 7.1 C 6.4 g/m*3 4.92 C 11.3 km/h
1489 01-03-2020 04:00:00 7.1 C 6.32 g/m*3 5.58 C 8.1 km/h
1490 01-03-2020 04:05:00 7.2 C 6.28 g/m*3 5.04 C 11.3 km/h
1491 01-03-2020 04:10:00 7.2 C 6.2 g/m*3 5.35 C 9.7 km/h
1492 01-03-2020 04:15:00 7.2 C 6.12 g/m*3 3.75 C 20.9 km/h
1493 01-03-2020 04:20:00 7.3 C 6.16 g/m*3 3.55 C 24.1 km/h
1494 01-03-2020 04:25:00 7.3 C 6.16 g/m*3 5.81 C 8.1 km/h
1495 01-03-2020 04:30:00 7.4 C 6.2 g/m*3 4.78 C 14.5 km/h
1496 01-03-2020 04:35:00 7.4 C 6.12 g/m*3 5.02 C 12.9 km/h
1497 01-03-2020 04:40:00 7.4 C 6.2 g/m*3 4.78 C 14.5 km/h
1498 01-03-2020 04:45:00 7.4 C 6.12 g/m*3 4.56 C 16.1 km/h
1499 01-03-2020 04:50:00 7.4 C 6.12 g/m*3 5.58 C 9.7 km/h
1500 01-03-2020 04:55:00 7.4 C 6.12 g/m*3 5.93 C 8.1 km/h
Sensor: Nr:Datum:Temp:Abs-Feuchte:Windchill:Wind:
Aussen-T/F 1501 01-03-2020 05:00:00 7.4 C 6.12 g/m*3 4 C 20.9 km/h
1502 01-03-2020 05:05:00 7.4 C 6.12 g/m*3 3.68 C 24.1 km/h
1503 01-03-2020 05:10:00 7.5 C 6.16 g/m*3 5.14 C 12.9 km/h
1504 01-03-2020 05:15:00 7.5 C 6.16 g/m*3 5.7 C 9.7 km/h
1505 01-03-2020 05:20:00 7.4 C 6.12 g/m*3 5.93 C 8.1 km/h
1506 01-03-2020 05:25:00 7.4 C 6.04 g/m*3 3.84 C 22.5 km/h
1507 01-03-2020 05:30:00 7.6 C 6.12 g/m*3 5.02 C 14.5 km/h
1508 01-03-2020 05:35:00 7.6 C 6.12 g/m*3 5.82 C 9.7 km/h
1509 01-03-2020 05:40:00 7.5 C 6.16 g/m*3 5.7 C 9.7 km/h
1510 01-03-2020 05:45:00 7.4 C 6.12 g/m*3 4.78 C 14.5 km/h
1511 01-03-2020 05:50:00 7.4 C 6.2 g/m*3 5.28 C 11.3 km/h
1512 01-03-2020 05:55:00 7.4 C 6.2 g/m*3 7.4 C 4.8 km/h
1513 01-03-2020 06:00:00 7.3 C 6.16 g/m*3 5.16 C 11.3 km/h
1514 01-03-2020 06:05:00 7.3 C 6.16 g/m*3 5.81 C 8.1 km/h
1515 01-03-2020 06:10:00 7.4 C 6.2 g/m*3 4.78 C 14.5 km/h
1516 01-03-2020 06:15:00 7.4 C 6.2 g/m*3 4.78 C 14.5 km/h
1517 01-03-2020 06:20:00 7.4 C 6.2 g/m*3 5.93 C 8.1 km/h
1518 01-03-2020 06:25:00 7.4 C 6.2 g/m*3 4.36 C 17.7 km/h
1519 01-03-2020 06:30:00 7.4 C 6.12 g/m*3 4.36 C 17.7 km/h
1520 01-03-2020 06:35:00 7.5 C 6.16 g/m*3 5.41 C 11.3 km/h
1521 01-03-2020 06:40:00 7.6 C 6.2 g/m*3 4.61 C 17.7 km/h
1522 01-03-2020 06:45:00 7.5 C 6.24 g/m*3 7.5 C 3.2 km/h
1523 01-03-2020 06:50:00 7.5 C 6.24 g/m*3 7.5 C 1.6 km/h
1524 01-03-2020 06:55:00 7.4 C 6.36 g/m*3 5.58 C 9.7 km/h
1525 01-03-2020 07:00:00 7.3 C 6.48 g/m*3 7.3 C 4.8 km/h
Sensor: Nr:Datum:Temp:Abs-Feuchte:Windchill:Wind:
Aussen-T/F 1526 01-03-2020 07:05:00 7.2 C 6.52 g/m*3 5.35 C 9.7 km/h
1527 01-03-2020 07:10:00 7 C 6.51 g/m*3 4.8 C 11.3 km/h
1528 01-03-2020 07:15:00 6.8 C 6.42 g/m*3 5.22 C 8.1 km/h
1529 01-03-2020 07:20:00 6.8 C 6.5 g/m*3 6.8 C 3.2 km/h
1530 01-03-2020 07:25:00 6.7 C 6.53 g/m*3 6.7 C 3.2 km/h
1531 01-03-2020 07:30:00 6.7 C 6.61 g/m*3 6.7 C 1.6 km/h
1532 01-03-2020 07:35:00 6.6 C 6.57 g/m*3 6.6 C 1.6 km/h
1533 01-03-2020 07:40:00 6.5 C 6.6 g/m*3 6.5 C 4.8 km/h
1534 01-03-2020 07:45:00 6.4 C 6.56 g/m*3 5.21 C 6.4 km/h
1535 01-03-2020 07:50:00 6.3 C 6.59 g/m*3 6.3 C 1.6 km/h
1536 01-03-2020 07:55:00 6.3 C 6.66 g/m*3 6.3 C 3.2 km/h
1537 01-03-2020 08:00:00 6.2 C 6.62 g/m*3 4.98 C 6.4 km/h
1538 01-03-2020 08:05:00 6.2 C 6.69 g/m*3 3.84 C 11.3 km/h
1539 01-03-2020 08:10:00 6.2 C 6.69 g/m*3 4.98 C 6.4 km/h
1540 01-03-2020 08:15:00 6.1 C 6.65 g/m*3 6.1 C 4.8 km/h
1541 01-03-2020 08:20:00 6.1 C 6.65 g/m*3 3.72 C 11.3 km/h
1542 01-03-2020 08:25:00 5.9 C 6.56 g/m*3 2.93 C 14.5 km/h
1543 01-03-2020 08:30:00 5.8 C 6.52 g/m*3 3.36 C 11.3 km/h
1544 01-03-2020 08:35:00 5.7 C 6.48 g/m*3 1.67 C 22.5 km/h
1545 01-03-2020 08:40:00 5.6 C 6.43 g/m*3 2.83 C 12.9 km/h
1546 01-03-2020 08:45:00 5.3 C 6.31 g/m*3 0.83 C 25.7 km/h
1547 01-03-2020 08:50:00 5 C 6.18 g/m*3 0.96 C 20.9 km/h
1548 01-03-2020 08:55:00 4.8 C 6.17 g/m*3 2.15 C 11.3 km/h
1549 01-03-2020 09:00:00 4.8 C 6.17 g/m*3 1.85 C 12.9 km/h
1550 01-03-2020 09:05:00 4.8 C 6.17 g/m*3 2.49 C 9.7 km/h
Sensor: Nr:Datum:Temp:Abs-Feuchte:Windchill:Wind:
Aussen-T/F 1551 01-03-2020 09:10:00 4.8 C 6.24 g/m*3 0.19 C 25.7 km/h
1552 01-03-2020 09:15:00 4.8 C 6.24 g/m*3 0.9 C 19.3 km/h
1553 01-03-2020 09:20:00 4.9 C 6.28 g/m*3 2.27 C 11.3 km/h
1554 01-03-2020 09:25:00 5.1 C 6.36 g/m*3 2.51 C 11.3 km/h
1555 01-03-2020 09:30:00 5.2 C 6.4 g/m*3 2.34 C 12.9 km/h
1556 01-03-2020 09:35:00 5.2 C 6.4 g/m*3 2.34 C 12.9 km/h
1557 01-03-2020 09:40:00 5.2 C 6.4 g/m*3 1.83 C 16.1 km/h
1558 01-03-2020 09:45:00 5.2 C 6.4 g/m*3 2.34 C 12.9 km/h
1559 01-03-2020 09:50:00 5.3 C 6.38 g/m*3 3.94 C 6.4 km/h
1560 01-03-2020 09:55:00 5.3 C 6.38 g/m*3 3.46 C 8.1 km/h
1561 01-03-2020 10:00:00 5.3 C 6.38 g/m*3 3.94 C 6.4 km/h
1562 01-03-2020 10:05:00 5.3 C 6.45 g/m*3 3.94 C 6.4 km/h
1563 01-03-2020 10:10:00 5.4 C 6.49 g/m*3 2.32 C 14.5 km/h
1564 01-03-2020 10:15:00 5.6 C 6.5 g/m*3 3.81 C 8.1 km/h
1565 01-03-2020 10:20:00 5.7 C 6.62 g/m*3 2.45 C 16.1 km/h
1566 01-03-2020 10:25:00 6.1 C 6.72 g/m*3 2.95 C 16.1 km/h
1567 01-03-2020 10:30:00 6.4 C 6.78 g/m*3 4.08 C 11.3 km/h
1568 01-03-2020 10:35:00 6.7 C 6.91 g/m*3 4.17 C 12.9 km/h
1569 01-03-2020 10:40:00 6.9 C 6.93 g/m*3 4.16 C 14.5 km/h
1570 01-03-2020 10:45:00 7.2 C 6.99 g/m*3 5.04 C 11.3 km/h
1571 01-03-2020 10:50:00 7.4 C 7.08 g/m*3 5.93 C 8.1 km/h
1572 01-03-2020 10:55:00 7.6 C 7.17 g/m*3 6.16 C 8.1 km/h
1573 01-03-2020 11:00:00 7.7 C 6.97 g/m*3 4.55 C 19.3 km/h
1574 01-03-2020 11:05:00 7.9 C 6.98 g/m*3 4.98 C 17.7 km/h
1575 01-03-2020 11:10:00 8 C 6.78 g/m*3 4.45 C 24.1 km/h
Sensor: Nr:Datum:Temp:Abs-Feuchte:Windchill:Wind:
Aussen-T/F 1576 01-03-2020 11:15:00 8.2 C 6.95 g/m*3 5.99 C 12.9 km/h
1577 01-03-2020 11:20:00 8.3 C 6.83 g/m*3 5.14 C 20.9 km/h
1578 01-03-2020 11:25:00 8.5 C 6.74 g/m*3 5.73 C 17.7 km/h
1579 01-03-2020 11:30:00 8.6 C 6.79 g/m*3 5.68 C 19.3 km/h
1580 01-03-2020 11:35:00 8.8 C 6.7 g/m*3 5.93 C 19.3 km/h
1581 01-03-2020 11:40:00 8.8 C 6.7 g/m*3 6.11 C 17.7 km/h
1582 01-03-2020 11:45:00 8.8 C 6.61 g/m*3 6.3 C 16.1 km/h
1583 01-03-2020 11:50:00 8.8 C 6.53 g/m*3 4.97 C 30.6 km/h
1584 01-03-2020 11:55:00 8.9 C 6.75 g/m*3 6.85 C 12.9 km/h
1585 01-03-2020 12:00:00 9.1 C 6.65 g/m*3 6.15 C 20.9 km/h
1586 01-03-2020 12:05:00 8.9 C 6.57 g/m*3 6.06 C 19.3 km/h
1587 01-03-2020 12:10:00 8.7 C 6.4 g/m*3 5.49 C 22.5 km/h
1588 01-03-2020 12:15:00 8.7 C 6.57 g/m*3 6.38 C 14.5 km/h
1589 01-03-2020 12:20:00 8.7 C 6.49 g/m*3 6.17 C 16.1 km/h
1590 01-03-2020 12:25:00 8.8 C 6.44 g/m*3 6.5 C 14.5 km/h
1591 01-03-2020 12:30:00 9 C 6.44 g/m*3 6.36 C 17.7 km/h
1592 01-03-2020 12:35:00 9 C 6.44 g/m*3 6.97 C 12.9 km/h
1593 01-03-2020 12:40:00 9.1 C 6.57 g/m*3 7.09 C 12.9 km/h
1594 01-03-2020 12:45:00 9.2 C 6.61 g/m*3 9.2 C 4.8 km/h
1595 01-03-2020 12:50:00 9.4 C 6.6 g/m*3 7.04 C 16.1 km/h
1596 01-03-2020 12:55:00 9.6 C 6.6 g/m*3 7.7 C 12.9 km/h
1597 01-03-2020 13:00:00 9.9 C 6.72 g/m*3 8.3 C 11.3 km/h
1598 01-03-2020 13:05:00 10.1 C 6.62 g/m*3 8.31 C 12.9 km/h
1599 01-03-2020 13:10:00 10.2 C 6.57 g/m*3 8.92 C 9.7 km/h
1600 01-03-2020 13:15:00 10.1 C 6.43 g/m*3 8.1 C 14.5 km/h
Sensor: Nr:Datum:Temp:Abs-Feuchte:Windchill:Wind:
Aussen-T/F 1601 01-03-2020 13:20:00 9.9 C 6.44 g/m*3 8.56 C 9.7 km/h
1602 01-03-2020 13:25:00 9.8 C 6.4 g/m*3 7.54 C 16.1 km/h
1603 01-03-2020 13:30:00 9.8 C 6.4 g/m*3 8.18 C 11.3 km/h
1604 01-03-2020 13:35:00 9.9 C 6.44 g/m*3 7.32 C 19.3 km/h
1605 01-03-2020 13:40:00 10 C 6.3 g/m*3 7.29 C 20.9 km/h
1606 01-03-2020 13:45:00 10.1 C 6.52 g/m*3 7.91 C 16.1 km/h
1607 01-03-2020 13:50:00 10.1 C 6.52 g/m*3 8.1 C 14.5 km/h
1608 01-03-2020 13:55:00 10.2 C 6.66 g/m*3 7.86 C 17.7 km/h
1609 01-03-2020 14:00:00 10.3 C 6.42 g/m*3 7.98 C 17.7 km/h
1610 01-03-2020 14:05:00 10.2 C 6.57 g/m*3 7.86 C 17.7 km/h
1611 01-03-2020 14:10:00 10.2 C 6.47 g/m*3 8.43 C 12.9 km/h
1612 01-03-2020 14:15:00 10.1 C 6.52 g/m*3 8.31 C 12.9 km/h
1613 01-03-2020 14:20:00 10 C 6.48 g/m*3 8.42 C 11.3 km/h
1614 01-03-2020 14:25:00 10 C 6.48 g/m*3 8.42 C 11.3 km/h
1615 01-03-2020 14:30:00 10.1 C 6.52 g/m*3 8.8 C 9.7 km/h
1616 01-03-2020 14:35:00 10.2 C 6.57 g/m*3 8.66 C 11.3 km/h
1617 01-03-2020 14:40:00 10.2 C 6.47 g/m*3 7.86 C 17.7 km/h
1618 01-03-2020 14:45:00 10.3 C 6.61 g/m*3 9.04 C 9.7 km/h
1619 01-03-2020 14:50:00 10.4 C 6.46 g/m*3 9.16 C 9.7 km/h
1620 01-03-2020 14:55:00 10.3 C 6.42 g/m*3 8.55 C 12.9 km/h
1621 01-03-2020 15:00:00 10.2 C 6.47 g/m*3 9.6 C 6.4 km/h
1622 01-03-2020 15:05:00 10.2 C 6.47 g/m*3 8.92 C 9.7 km/h
1623 01-03-2020 15:10:00 10.2 C 6.57 g/m*3 9.22 C 8.1 km/h
1624 01-03-2020 15:15:00 10.3 C 6.51 g/m*3 9.72 C 6.4 km/h
1625 01-03-2020 15:20:00 10.6 C 6.73 g/m*3 9.4 C 9.7 km/h
Sensor: Nr:Datum:Temp:Abs-Feuchte:Windchill:Wind:
Aussen-T/F 1626 01-03-2020 15:25:00 10.8 C 6.62 g/m*3 9.64 C 9.7 km/h
1627 01-03-2020 15:30:00 10.8 C 6.42 g/m*3 9.38 C 11.3 km/h
1628 01-03-2020 15:35:00 10.8 C 6.42 g/m*3 9.93 C 8.1 km/h
1629 01-03-2020 15:40:00 10.8 C 6.52 g/m*3 10.29 C 6.4 km/h
1630 01-03-2020 15:45:00 11 C 6.61 g/m*3 10.16 C 8.1 km/h
1631 01-03-2020 15:50:00 11.1 C 6.55 g/m*3 11.1 C 9.7 km/h
1632 01-03-2020 15:55:00 11.1 C 6.55 g/m*3 11.1 C 4.8 km/h
1633 01-03-2020 16:00:00 11.1 C 6.65 g/m*3 11.1 C 3.2 km/h
1634 01-03-2020 16:05:00 11 C 6.61 g/m*3 10.52 C 6.4 km/h
1635 01-03-2020 16:10:00 10.9 C 6.56 g/m*3 10.9 C 1.6 km/h
1636 01-03-2020 16:15:00 10.8 C 6.42 g/m*3 10.8 C 4.8 km/h
1637 01-03-2020 16:20:00 10.8 C 6.52 g/m*3 10.8 C 0 km/h
1638 01-03-2020 16:25:00 10.8 C 6.52 g/m*3 10.8 C 0 km/h
1639 01-03-2020 16:30:00 10.7 C 6.48 g/m*3 10.7 C 0 km/h
1640 01-03-2020 16:35:00 10.7 C 6.58 g/m*3 10.7 C 0 km/h
1641 01-03-2020 16:40:00 10.8 C 7.12 g/m*3 10.8 C 1.6 km/h
1642 01-03-2020 16:45:00 10.7 C 7.07 g/m*3 10.7 C 0 km/h
1643 01-03-2020 16:50:00 10.7 C 7.37 g/m*3 10.7 C 0 km/h
1644 01-03-2020 16:55:00 10.6 C 7.42 g/m*3 10.6 C 0 km/h
1645 01-03-2020 17:00:00 10.4 C 7.42 g/m*3 10.4 C 0 km/h
1646 01-03-2020 17:05:00 10.3 C 7.57 g/m*3 9.72 C 6.4 km/h
1647 01-03-2020 17:10:00 10.1 C 7.47 g/m*3 9.1 C 8.1 km/h
1648 01-03-2020 17:15:00 9.7 C 7.47 g/m*3 8.63 C 8.1 km/h
1649 01-03-2020 17:20:00 9.6 C 7.69 g/m*3 9.6 C 3.2 km/h
1650 01-03-2020 17:25:00 9.3 C 7.64 g/m*3 9.3 C 4.8 km/h
Sensor: Nr:Datum:Temp:Abs-Feuchte:Windchill:Wind:
Aussen-T/F 1651 01-03-2020 17:30:00 9.1 C 7.72 g/m*3 9.1 C 1.6 km/h
1652 01-03-2020 17:35:00 8.9 C 7.62 g/m*3 8.9 C 4.8 km/h
1653 01-03-2020 17:40:00 8.7 C 7.61 g/m*3 8.7 C 4.8 km/h
1654 01-03-2020 17:45:00 8.5 C 7.6 g/m*3 8.5 C 4.8 km/h
1655 01-03-2020 17:50:00 8.3 C 7.59 g/m*3 8.3 C 4.8 km/h
1656 01-03-2020 17:55:00 8.2 C 7.54 g/m*3 8.2 C 4.8 km/h
1657 01-03-2020 18:00:00 8.1 C 7.57 g/m*3 8.1 C 1.6 km/h
1658 01-03-2020 18:05:00 7.9 C 7.47 g/m*3 7.9 C 0 km/h
1659 01-03-2020 18:10:00 7.8 C 7.43 g/m*3 7.8 C 0 km/h
1660 01-03-2020 18:15:00 7.8 C 7.51 g/m*3 7.8 C 3.2 km/h
1661 01-03-2020 18:20:00 7.7 C 7.46 g/m*3 7.7 C 4.8 km/h
1662 01-03-2020 18:25:00 7.6 C 7.41 g/m*3 7.6 C 4.8 km/h
1663 01-03-2020 18:30:00 7.6 C 7.49 g/m*3 7.6 C 3.2 km/h
1664 01-03-2020 18:35:00 7.5 C 7.44 g/m*3 7.5 C 3.2 km/h
1665 01-03-2020 18:40:00 7.5 C 7.44 g/m*3 7.5 C 3.2 km/h
1666 01-03-2020 18:45:00 7.4 C 7.4 g/m*3 7.4 C 3.2 km/h
1667 01-03-2020 18:50:00 7.4 C 7.4 g/m*3 7.4 C 3.2 km/h
1668 01-03-2020 18:55:00 7.4 C 7.4 g/m*3 7.4 C 1.6 km/h
1669 01-03-2020 19:00:00 7.4 C 7.48 g/m*3 7.4 C 0 km/h
1670 01-03-2020 19:05:00 7.3 C 7.43 g/m*3 7.3 C 0 km/h
1671 01-03-2020 19:10:00 7.3 C 7.43 g/m*3 7.3 C 0 km/h
1672 01-03-2020 19:15:00 7.3 C 7.43 g/m*3 7.3 C 1.6 km/h
1673 01-03-2020 19:20:00 7.3 C 7.43 g/m*3 7.3 C 0 km/h
1674 01-03-2020 19:25:00 7.3 C 7.43 g/m*3 7.3 C 1.6 km/h
1675 01-03-2020 19:30:00 7.3 C 7.43 g/m*3 7.3 C 1.6 km/h
Sensor: Nr:Datum:Temp:Abs-Feuchte:Windchill:Wind:
Aussen-T/F 1676 01-03-2020 19:35:00 7.2 C 7.38 g/m*3 7.2 C 0 km/h
1677 01-03-2020 19:40:00 7.2 C 7.38 g/m*3 7.2 C 0 km/h
1678 01-03-2020 19:45:00 7.2 C 7.46 g/m*3 7.2 C 3.2 km/h
1679 01-03-2020 19:50:00 7.1 C 7.33 g/m*3 7.1 C 0 km/h
1680 01-03-2020 19:55:00 7.1 C 7.33 g/m*3 7.1 C 0 km/h
1681 01-03-2020 20:00:00 7.1 C 7.41 g/m*3 7.1 C 1.6 km/h
1682 01-03-2020 20:05:00 7.1 C 7.41 g/m*3 7.1 C 4.8 km/h
1683 01-03-2020 20:10:00 7.1 C 7.41 g/m*3 6.02 C 6.4 km/h
1684 01-03-2020 20:15:00 7 C 7.36 g/m*3 7 C 4.8 km/h
1685 01-03-2020 20:20:00 7 C 7.36 g/m*3 7 C 1.6 km/h
1686 01-03-2020 20:25:00 6.9 C 7.31 g/m*3 6.9 C 3.2 km/h
1687 01-03-2020 20:30:00 6.9 C 7.31 g/m*3 6.9 C 0 km/h
1688 01-03-2020 20:35:00 6.8 C 7.27 g/m*3 6.8 C 1.6 km/h
1689 01-03-2020 20:40:00 6.7 C 7.22 g/m*3 6.7 C 1.6 km/h
1690 01-03-2020 20:45:00 6.6 C 7.17 g/m*3 6.6 C 1.6 km/h
1691 01-03-2020 20:50:00 6.5 C 7.12 g/m*3 6.5 C 0 km/h
1692 01-03-2020 20:55:00 6.4 C 7.08 g/m*3 6.4 C 0 km/h
1693 01-03-2020 21:00:00 6.3 C 7.03 g/m*3 6.3 C 0 km/h
1694 01-03-2020 21:05:00 6.3 C 7.03 g/m*3 6.3 C 0 km/h
1695 01-03-2020 21:10:00 6.3 C 7.03 g/m*3 6.3 C 0 km/h
1696 01-03-2020 21:15:00 6.3 C 7.03 g/m*3 6.3 C 0 km/h
1697 01-03-2020 21:20:00 6.3 C 7.03 g/m*3 6.3 C 0 km/h
1698 01-03-2020 21:25:00 6.2 C 6.99 g/m*3 6.2 C 0 km/h
1699 01-03-2020 21:30:00 6.2 C 6.99 g/m*3 6.2 C 0 km/h
1700 01-03-2020 21:35:00 6.2 C 6.99 g/m*3 6.2 C 0 km/h
Sensor: Nr:Datum:Temp:Abs-Feuchte:Windchill:Wind:
Aussen-T/F 1701 01-03-2020 21:40:00 6.3 C 7.03 g/m*3 6.3 C 0 km/h
1702 01-03-2020 21:45:00 6.3 C 7.11 g/m*3 6.3 C 0 km/h
1703 01-03-2020 21:50:00 6.3 C 7.11 g/m*3 6.3 C 0 km/h
1704 01-03-2020 21:55:00 6.4 C 7.15 g/m*3 6.4 C 0 km/h
1705 01-03-2020 22:00:00 6.5 C 7.2 g/m*3 6.5 C 0 km/h
1706 01-03-2020 22:05:00 6.6 C 7.25 g/m*3 6.6 C 0 km/h
1707 01-03-2020 22:10:00 6.6 C 7.25 g/m*3 6.6 C 0 km/h
1708 01-03-2020 22:15:00 6.7 C 7.29 g/m*3 6.7 C 0 km/h
1709 01-03-2020 22:20:00 6.7 C 7.29 g/m*3 6.7 C 0 km/h
1710 01-03-2020 22:25:00 6.8 C 7.34 g/m*3 6.8 C 0 km/h
1711 01-03-2020 22:30:00 6.8 C 7.34 g/m*3 6.8 C 0 km/h
1712 01-03-2020 22:35:00 6.8 C 7.34 g/m*3 6.8 C 0 km/h
1713 01-03-2020 22:40:00 6.8 C 7.34 g/m*3 6.8 C 0 km/h
1714 01-03-2020 22:45:00 6.8 C 7.34 g/m*3 6.8 C 0 km/h
1715 01-03-2020 22:50:00 6.8 C 7.34 g/m*3 6.8 C 0 km/h
1716 01-03-2020 22:55:00 6.8 C 7.34 g/m*3 6.8 C 0 km/h
1717 01-03-2020 23:00:00 6.9 C 7.39 g/m*3 6.9 C 0 km/h
1718 01-03-2020 23:05:00 6.9 C 7.39 g/m*3 6.9 C 4.8 km/h
1719 01-03-2020 23:10:00 6.9 C 7.39 g/m*3 6.9 C 4.8 km/h
1720 01-03-2020 23:15:00 7 C 7.44 g/m*3 5.11 C 9.7 km/h
1721 01-03-2020 23:20:00 6.2 C 6.99 g/m*3 1.44 C 32.2 km/h
1722 01-03-2020 23:25:00 5.4 C 6.42 g/m*3 0.39 C 32.2 km/h
1723 01-03-2020 23:30:00 5.1 C 6.29 g/m*3 1.71 C 16.1 km/h
1724 01-03-2020 23:35:00 4.8 C 6.1 g/m*3 0.19 C 25.7 km/h
1725 01-03-2020 23:40:00 4.3 C 5.9 g/m*3 0.97 C 14.5 km/h
Sensor: Nr:Datum:Temp:Abs-Feuchte:Windchill:Wind:
Aussen-T/F 1726 01-03-2020 23:45:00 4.1 C 5.89 g/m*3 1.31 C 11.3 km/h
1727 01-03-2020 23:50:00 3.9 C 5.87 g/m*3 1.06 C 11.3 km/h
1728 01-03-2020 23:55:00 3.8 C 5.83 g/m*3 1.29 C 9.7 km/h
1729 02-03-2020 00:00:00 3.8 C 5.83 g/m*3 0.1 C 16.1 km/h
1730 02-03-2020 00:05:00 3.9 C 5.94 g/m*3 0.75 C 12.9 km/h
1731 02-03-2020 00:10:00 3.9 C 5.94 g/m*3 0.75 C 12.9 km/h
1732 02-03-2020 00:15:00 4 C 5.98 g/m*3 1.18 C 11.3 km/h
1733 02-03-2020 00:20:00 4.1 C 6.02 g/m*3 1 C 12.9 km/h
1734 02-03-2020 00:25:00 4.1 C 6.02 g/m*3 1.65 C 9.7 km/h
1735 02-03-2020 00:30:00 4.1 C 6.02 g/m*3 0.72 C 14.5 km/h
1736 02-03-2020 00:35:00 4.2 C 6.06 g/m*3 1.12 C 12.9 km/h
1737 02-03-2020 00:40:00 4.2 C 6.06 g/m*3 1.43 C 11.3 km/h
1738 02-03-2020 00:45:00 4.2 C 6.06 g/m*3 0.84 C 14.5 km/h
1739 02-03-2020 00:50:00 4.2 C 6.06 g/m*3 0.36 C 17.7 km/h
1740 02-03-2020 00:55:00 4.3 C 6.1 g/m*3 1.24 C 12.9 km/h
1741 02-03-2020 01:00:00 4.3 C 6.1 g/m*3 1.24 C 12.9 km/h
1742 02-03-2020 01:05:00 4.3 C 6.03 g/m*3 1.89 C 9.7 km/h
1743 02-03-2020 01:10:00 4.3 C 6.03 g/m*3 1.55 C 11.3 km/h
1744 02-03-2020 01:15:00 4.3 C 6.03 g/m*3 1.24 C 12.9 km/h
1745 02-03-2020 01:20:00 4.3 C 6.03 g/m*3 1.24 C 12.9 km/h
1746 02-03-2020 01:25:00 4.3 C 6.03 g/m*3 0.72 C 16.1 km/h
1747 02-03-2020 01:30:00 4.3 C 6.03 g/m*3 0.07 C 20.9 km/h
1748 02-03-2020 01:35:00 4.3 C 6.03 g/m*3 0.72 C 16.1 km/h
1749 02-03-2020 01:40:00 4.3 C 6.03 g/m*3 1.55 C 11.3 km/h
1750 02-03-2020 01:45:00 4.3 C 6.03 g/m*3 1.89 C 9.7 km/h
Sensor: Nr:Datum:Temp:Abs-Feuchte:Windchill:Wind:
Aussen-T/F 1751 02-03-2020 01:50:00 4.3 C 6.03 g/m*3 2.78 C 6.4 km/h
1752 02-03-2020 01:55:00 4.4 C 6.07 g/m*3 0.61 C 17.7 km/h
1753 02-03-2020 02:00:00 4.3 C 6.03 g/m*3 1.89 C 9.7 km/h
1754 02-03-2020 02:05:00 4.3 C 6.03 g/m*3 1.89 C 9.7 km/h
1755 02-03-2020 02:10:00 4.2 C 5.99 g/m*3 1.77 C 9.7 km/h
1756 02-03-2020 02:15:00 4.2 C 5.99 g/m*3 1.43 C 11.3 km/h
1757 02-03-2020 02:20:00 4.2 C 5.99 g/m*3 2.17 C 8.1 km/h
1758 02-03-2020 02:25:00 4.2 C 5.99 g/m*3 2.17 C 8.1 km/h
1759 02-03-2020 02:30:00 4.1 C 5.95 g/m*3 0.02 C 19.3 km/h
1760 02-03-2020 02:35:00 4.2 C 5.99 g/m*3 0.84 C 14.5 km/h
1761 02-03-2020 02:40:00 4.3 C 6.03 g/m*3 1.24 C 12.9 km/h
1762 02-03-2020 02:45:00 4.3 C 6.03 g/m*3 1.24 C 12.9 km/h
1763 02-03-2020 02:50:00 4.4 C 6.07 g/m*3 2.01 C 9.7 km/h
1764 02-03-2020 02:55:00 4.3 C 6.03 g/m*3 1.89 C 9.7 km/h
1765 02-03-2020 03:00:00 4.2 C 5.99 g/m*3 2.17 C 8.1 km/h
1766 02-03-2020 03:05:00 4.2 C 5.99 g/m*3 4.2 C 4.8 km/h
1767 02-03-2020 03:10:00 4.1 C 5.95 g/m*3 1.31 C 11.3 km/h
1768 02-03-2020 03:15:00 4.1 C 5.95 g/m*3 1 C 12.9 km/h
1769 02-03-2020 03:20:00 4.1 C 5.95 g/m*3 2.55 C 6.4 km/h
1770 02-03-2020 03:25:00 3.9 C 5.87 g/m*3 2.32 C 6.4 km/h
1771 02-03-2020 03:30:00 3.9 C 5.81 g/m*3 3.9 C 4.8 km/h
1772 02-03-2020 03:35:00 3.8 C 5.83 g/m*3 3.8 C 4.8 km/h
1773 02-03-2020 03:40:00 3.7 C 5.8 g/m*3 3.7 C 4.8 km/h
1774 02-03-2020 03:45:00 3.6 C 5.76 g/m*3 1.98 C 6.4 km/h
1775 02-03-2020 03:50:00 3.6 C 5.76 g/m*3 1.98 C 6.4 km/h
Sensor: Nr:Datum:Temp:Abs-Feuchte:Windchill:Wind:
Aussen-T/F 1776 02-03-2020 03:55:00 3.5 C 5.72 g/m*3 3.5 C 4.8 km/h
1777 02-03-2020 04:00:00 3.4 C 5.68 g/m*3 3.4 C 4.8 km/h
1778 02-03-2020 04:05:00 3.4 C 5.68 g/m*3 3.4 C 4.8 km/h
1779 02-03-2020 04:10:00 3.3 C 5.7 g/m*3 3.3 C 4.8 km/h
1780 02-03-2020 04:15:00 3.2 C 5.66 g/m*3 3.2 C 3.2 km/h
1781 02-03-2020 04:20:00 3.1 C 5.63 g/m*3 3.1 C 4.8 km/h
1782 02-03-2020 04:25:00 3.2 C 5.66 g/m*3 3.2 C 3.2 km/h
1783 02-03-2020 04:30:00 3.2 C 5.66 g/m*3 3.2 C 3.2 km/h
1784 02-03-2020 04:35:00 3.2 C 5.66 g/m*3 3.2 C 3.2 km/h
1785 02-03-2020 04:40:00 3.2 C 5.66 g/m*3 0.99 C 8.1 km/h
1786 02-03-2020 04:45:00 3.2 C 5.72 g/m*3 3.2 C 4.8 km/h
1787 02-03-2020 04:50:00 3.2 C 5.66 g/m*3 3.2 C 3.2 km/h
1788 02-03-2020 04:55:00 3.1 C 5.63 g/m*3 3.1 C 4.8 km/h
1789 02-03-2020 05:00:00 3 C 5.59 g/m*3 3 C 4.8 km/h
1790 02-03-2020 05:05:00 2.9 C 5.55 g/m*3 2.9 C 4.8 km/h
1791 02-03-2020 05:10:00 2.8 C 5.51 g/m*3 2.8 C 4.8 km/h
1792 02-03-2020 05:15:00 2.7 C 5.48 g/m*3 2.7 C 1.6 km/h
1793 02-03-2020 05:20:00 2.6 C 5.44 g/m*3 2.6 C 4.8 km/h
1794 02-03-2020 05:25:00 2.5 C 5.4 g/m*3 2.5 C 3.2 km/h
1795 02-03-2020 05:30:00 2.4 C 5.37 g/m*3 2.4 C 3.2 km/h
1796 02-03-2020 05:35:00 2.3 C 5.33 g/m*3 2.3 C 4.8 km/h
1797 02-03-2020 05:40:00 2.2 C 5.29 g/m*3 2.2 C 4.8 km/h
1798 02-03-2020 05:45:00 2.2 C 5.35 g/m*3 2.2 C 4.8 km/h
1799 02-03-2020 05:50:00 2.2 C 5.35 g/m*3 2.2 C 4.8 km/h
1800 02-03-2020 05:55:00 2.1 C 5.31 g/m*3 2.1 C 3.2 km/h
Sensor: Nr:Datum:Temp:Abs-Feuchte:Windchill:Wind:
Aussen-T/F 1801 02-03-2020 06:00:00 2.1 C 5.31 g/m*3 2.1 C 3.2 km/h
1802 02-03-2020 06:05:00 2.1 C 5.31 g/m*3 2.1 C 3.2 km/h
1803 02-03-2020 06:10:00 2.1 C 5.31 g/m*3 2.1 C 3.2 km/h
1804 02-03-2020 06:15:00 2.1 C 5.31 g/m*3 2.1 C 4.8 km/h
1805 02-03-2020 06:20:00 2.1 C 5.31 g/m*3 2.1 C 3.2 km/h
1806 02-03-2020 06:25:00 2.2 C 5.35 g/m*3 2.2 C 1.6 km/h
1807 02-03-2020 06:30:00 2.3 C 5.39 g/m*3 2.3 C 4.8 km/h
1808 02-03-2020 06:35:00 2.4 C 5.48 g/m*3 2.4 C 1.6 km/h
1809 02-03-2020 06:40:00 2.4 C 5.42 g/m*3 2.4 C 1.6 km/h
1810 02-03-2020 06:45:00 2.3 C 5.39 g/m*3 2.3 C 4.8 km/h
1811 02-03-2020 06:50:00 2.3 C 5.39 g/m*3 2.3 C 3.2 km/h
1812 02-03-2020 06:55:00 2.4 C 5.42 g/m*3 2.4 C 3.2 km/h
1813 02-03-2020 07:00:00 2.4 C 5.48 g/m*3 2.4 C 1.6 km/h
1814 02-03-2020 07:05:00 2.4 C 5.48 g/m*3 2.4 C 0 km/h
1815 02-03-2020 07:10:00 2.4 C 5.48 g/m*3 2.4 C 0 km/h
1816 02-03-2020 07:15:00 2.4 C 5.48 g/m*3 2.4 C 1.6 km/h
1817 02-03-2020 07:20:00 2.6 C 5.56 g/m*3 2.6 C 3.2 km/h
1818 02-03-2020 07:25:00 2.7 C 5.59 g/m*3 2.7 C 3.2 km/h
1819 02-03-2020 07:30:00 2.7 C 5.59 g/m*3 2.7 C 0 km/h
1820 02-03-2020 07:35:00 2.8 C 5.63 g/m*3 2.8 C 0 km/h
1821 02-03-2020 07:40:00 2.8 C 5.63 g/m*3 2.8 C 0 km/h
1822 02-03-2020 07:45:00 2.9 C 5.67 g/m*3 2.9 C 0 km/h
1823 02-03-2020 07:50:00 2.9 C 5.67 g/m*3 2.9 C 0 km/h
1824 02-03-2020 07:55:00 3.1 C 5.75 g/m*3 3.1 C 0 km/h
1825 02-03-2020 08:00:00 3.1 C 5.75 g/m*3 3.1 C 0 km/h
Sensor: Nr:Datum:Temp:Abs-Feuchte:Windchill:Wind:
Aussen-T/F 1826 02-03-2020 08:05:00 3.2 C 5.79 g/m*3 3.2 C 0 km/h
1827 02-03-2020 08:10:00 3.3 C 5.82 g/m*3 3.3 C 0 km/h
1828 02-03-2020 08:15:00 3.3 C 5.82 g/m*3 3.3 C 0 km/h
1829 02-03-2020 08:20:00 3.4 C 5.86 g/m*3 3.4 C 0 km/h
1830 02-03-2020 08:25:00 3.4 C 5.86 g/m*3 3.4 C 0 km/h
1831 02-03-2020 08:30:00 3.5 C 5.9 g/m*3 3.5 C 0 km/h
1832 02-03-2020 08:35:00 3.6 C 5.94 g/m*3 3.6 C 0 km/h
1833 02-03-2020 08:40:00 3.7 C 6.04 g/m*3 3.7 C 0 km/h
1834 02-03-2020 08:45:00 3.8 C 6.09 g/m*3 3.8 C 0 km/h
1835 02-03-2020 08:50:00 3.9 C 6.06 g/m*3 3.9 C 0 km/h
1836 02-03-2020 08:55:00 4.1 C 6.21 g/m*3 4.1 C 4.8 km/h
1837 02-03-2020 09:00:00 4.2 C 6.25 g/m*3 4.2 C 0 km/h
1838 02-03-2020 09:05:00 4.3 C 6.23 g/m*3 4.3 C 1.6 km/h
1839 02-03-2020 09:10:00 4.4 C 6.33 g/m*3 4.4 C 1.6 km/h
1840 02-03-2020 09:15:00 4.5 C 6.38 g/m*3 4.5 C 0 km/h
1841 02-03-2020 09:20:00 4.6 C 6.35 g/m*3 4.6 C 4.8 km/h
1842 02-03-2020 09:25:00 4.7 C 6.46 g/m*3 4.7 C 4.8 km/h
1843 02-03-2020 09:30:00 4.8 C 6.44 g/m*3 4.8 C 4.8 km/h
1844 02-03-2020 09:35:00 4.9 C 6.48 g/m*3 2.27 C 11.3 km/h
1845 02-03-2020 09:40:00 5.1 C 6.5 g/m*3 3.23 C 8.1 km/h
1846 02-03-2020 09:45:00 5.3 C 6.58 g/m*3 3.08 C 9.7 km/h
1847 02-03-2020 09:50:00 5.4 C 6.56 g/m*3 3.58 C 8.1 km/h
1848 02-03-2020 09:55:00 5.7 C 6.62 g/m*3 4.4 C 6.4 km/h
1849 02-03-2020 10:00:00 5.8 C 6.59 g/m*3 5.8 C 4.8 km/h
1850 02-03-2020 10:05:00 6.1 C 6.65 g/m*3 4.04 C 9.7 km/h
Sensor: Nr:Datum:Temp:Abs-Feuchte:Windchill:Wind:
Aussen-T/F 1851 02-03-2020 10:10:00 6.3 C 6.66 g/m*3 4.64 C 8.1 km/h
1852 02-03-2020 10:15:00 6.4 C 6.63 g/m*3 6.4 C 4.8 km/h
1853 02-03-2020 10:20:00 6.6 C 6.64 g/m*3 4.63 C 9.7 km/h
1854 02-03-2020 10:25:00 6.8 C 6.73 g/m*3 5.22 C 8.1 km/h
1855 02-03-2020 10:30:00 7 C 6.66 g/m*3 4.53 C 12.9 km/h
1856 02-03-2020 10:35:00 7.2 C 6.67 g/m*3 6.13 C 6.4 km/h
1857 02-03-2020 10:40:00 7.4 C 6.84 g/m*3 6.37 C 6.4 km/h
1858 02-03-2020 10:45:00 7.7 C 6.97 g/m*3 7.7 C 3.2 km/h
1859 02-03-2020 10:50:00 7.9 C 6.9 g/m*3 5.63 C 12.9 km/h
1860 02-03-2020 10:55:00 8.2 C 7.03 g/m*3 7.29 C 6.4 km/h
1861 02-03-2020 11:00:00 8.4 C 7.04 g/m*3 6.78 C 9.7 km/h
1862 02-03-2020 11:05:00 8.7 C 7.01 g/m*3 7.87 C 6.4 km/h
1863 02-03-2020 11:10:00 9 C 7.14 g/m*3 8.21 C 6.4 km/h
1864 02-03-2020 11:15:00 9.2 C 7.14 g/m*3 7.46 C 11.3 km/h
1865 02-03-2020 11:20:00 9.3 C 7.01 g/m*3 7.85 C 9.7 km/h
1866 02-03-2020 11:25:00 9.4 C 6.96 g/m*3 7.7 C 11.3 km/h
1867 02-03-2020 11:30:00 9.6 C 7.05 g/m*3 8.52 C 8.1 km/h
1868 02-03-2020 11:35:00 9.7 C 7.01 g/m*3 8.06 C 11.3 km/h
1869 02-03-2020 11:40:00 9.9 C 7.19 g/m*3 8.3 C 11.3 km/h
1870 02-03-2020 11:45:00 10.1 C 7 g/m*3 9.48 C 6.4 km/h
1871 02-03-2020 11:50:00 10.2 C 6.95 g/m*3 9.6 C 6.4 km/h
1872 02-03-2020 11:55:00 10.2 C 7.14 g/m*3 10.2 C 4.8 km/h
1873 02-03-2020 12:00:00 10.4 C 6.94 g/m*3 9.83 C 6.4 km/h
1874 02-03-2020 12:05:00 10.6 C 6.93 g/m*3 10.06 C 6.4 km/h
1875 02-03-2020 12:10:00 10.7 C 6.97 g/m*3 9.04 C 12.9 km/h
Sensor: Nr:Datum:Temp:Abs-Feuchte:Windchill:Wind:
Aussen-T/F 1876 02-03-2020 12:15:00 10.8 C 6.92 g/m*3 10.8 C 4.8 km/h
1877 02-03-2020 12:20:00 10.8 C 6.72 g/m*3 10.8 C 4.8 km/h
1878 02-03-2020 12:25:00 10.9 C 6.96 g/m*3 10.04 C 8.1 km/h
1879 02-03-2020 12:30:00 10.8 C 6.72 g/m*3 10.29 C 6.4 km/h
1880 02-03-2020 12:35:00 10.8 C 6.72 g/m*3 8.78 C 16.1 km/h
1881 02-03-2020 12:40:00 10.9 C 7.06 g/m*3 9.51 C 11.3 km/h
1882 02-03-2020 12:45:00 11 C 6.81 g/m*3 9.4 C 12.9 km/h
1883 02-03-2020 12:50:00 11 C 6.71 g/m*3 9.4 C 12.9 km/h
1884 02-03-2020 12:55:00 10.9 C 6.86 g/m*3 10.41 C 6.4 km/h
1885 02-03-2020 13:00:00 10.8 C 6.92 g/m*3 10.29 C 6.4 km/h
1886 02-03-2020 13:05:00 10.8 C 6.82 g/m*3 9.64 C 9.7 km/h
1887 02-03-2020 13:10:00 10.9 C 7.06 g/m*3 10.41 C 6.4 km/h
1888 02-03-2020 13:15:00 11.1 C 6.85 g/m*3 11.1 C 4.8 km/h
1889 02-03-2020 13:20:00 11.4 C 7.08 g/m*3 11.4 C 8.1 km/h
1890 02-03-2020 13:25:00 11.7 C 7.01 g/m*3 11.7 C 11.3 km/h
1891 02-03-2020 13:30:00 11.8 C 7.05 g/m*3 11.8 C 9.7 km/h
1892 02-03-2020 13:35:00 11.9 C 7.1 g/m*3 11.9 C 8.1 km/h
1893 02-03-2020 13:40:00 12.2 C 7.23 g/m*3 12.2 C 8.1 km/h
1894 02-03-2020 13:45:00 12.3 C 7.06 g/m*3 12.3 C 8.1 km/h
1895 02-03-2020 13:50:00 12.2 C 7.01 g/m*3 12.2 C 9.7 km/h
1896 02-03-2020 13:55:00 11.9 C 6.78 g/m*3 11.9 C 6.4 km/h
1897 02-03-2020 14:00:00 11.7 C 6.9 g/m*3 11.7 C 6.4 km/h
1898 02-03-2020 14:05:00 11.5 C 7.02 g/m*3 11.5 C 11.3 km/h
1899 02-03-2020 14:10:00 11.4 C 6.98 g/m*3 11.4 C 4.8 km/h
1900 02-03-2020 14:15:00 11.3 C 6.83 g/m*3 11.3 C 9.7 km/h
Sensor: Nr:Datum:Temp:Abs-Feuchte:Windchill:Wind:
Aussen-T/F 1901 02-03-2020 14:20:00 11.2 C 6.89 g/m*3 11.2 C 8.1 km/h
1902 02-03-2020 14:25:00 11 C 6.91 g/m*3 10.52 C 6.4 km/h
1903 02-03-2020 14:30:00 11 C 6.91 g/m*3 9.4 C 12.9 km/h
1904 02-03-2020 14:35:00 10.9 C 6.86 g/m*3 10.41 C 6.4 km/h
1905 02-03-2020 14:40:00 10.9 C 6.76 g/m*3 9.76 C 9.7 km/h
1906 02-03-2020 14:45:00 10.8 C 6.82 g/m*3 9.93 C 8.1 km/h
1907 02-03-2020 14:50:00 10.7 C 6.78 g/m*3 9.52 C 9.7 km/h
1908 02-03-2020 14:55:00 10.7 C 6.68 g/m*3 9.04 C 12.9 km/h
1909 02-03-2020 15:00:00 10.6 C 6.73 g/m*3 10.6 C 4.8 km/h
1910 02-03-2020 15:05:00 10.6 C 6.83 g/m*3 10.06 C 6.4 km/h
1911 02-03-2020 15:10:00 10.6 C 6.83 g/m*3 10.06 C 6.4 km/h
1912 02-03-2020 15:15:00 10.5 C 6.79 g/m*3 10.5 C 1.6 km/h
1913 02-03-2020 15:20:00 10.5 C 6.79 g/m*3 10.5 C 4.8 km/h
1914 02-03-2020 15:25:00 10.5 C 6.89 g/m*3 10.5 C 3.2 km/h
1915 02-03-2020 15:30:00 10.4 C 6.75 g/m*3 9.46 C 8.1 km/h
1916 02-03-2020 15:35:00 10.4 C 6.94 g/m*3 10.4 C 4.8 km/h
1917 02-03-2020 15:40:00 10.3 C 6.9 g/m*3 10.3 C 0 km/h
1918 02-03-2020 15:45:00 10.2 C 7.14 g/m*3 10.2 C 3.2 km/h
1919 02-03-2020 15:50:00 10.2 C 7.23 g/m*3 10.2 C 1.6 km/h
1920 02-03-2020 15:55:00 10.2 C 7.61 g/m*3 10.2 C 0 km/h
1921 02-03-2020 16:00:00 10.1 C 7.85 g/m*3 10.1 C 0 km/h
1922 02-03-2020 16:05:00 9.8 C 7.7 g/m*3 9.8 C 0 km/h
1923 02-03-2020 16:10:00 9.6 C 7.79 g/m*3 9.6 C 0 km/h
1924 02-03-2020 16:15:00 9.4 C 7.78 g/m*3 9.4 C 3.2 km/h
1925 02-03-2020 16:20:00 9.2 C 7.77 g/m*3 9.2 C 3.2 km/h
Sensor: Nr:Datum:Temp:Abs-Feuchte:Windchill:Wind:
Aussen-T/F 1926 02-03-2020 16:25:00 9.1 C 7.72 g/m*3 9.1 C 1.6 km/h
1927 02-03-2020 16:30:00 8.8 C 7.66 g/m*3 8.8 C 1.6 km/h
1928 02-03-2020 16:35:00 8.7 C 7.7 g/m*3 8.7 C 0 km/h
1929 02-03-2020 16:40:00 8.6 C 7.65 g/m*3 8.6 C 0 km/h
1930 02-03-2020 16:45:00 8.4 C 7.63 g/m*3 8.4 C 0 km/h
1931 02-03-2020 16:50:00 8.3 C 7.59 g/m*3 8.3 C 0 km/h
1932 02-03-2020 16:55:00 8.2 C 7.54 g/m*3 8.2 C 0 km/h
1933 02-03-2020 17:00:00 8.1 C 7.57 g/m*3 8.1 C 0 km/h
1934 02-03-2020 17:05:00 8 C 7.52 g/m*3 8 C 0 km/h
1935 02-03-2020 17:10:00 7.9 C 7.47 g/m*3 7.9 C 0 km/h
1936 02-03-2020 17:15:00 7.8 C 7.43 g/m*3 7.8 C 0 km/h
1937 02-03-2020 17:20:00 7.7 C 7.38 g/m*3 7.7 C 0 km/h
1938 02-03-2020 17:25:00 7.6 C 7.41 g/m*3 7.6 C 0 km/h
1939 02-03-2020 17:30:00 7.6 C 7.41 g/m*3 7.6 C 0 km/h
1940 02-03-2020 17:35:00 7.5 C 7.36 g/m*3 7.5 C 0 km/h
1941 02-03-2020 17:40:00 7.4 C 7.4 g/m*3 7.4 C 0 km/h
1942 02-03-2020 17:45:00 7.4 C 7.4 g/m*3 7.4 C 0 km/h
1943 02-03-2020 17:50:00 7.3 C 7.35 g/m*3 7.3 C 0 km/h
1944 02-03-2020 17:55:00 7.3 C 7.35 g/m*3 7.3 C 0 km/h
1945 02-03-2020 18:00:00 7.2 C 7.3 g/m*3 7.2 C 0 km/h
1946 02-03-2020 18:05:00 7.2 C 7.3 g/m*3 7.2 C 0 km/h
1947 02-03-2020 18:10:00 7.2 C 7.3 g/m*3 7.2 C 0 km/h
1948 02-03-2020 18:15:00 7.1 C 7.25 g/m*3 7.1 C 0 km/h
1949 02-03-2020 18:20:00 7.1 C 7.25 g/m*3 7.1 C 0 km/h
1950 02-03-2020 18:25:00 7 C 7.28 g/m*3 7 C 0 km/h
Sensor: Nr:Datum:Temp:Abs-Feuchte:Windchill:Wind:
Aussen-T/F 1951 02-03-2020 18:30:00 7 C 7.28 g/m*3 7 C 0 km/h
1952 02-03-2020 18:35:00 6.9 C 7.24 g/m*3 6.9 C 0 km/h
1953 02-03-2020 18:40:00 6.9 C 7.24 g/m*3 6.9 C 0 km/h
1954 02-03-2020 18:45:00 6.8 C 7.19 g/m*3 6.8 C 0 km/h
1955 02-03-2020 18:50:00 6.8 C 7.19 g/m*3 6.8 C 0 km/h
1956 02-03-2020 18:55:00 6.7 C 7.14 g/m*3 6.7 C 0 km/h
1957 02-03-2020 19:00:00 6.7 C 7.14 g/m*3 6.7 C 0 km/h
1958 02-03-2020 19:05:00 6.7 C 7.14 g/m*3 6.7 C 0 km/h
1959 02-03-2020 19:10:00 6.6 C 7.1 g/m*3 6.6 C 0 km/h
1960 02-03-2020 19:15:00 6.6 C 7.1 g/m*3 6.6 C 0 km/h
1961 02-03-2020 19:20:00 6.6 C 7.1 g/m*3 6.6 C 0 km/h
1962 02-03-2020 19:25:00 6.5 C 7.12 g/m*3 6.5 C 0 km/h
1963 02-03-2020 19:30:00 6.5 C 7.12 g/m*3 6.5 C 0 km/h
1964 02-03-2020 19:35:00 6.5 C 7.12 g/m*3 6.5 C 0 km/h
1965 02-03-2020 19:40:00 6.5 C 7.12 g/m*3 6.5 C 0 km/h
1966 02-03-2020 19:45:00 6.4 C 7.08 g/m*3 6.4 C 0 km/h
1967 02-03-2020 19:50:00 6.4 C 7.08 g/m*3 6.4 C 0 km/h
1968 02-03-2020 19:55:00 6.4 C 7.08 g/m*3 6.4 C 0 km/h
1969 02-03-2020 20:00:00 6.4 C 7.08 g/m*3 6.4 C 0 km/h
1970 02-03-2020 20:05:00 6.4 C 7.08 g/m*3 6.4 C 0 km/h
1971 02-03-2020 20:10:00 6.4 C 7.08 g/m*3 6.4 C 0 km/h
1972 02-03-2020 20:15:00 6.4 C 7.08 g/m*3 6.4 C 0 km/h
1973 02-03-2020 20:20:00 6.4 C 7.08 g/m*3 6.4 C 0 km/h
1974 02-03-2020 20:25:00 6.4 C 7.08 g/m*3 6.4 C 0 km/h
1975 02-03-2020 20:30:00 6.4 C 7.08 g/m*3 6.4 C 0 km/h
Sensor: Nr:Datum:Temp:Abs-Feuchte:Windchill:Wind:
Aussen-T/F 1976 02-03-2020 20:35:00 6.3 C 7.03 g/m*3 6.3 C 0 km/h
1977 02-03-2020 20:40:00 6.3 C 7.03 g/m*3 6.3 C 0 km/h
1978 02-03-2020 20:45:00 6.3 C 7.03 g/m*3 6.3 C 0 km/h
1979 02-03-2020 20:50:00 6.3 C 7.03 g/m*3 6.3 C 0 km/h
1980 02-03-2020 20:55:00 6.3 C 7.03 g/m*3 6.3 C 0 km/h
1981 02-03-2020 21:00:00 6.3 C 7.03 g/m*3 6.3 C 0 km/h
1982 02-03-2020 21:05:00 6.3 C 7.03 g/m*3 6.3 C 0 km/h
1983 02-03-2020 21:10:00 6.3 C 7.03 g/m*3 6.3 C 0 km/h
1984 02-03-2020 21:15:00 6.2 C 6.99 g/m*3 6.2 C 0 km/h
1985 02-03-2020 21:20:00 6.2 C 6.99 g/m*3 6.2 C 0 km/h
1986 02-03-2020 21:25:00 6.2 C 6.99 g/m*3 6.2 C 0 km/h
1987 02-03-2020 21:30:00 6.2 C 6.99 g/m*3 6.2 C 0 km/h
1988 02-03-2020 21:35:00 6.2 C 6.99 g/m*3 6.2 C 0 km/h
1989 02-03-2020 21:40:00 6.2 C 6.99 g/m*3 6.2 C 0 km/h
1990 02-03-2020 21:45:00 6.2 C 7.06 g/m*3 6.2 C 0 km/h
1991 02-03-2020 21:50:00 6.2 C 7.06 g/m*3 6.2 C 0 km/h
1992 02-03-2020 21:55:00 6.2 C 7.06 g/m*3 6.2 C 0 km/h
1993 02-03-2020 22:00:00 6.2 C 7.06 g/m*3 6.2 C 0 km/h
1994 02-03-2020 22:05:00 6.1 C 7.01 g/m*3 6.1 C 0 km/h
1995 02-03-2020 22:10:00 6.1 C 7.01 g/m*3 6.1 C 0 km/h
1996 02-03-2020 22:15:00 6.2 C 7.06 g/m*3 6.2 C 0 km/h
1997 02-03-2020 22:20:00 6.1 C 7.01 g/m*3 6.1 C 0 km/h
1998 02-03-2020 22:25:00 6.2 C 7.06 g/m*3 6.2 C 0 km/h
1999 02-03-2020 22:30:00 6.2 C 7.06 g/m*3 6.2 C 0 km/h
2000 02-03-2020 22:35:00 6.2 C 7.06 g/m*3 6.2 C 0 km/h
Sensor: Nr:Datum:Temp:Abs-Feuchte:Windchill:Wind:
Aussen-T/F 2001 02-03-2020 22:40:00 6.2 C 7.06 g/m*3 6.2 C 0 km/h
2002 02-03-2020 22:45:00 6.2 C 7.06 g/m*3 6.2 C 0 km/h
2003 02-03-2020 22:50:00 6.1 C 7.01 g/m*3 6.1 C 0 km/h
2004 02-03-2020 22:55:00 6.1 C 7.01 g/m*3 6.1 C 3.2 km/h
2005 02-03-2020 23:00:00 6.1 C 7.01 g/m*3 6.1 C 4.8 km/h
2006 02-03-2020 23:05:00 6.1 C 7.01 g/m*3 6.1 C 0 km/h
2007 02-03-2020 23:10:00 6 C 6.97 g/m*3 6 C 1.6 km/h
2008 02-03-2020 23:15:00 6 C 6.97 g/m*3 6 C 0 km/h
2009 02-03-2020 23:20:00 5.9 C 6.92 g/m*3 5.9 C 0 km/h
2010 02-03-2020 23:25:00 5.9 C 6.92 g/m*3 5.9 C 1.6 km/h
2011 02-03-2020 23:30:00 5.9 C 6.92 g/m*3 5.9 C 1.6 km/h
2012 02-03-2020 23:35:00 5.9 C 6.92 g/m*3 5.9 C 0 km/h
2013 02-03-2020 23:40:00 5.9 C 6.92 g/m*3 5.9 C 1.6 km/h
2014 02-03-2020 23:45:00 5.9 C 6.92 g/m*3 5.9 C 3.2 km/h
2015 02-03-2020 23:50:00 5.9 C 6.92 g/m*3 4.63 C 6.4 km/h
2016 02-03-2020 23:55:00 5.9 C 6.92 g/m*3 5.9 C 1.6 km/h
2017 03-03-2020 00:00:00 5.9 C 6.92 g/m*3 5.9 C 0 km/h
2018 03-03-2020 00:05:00 5.9 C 6.92 g/m*3 5.9 C 1.6 km/h
2019 03-03-2020 00:10:00 5.9 C 6.92 g/m*3 3.8 C 9.7 km/h
2020 03-03-2020 00:15:00 5.9 C 6.92 g/m*3 4.63 C 6.4 km/h
2021 03-03-2020 00:20:00 5.8 C 6.88 g/m*3 4.52 C 6.4 km/h
2022 03-03-2020 00:25:00 5.8 C 6.88 g/m*3 4.52 C 6.4 km/h
2023 03-03-2020 00:30:00 5.8 C 6.88 g/m*3 5.8 C 4.8 km/h
2024 03-03-2020 00:35:00 5.7 C 6.83 g/m*3 5.7 C 1.6 km/h
2025 03-03-2020 00:40:00 5.7 C 6.83 g/m*3 5.7 C 1.6 km/h
Sensor: Nr:Datum:Temp:Abs-Feuchte:Windchill:Wind:
Aussen-T/F 2026 03-03-2020 00:45:00 5.7 C 6.83 g/m*3 4.4 C 6.4 km/h
2027 03-03-2020 00:50:00 5.7 C 6.83 g/m*3 5.7 C 1.6 km/h
2028 03-03-2020 00:55:00 5.7 C 6.83 g/m*3 5.7 C 3.2 km/h
2029 03-03-2020 01:00:00 5.7 C 6.83 g/m*3 5.7 C 3.2 km/h
2030 03-03-2020 01:05:00 5.7 C 6.83 g/m*3 5.7 C 4.8 km/h
2031 03-03-2020 01:10:00 5.7 C 6.83 g/m*3 3.93 C 8.1 km/h
2032 03-03-2020 01:15:00 5.7 C 6.83 g/m*3 3.23 C 11.3 km/h
2033 03-03-2020 01:20:00 5.7 C 6.83 g/m*3 3.23 C 11.3 km/h
2034 03-03-2020 01:25:00 5.8 C 6.81 g/m*3 3.07 C 12.9 km/h
2035 03-03-2020 01:30:00 5.8 C 6.81 g/m*3 3.36 C 11.3 km/h
2036 03-03-2020 01:35:00 5.7 C 6.69 g/m*3 2.03 C 19.3 km/h
2037 03-03-2020 01:40:00 5.5 C 6.53 g/m*3 1.99 C 17.7 km/h
2038 03-03-2020 01:45:00 5.4 C 6.49 g/m*3 1.86 C 17.7 km/h
2039 03-03-2020 01:50:00 5.3 C 6.45 g/m*3 2.75 C 11.3 km/h
2040 03-03-2020 01:55:00 5.3 C 6.45 g/m*3 5.3 C 4.8 km/h
2041 03-03-2020 02:00:00 5.3 C 6.45 g/m*3 3.08 C 9.7 km/h
2042 03-03-2020 02:05:00 5.3 C 6.45 g/m*3 3.08 C 9.7 km/h
2043 03-03-2020 02:10:00 5.3 C 6.45 g/m*3 3.46 C 8.1 km/h
2044 03-03-2020 02:15:00 5.2 C 6.4 g/m*3 3.82 C 6.4 km/h
2045 03-03-2020 02:20:00 5.2 C 6.4 g/m*3 5.2 C 3.2 km/h
2046 03-03-2020 02:25:00 5.1 C 6.36 g/m*3 3.23 C 8.1 km/h
2047 03-03-2020 02:30:00 5.1 C 6.22 g/m*3 2.84 C 9.7 km/h
2048 03-03-2020 02:35:00 5.2 C 6.27 g/m*3 3.82 C 6.4 km/h
2049 03-03-2020 02:40:00 5.2 C 6.2 g/m*3 3.34 C 8.1 km/h
2050 03-03-2020 02:45:00 5.2 C 6.2 g/m*3 2.63 C 11.3 km/h
Sensor: Nr:Datum:Temp:Abs-Feuchte:Windchill:Wind:
Aussen-T/F 2051 03-03-2020 02:50:00 5.2 C 6.2 g/m*3 5.2 C 3.2 km/h
2052 03-03-2020 02:55:00 5.1 C 6.09 g/m*3 5.1 C 4.8 km/h
2053 03-03-2020 03:00:00 5.1 C 6.16 g/m*3 5.1 C 4.8 km/h
2054 03-03-2020 03:05:00 4.9 C 6.14 g/m*3 4.9 C 3.2 km/h
2055 03-03-2020 03:10:00 4.8 C 6.04 g/m*3 4.8 C 4.8 km/h
2056 03-03-2020 03:15:00 4.7 C 6.06 g/m*3 2.76 C 8.1 km/h
2057 03-03-2020 03:20:00 4.5 C 5.85 g/m*3 1.79 C 11.3 km/h
2058 03-03-2020 03:25:00 4.4 C 5.81 g/m*3 4.4 C 1.6 km/h
2059 03-03-2020 03:30:00 4.4 C 5.88 g/m*3 2.9 C 6.4 km/h
2060 03-03-2020 03:35:00 4.3 C 5.84 g/m*3 4.3 C 3.2 km/h
2061 03-03-2020 03:40:00 4.2 C 5.8 g/m*3 4.2 C 4.8 km/h
2062 03-03-2020 03:45:00 4.1 C 5.82 g/m*3 4.1 C 4.8 km/h
2063 03-03-2020 03:50:00 3.9 C 5.75 g/m*3 3.9 C 4.8 km/h
2064 03-03-2020 03:55:00 3.9 C 5.75 g/m*3 2.32 C 6.4 km/h
2065 03-03-2020 04:00:00 3.8 C 5.71 g/m*3 2.21 C 6.4 km/h
2066 03-03-2020 04:05:00 3.7 C 5.73 g/m*3 3.7 C 4.8 km/h
2067 03-03-2020 04:10:00 3.7 C 5.73 g/m*3 3.7 C 4.8 km/h
2068 03-03-2020 04:15:00 3.6 C 5.69 g/m*3 1.98 C 6.4 km/h
2069 03-03-2020 04:20:00 3.6 C 5.69 g/m*3 1.98 C 6.4 km/h
2070 03-03-2020 04:25:00 3.6 C 5.69 g/m*3 1.98 C 6.4 km/h
2071 03-03-2020 04:30:00 3.6 C 5.69 g/m*3 1.98 C 6.4 km/h
2072 03-03-2020 04:35:00 3.6 C 5.69 g/m*3 1.46 C 8.1 km/h
2073 03-03-2020 04:40:00 3.7 C 5.73 g/m*3 2.09 C 6.4 km/h
2074 03-03-2020 04:45:00 3.7 C 5.73 g/m*3 3.7 C 4.8 km/h
2075 03-03-2020 04:50:00 3.6 C 5.69 g/m*3 1.98 C 6.4 km/h
Sensor: Nr:Datum:Temp:Abs-Feuchte:Windchill:Wind:
Aussen-T/F 2076 03-03-2020 04:55:00 3.6 C 5.76 g/m*3 1.46 C 8.1 km/h
2077 03-03-2020 05:00:00 3.6 C 5.69 g/m*3 1.06 C 9.7 km/h
2078 03-03-2020 05:05:00 3.6 C 5.69 g/m*3 0.7 C 11.3 km/h
2079 03-03-2020 05:10:00 3.6 C 5.69 g/m*3 3.6 C 4.8 km/h
2080 03-03-2020 05:15:00 3.6 C 5.69 g/m*3 1.06 C 9.7 km/h
2081 03-03-2020 05:20:00 3.5 C 5.66 g/m*3 1.34 C 8.1 km/h
2082 03-03-2020 05:25:00 3.4 C 5.62 g/m*3 3.4 C 4.8 km/h
2083 03-03-2020 05:30:00 3.3 C 5.64 g/m*3 1.11 C 8.1 km/h
2084 03-03-2020 05:35:00 3.3 C 5.64 g/m*3 3.3 C 4.8 km/h
2085 03-03-2020 05:40:00 3.3 C 5.64 g/m*3 1.11 C 8.1 km/h
2086 03-03-2020 05:45:00 3.3 C 5.64 g/m*3 3.3 C 4.8 km/h
2087 03-03-2020 05:50:00 3.3 C 5.64 g/m*3 1.63 C 6.4 km/h
2088 03-03-2020 05:55:00 3.2 C 5.6 g/m*3 3.2 C 3.2 km/h
2089 03-03-2020 06:00:00 3.2 C 5.6 g/m*3 3.2 C 4.8 km/h
2090 03-03-2020 06:05:00 3.2 C 5.6 g/m*3 3.2 C 4.8 km/h
2091 03-03-2020 06:10:00 3.3 C 5.7 g/m*3 1.63 C 6.4 km/h
2092 03-03-2020 06:15:00 3.3 C 5.7 g/m*3 1.11 C 8.1 km/h
2093 03-03-2020 06:20:00 3.4 C 5.68 g/m*3 1.23 C 8.1 km/h
2094 03-03-2020 06:25:00 3.4 C 5.68 g/m*3 3.4 C 4.8 km/h
2095 03-03-2020 06:30:00 3.4 C 5.68 g/m*3 3.4 C 4.8 km/h
2096 03-03-2020 06:35:00 3.3 C 5.64 g/m*3 1.63 C 6.4 km/h
2097 03-03-2020 06:40:00 3.3 C 5.64 g/m*3 3.3 C 4.8 km/h
2098 03-03-2020 06:45:00 3.2 C 5.6 g/m*3 0.99 C 8.1 km/h
2099 03-03-2020 06:50:00 3.2 C 5.6 g/m*3 3.2 C 4.8 km/h
2100 03-03-2020 06:55:00 3.2 C 5.6 g/m*3 -0.1 C 12.9 km/h
Sensor: Nr:Datum:Temp:Abs-Feuchte:Windchill:Wind:
Aussen-T/F 2101 03-03-2020 07:00:00 3.2 C 5.6 g/m*3 0.58 C 9.7 km/h
2102 03-03-2020 07:05:00 3.3 C 5.64 g/m*3 3.3 C 4.8 km/h
2103 03-03-2020 07:10:00 3.3 C 5.64 g/m*3 0.34 C 11.3 km/h
2104 03-03-2020 07:15:00 3.3 C 5.64 g/m*3 1.11 C 8.1 km/h
2105 03-03-2020 07:20:00 3.3 C 5.64 g/m*3 1.63 C 6.4 km/h
2106 03-03-2020 07:25:00 3.3 C 5.64 g/m*3 1.11 C 8.1 km/h
2107 03-03-2020 07:30:00 3.3 C 5.64 g/m*3 1.63 C 6.4 km/h
2108 03-03-2020 07:35:00 3.3 C 5.64 g/m*3 1.63 C 6.4 km/h
2109 03-03-2020 07:40:00 3.3 C 5.64 g/m*3 1.63 C 6.4 km/h
2110 03-03-2020 07:45:00 3.3 C 5.64 g/m*3 3.3 C 4.8 km/h
2111 03-03-2020 07:50:00 3.2 C 5.6 g/m*3 0.58 C 9.7 km/h
2112 03-03-2020 07:55:00 3.2 C 5.6 g/m*3 0.99 C 8.1 km/h
2113 03-03-2020 08:00:00 3.2 C 5.6 g/m*3 1.51 C 6.4 km/h
2114 03-03-2020 08:05:00 3.2 C 5.6 g/m*3 1.51 C 6.4 km/h
2115 03-03-2020 08:10:00 3.2 C 5.6 g/m*3 3.2 C 4.8 km/h
2116 03-03-2020 08:15:00 3.2 C 5.6 g/m*3 0.58 C 9.7 km/h
2117 03-03-2020 08:20:00 3.3 C 5.64 g/m*3 1.11 C 8.1 km/h
2118 03-03-2020 08:25:00 3.4 C 5.68 g/m*3 1.75 C 6.4 km/h
2119 03-03-2020 08:30:00 3.5 C 5.72 g/m*3 0.58 C 11.3 km/h
2120 03-03-2020 08:35:00 3.7 C 5.8 g/m*3 0.82 C 11.3 km/h
2121 03-03-2020 08:40:00 3.8 C 5.77 g/m*3 0.35 C 14.5 km/h
2122 03-03-2020 08:45:00 3.8 C 5.77 g/m*3 -0.14 C 17.7 km/h
2123 03-03-2020 08:50:00 3.9 C 5.75 g/m*3 0.22 C 16.1 km/h
2124 03-03-2020 08:55:00 3.9 C 5.68 g/m*3 0.47 C 14.5 km/h
2125 03-03-2020 09:00:00 3.9 C 5.68 g/m*3 1.06 C 11.3 km/h
Sensor: Nr:Datum:Temp:Abs-Feuchte:Windchill:Wind:
Aussen-T/F 2126 03-03-2020 09:05:00 3.9 C 5.68 g/m*3 1.06 C 11.3 km/h
2127 03-03-2020 09:10:00 3.9 C 5.68 g/m*3 0.47 C 14.5 km/h
2128 03-03-2020 09:15:00 3.9 C 5.68 g/m*3 2.32 C 6.4 km/h
2129 03-03-2020 09:20:00 3.8 C 5.65 g/m*3 0.94 C 11.3 km/h
2130 03-03-2020 09:25:00 3.9 C 5.68 g/m*3 1.41 C 9.7 km/h
2131 03-03-2020 09:30:00 3.9 C 5.68 g/m*3 0.75 C 12.9 km/h
2132 03-03-2020 09:35:00 4.1 C 5.76 g/m*3 1.31 C 11.3 km/h
2133 03-03-2020 09:40:00 4.1 C 5.76 g/m*3 2.55 C 6.4 km/h
2134 03-03-2020 09:45:00 4.2 C 5.8 g/m*3 1.12 C 12.9 km/h
2135 03-03-2020 09:50:00 4.3 C 5.84 g/m*3 0.97 C 14.5 km/h
2136 03-03-2020 09:55:00 4.4 C 5.81 g/m*3 1.09 C 14.5 km/h
2137 03-03-2020 10:00:00 4.7 C 5.86 g/m*3 1.46 C 14.5 km/h
2138 03-03-2020 10:05:00 4.8 C 5.83 g/m*3 1.34 C 16.1 km/h
2139 03-03-2020 10:10:00 5.1 C 5.95 g/m*3 2.22 C 12.9 km/h
2140 03-03-2020 10:15:00 5.3 C 5.89 g/m*3 1.74 C 17.7 km/h
2141 03-03-2020 10:20:00 5.3 C 5.82 g/m*3 2.2 C 14.5 km/h
2142 03-03-2020 10:25:00 5.4 C 5.86 g/m*3 3.2 C 9.7 km/h
2143 03-03-2020 10:30:00 5.4 C 5.86 g/m*3 2.32 C 14.5 km/h
2144 03-03-2020 10:35:00 5.5 C 5.9 g/m*3 2.99 C 11.3 km/h
2145 03-03-2020 10:40:00 5.5 C 5.76 g/m*3 2.2 C 16.1 km/h
2146 03-03-2020 10:45:00 5.4 C 5.72 g/m*3 2.08 C 16.1 km/h
2147 03-03-2020 10:50:00 5.3 C 5.61 g/m*3 0.99 C 24.1 km/h
2148 03-03-2020 10:55:00 5.2 C 5.65 g/m*3 1.83 C 16.1 km/h
2149 03-03-2020 11:00:00 5.2 C 5.65 g/m*3 2.63 C 11.3 km/h
2150 03-03-2020 11:05:00 5.3 C 5.75 g/m*3 2.46 C 12.9 km/h
Sensor: Nr:Datum:Temp:Abs-Feuchte:Windchill:Wind:
Aussen-T/F 2151 03-03-2020 11:10:00 5.3 C 5.75 g/m*3 2.75 C 11.3 km/h
2152 03-03-2020 11:15:00 5.4 C 5.79 g/m*3 2.32 C 14.5 km/h
2153 03-03-2020 11:20:00 5.4 C 5.86 g/m*3 3.58 C 8.1 km/h
2154 03-03-2020 11:25:00 5.5 C 5.9 g/m*3 3.7 C 8.1 km/h
2155 03-03-2020 11:30:00 5.4 C 5.79 g/m*3 4.06 C 6.4 km/h
2156 03-03-2020 11:35:00 5.4 C 5.79 g/m*3 2.58 C 12.9 km/h
2157 03-03-2020 11:40:00 5.5 C 5.9 g/m*3 3.7 C 8.1 km/h
2158 03-03-2020 11:45:00 5.6 C 5.94 g/m*3 3.81 C 8.1 km/h
2159 03-03-2020 11:50:00 5.7 C 5.91 g/m*3 3.23 C 11.3 km/h
2160 03-03-2020 11:55:00 5.7 C 5.84 g/m*3 3.56 C 9.7 km/h
2161 03-03-2020 12:00:00 5.8 C 5.95 g/m*3 4.05 C 8.1 km/h
2162 03-03-2020 12:05:00 5.8 C 5.95 g/m*3 3.36 C 11.3 km/h
2163 03-03-2020 12:10:00 5.9 C 5.91 g/m*3 3.48 C 11.3 km/h
2164 03-03-2020 12:15:00 6 C 5.95 g/m*3 3.92 C 9.7 km/h
2165 03-03-2020 12:20:00 6.1 C 5.99 g/m*3 4.86 C 6.4 km/h
2166 03-03-2020 12:25:00 6.2 C 6.03 g/m*3 4.52 C 8.1 km/h
2167 03-03-2020 12:30:00 6.3 C 6.07 g/m*3 4.64 C 8.1 km/h
2168 03-03-2020 12:35:00 6.4 C 6.04 g/m*3 5.21 C 6.4 km/h
2169 03-03-2020 12:40:00 6.5 C 6.07 g/m*3 3.92 C 12.9 km/h
2170 03-03-2020 12:45:00 6.6 C 6.11 g/m*3 4.32 C 11.3 km/h
2171 03-03-2020 12:50:00 6.6 C 6.04 g/m*3 4.99 C 8.1 km/h
2172 03-03-2020 12:55:00 6.6 C 5.96 g/m*3 4.04 C 12.9 km/h
2173 03-03-2020 13:00:00 6.5 C 5.92 g/m*3 4.2 C 11.3 km/h
2174 03-03-2020 13:05:00 6.6 C 5.89 g/m*3 4.04 C 12.9 km/h
2175 03-03-2020 13:10:00 6.7 C 5.93 g/m*3 4.75 C 9.7 km/h
Sensor: Nr:Datum:Temp:Abs-Feuchte:Windchill:Wind:
Aussen-T/F 2176 03-03-2020 13:15:00 6.9 C 6 g/m*3 4.99 C 9.7 km/h
2177 03-03-2020 13:20:00 7.2 C 5.97 g/m*3 4.77 C 12.9 km/h
2178 03-03-2020 13:25:00 7.4 C 6.12 g/m*3 5.28 C 11.3 km/h
2179 03-03-2020 13:30:00 7.6 C 6.12 g/m*3 5.26 C 12.9 km/h
2180 03-03-2020 13:35:00 7.7 C 6.08 g/m*3 6.71 C 6.4 km/h
2181 03-03-2020 13:40:00 7.7 C 6 g/m*3 5.65 C 11.3 km/h
2182 03-03-2020 13:45:00 7.9 C 6 g/m*3 5.89 C 11.3 km/h
2183 03-03-2020 13:50:00 8 C 6.12 g/m*3 5.3 C 16.1 km/h
2184 03-03-2020 13:55:00 7.8 C 6.04 g/m*3 5.51 C 12.9 km/h
2185 03-03-2020 14:00:00 7.4 C 6.04 g/m*3 5.93 C 8.1 km/h
2186 03-03-2020 14:05:00 7.2 C 6.28 g/m*3 6.13 C 6.4 km/h
2187 03-03-2020 14:10:00 7 C 6.35 g/m*3 5.46 C 8.1 km/h
2188 03-03-2020 14:15:00 6.8 C 6.35 g/m*3 6.8 C 4.8 km/h
2189 03-03-2020 14:20:00 6.7 C 6.38 g/m*3 6.7 C 1.6 km/h
2190 03-03-2020 14:25:00 6.6 C 6.42 g/m*3 6.6 C 0 km/h
2191 03-03-2020 14:30:00 6.5 C 6.37 g/m*3 4.51 C 9.7 km/h
2192 03-03-2020 14:35:00 6.3 C 6.22 g/m*3 3.2 C 16.1 km/h
2193 03-03-2020 14:40:00 6.1 C 6.21 g/m*3 3.18 C 14.5 km/h
2194 03-03-2020 14:45:00 5.9 C 6.27 g/m*3 5.9 C 4.8 km/h
2195 03-03-2020 14:50:00 5.8 C 6.23 g/m*3 4.05 C 8.1 km/h
2196 03-03-2020 14:55:00 5.8 C 6.23 g/m*3 4.52 C 6.4 km/h
2197 03-03-2020 15:00:00 5.7 C 6.26 g/m*3 3.93 C 8.1 km/h
2198 03-03-2020 15:05:00 5.6 C 6.22 g/m*3 3.11 C 11.3 km/h
2199 03-03-2020 15:10:00 5.4 C 6.07 g/m*3 2.87 C 11.3 km/h
2200 03-03-2020 15:15:00 5.4 C 6.14 g/m*3 5.4 C 3.2 km/h
Sensor: Nr:Datum:Temp:Abs-Feuchte:Windchill:Wind:
Aussen-T/F 2201 03-03-2020 15:20:00 5.6 C 6.22 g/m*3 4.29 C 6.4 km/h
2202 03-03-2020 15:25:00 5.8 C 6.23 g/m*3 4.05 C 8.1 km/h
2203 03-03-2020 15:30:00 6.1 C 6.36 g/m*3 4.4 C 8.1 km/h
2204 03-03-2020 15:35:00 6.4 C 6.48 g/m*3 5.21 C 6.4 km/h
2205 03-03-2020 15:40:00 6.6 C 6.42 g/m*3 4.63 C 9.7 km/h
2206 03-03-2020 15:45:00 6.8 C 6.35 g/m*3 4.56 C 11.3 km/h
2207 03-03-2020 15:50:00 7 C 6.35 g/m*3 7 C 4.8 km/h
2208 03-03-2020 15:55:00 7 C 6.28 g/m*3 5.46 C 8.1 km/h
2209 03-03-2020 16:00:00 6.9 C 6.31 g/m*3 6.9 C 4.8 km/h
2210 03-03-2020 16:05:00 7.2 C 6.36 g/m*3 6.13 C 6.4 km/h
2211 03-03-2020 16:10:00 7.4 C 6.36 g/m*3 5.93 C 8.1 km/h
2212 03-03-2020 16:15:00 7.7 C 6.49 g/m*3 5.94 C 9.7 km/h
2213 03-03-2020 16:20:00 7.7 C 6.32 g/m*3 5.38 C 12.9 km/h
2214 03-03-2020 16:25:00 7.6 C 6.2 g/m*3 5.82 C 9.7 km/h
2215 03-03-2020 16:30:00 7.5 C 6.24 g/m*3 6.05 C 8.1 km/h
2216 03-03-2020 16:35:00 7.4 C 6.2 g/m*3 6.37 C 6.4 km/h
2217 03-03-2020 16:40:00 7.4 C 6.2 g/m*3 7.4 C 4.8 km/h
2218 03-03-2020 16:45:00 7.3 C 6.16 g/m*3 7.3 C 4.8 km/h
2219 03-03-2020 16:50:00 7.3 C 6.24 g/m*3 6.25 C 6.4 km/h
2220 03-03-2020 16:55:00 7.3 C 6.24 g/m*3 7.3 C 4.8 km/h
2221 03-03-2020 17:00:00 7.3 C 6.16 g/m*3 5.81 C 8.1 km/h
2222 03-03-2020 17:05:00 7.2 C 6.2 g/m*3 7.2 C 3.2 km/h
2223 03-03-2020 17:10:00 7.1 C 6.24 g/m*3 5.58 C 8.1 km/h
2224 03-03-2020 17:15:00 7.1 C 6.24 g/m*3 7.1 C 4.8 km/h
2225 03-03-2020 17:20:00 7.1 C 6.4 g/m*3 7.1 C 4.8 km/h
Sensor: Nr:Datum:Temp:Abs-Feuchte:Windchill:Wind:
Aussen-T/F 2226 03-03-2020 17:25:00 7 C 6.2 g/m*3 7 C 4.8 km/h
2227 03-03-2020 17:30:00 6.9 C 6.16 g/m*3 5.79 C 6.4 km/h
2228 03-03-2020 17:35:00 6.9 C 6.08 g/m*3 6.9 C 4.8 km/h
2229 03-03-2020 17:40:00 6.9 C 6.24 g/m*3 6.9 C 1.6 km/h
2230 03-03-2020 17:45:00 6.9 C 6.24 g/m*3 6.9 C 4.8 km/h
2231 03-03-2020 17:50:00 6.9 C 6.24 g/m*3 6.9 C 0 km/h
2232 03-03-2020 17:55:00 6.8 C 6.19 g/m*3 6.8 C 0 km/h
2233 03-03-2020 18:00:00 6.6 C 6.11 g/m*3 6.6 C 4.8 km/h
2234 03-03-2020 18:05:00 6.2 C 6.03 g/m*3 4.98 C 6.4 km/h
2235 03-03-2020 18:10:00 5.9 C 5.98 g/m*3 4.63 C 6.4 km/h
2236 03-03-2020 18:15:00 5.7 C 5.98 g/m*3 4.4 C 6.4 km/h
2237 03-03-2020 18:20:00 5.3 C 5.89 g/m*3 3.94 C 6.4 km/h
2238 03-03-2020 18:25:00 5.1 C 5.81 g/m*3 3.71 C 6.4 km/h
2239 03-03-2020 18:30:00 4.9 C 5.81 g/m*3 3.48 C 6.4 km/h
2240 03-03-2020 18:35:00 4.8 C 5.77 g/m*3 4.8 C 4.8 km/h
2241 03-03-2020 18:40:00 4.6 C 5.76 g/m*3 4.6 C 4.8 km/h
2242 03-03-2020 18:45:00 4.4 C 5.75 g/m*3 2.4 C 8.1 km/h
2243 03-03-2020 18:50:00 4.3 C 5.71 g/m*3 2.29 C 8.1 km/h
2244 03-03-2020 18:55:00 4.2 C 5.73 g/m*3 2.67 C 6.4 km/h
2245 03-03-2020 19:00:00 4.1 C 5.7 g/m*3 2.05 C 8.1 km/h
2246 03-03-2020 19:05:00 4 C 5.72 g/m*3 4 C 4.8 km/h
2247 03-03-2020 19:10:00 3.9 C 5.68 g/m*3 3.9 C 4.8 km/h
2248 03-03-2020 19:15:00 3.8 C 5.65 g/m*3 2.21 C 6.4 km/h
2249 03-03-2020 19:20:00 3.8 C 5.65 g/m*3 1.7 C 8.1 km/h
2250 03-03-2020 19:25:00 3.8 C 5.65 g/m*3 1.7 C 8.1 km/h
Sensor: Nr:Datum:Temp:Abs-Feuchte:Windchill:Wind:
Aussen-T/F 2251 03-03-2020 19:30:00 3.8 C 5.65 g/m*3 3.8 C 4.8 km/h
2252 03-03-2020 19:35:00 3.7 C 5.61 g/m*3 3.7 C 4.8 km/h
2253 03-03-2020 19:40:00 3.6 C 5.57 g/m*3 3.6 C 3.2 km/h
2254 03-03-2020 19:45:00 3.5 C 5.53 g/m*3 1.86 C 6.4 km/h
2255 03-03-2020 19:50:00 3.4 C 5.56 g/m*3 3.4 C 4.8 km/h
2256 03-03-2020 19:55:00 3.4 C 5.56 g/m*3 3.4 C 4.8 km/h
2257 03-03-2020 20:00:00 3.4 C 5.56 g/m*3 3.4 C 3.2 km/h
2258 03-03-2020 20:05:00 3.3 C 5.52 g/m*3 3.3 C 3.2 km/h
2259 03-03-2020 20:10:00 3.2 C 5.48 g/m*3 3.2 C 1.6 km/h
2260 03-03-2020 20:15:00 3 C 5.41 g/m*3 3 C 3.2 km/h
2261 03-03-2020 20:20:00 2.9 C 5.37 g/m*3 2.9 C 1.6 km/h
2262 03-03-2020 20:25:00 2.8 C 5.34 g/m*3 2.8 C 1.6 km/h
2263 03-03-2020 20:30:00 2.8 C 5.4 g/m*3 2.8 C 4.8 km/h
2264 03-03-2020 20:35:00 2.7 C 5.36 g/m*3 2.7 C 0 km/h
2265 03-03-2020 20:40:00 2.7 C 5.36 g/m*3 2.7 C 0 km/h
2266 03-03-2020 20:45:00 2.6 C 5.32 g/m*3 2.6 C 0 km/h
2267 03-03-2020 20:50:00 2.6 C 5.38 g/m*3 2.6 C 0 km/h
2268 03-03-2020 20:55:00 2.6 C 5.38 g/m*3 2.6 C 0 km/h
2269 03-03-2020 21:00:00 2.5 C 5.35 g/m*3 2.5 C 0 km/h
2270 03-03-2020 21:05:00 2.4 C 5.31 g/m*3 2.4 C 0 km/h
2271 03-03-2020 21:10:00 2.3 C 5.27 g/m*3 2.3 C 0 km/h
2272 03-03-2020 21:15:00 2.3 C 5.27 g/m*3 2.3 C 0 km/h
2273 03-03-2020 21:20:00 2.3 C 5.27 g/m*3 2.3 C 0 km/h
2274 03-03-2020 21:25:00 2.3 C 5.27 g/m*3 2.3 C 0 km/h
2275 03-03-2020 21:30:00 2.3 C 5.33 g/m*3 2.3 C 0 km/h
Sensor: Nr:Datum:Temp:Abs-Feuchte:Windchill:Wind:
Aussen-T/F 2276 03-03-2020 21:35:00 2.3 C 5.33 g/m*3 2.3 C 0 km/h
2277 03-03-2020 21:40:00 2.3 C 5.33 g/m*3 2.3 C 0 km/h
2278 03-03-2020 21:45:00 2.3 C 5.33 g/m*3 2.3 C 0 km/h
2279 03-03-2020 21:50:00 2.4 C 5.37 g/m*3 2.4 C 0 km/h
2280 03-03-2020 21:55:00 2.4 C 5.37 g/m*3 2.4 C 0 km/h
2281 03-03-2020 22:00:00 2.4 C 5.37 g/m*3 2.4 C 0 km/h
2282 03-03-2020 22:05:00 2.4 C 5.37 g/m*3 2.4 C 0 km/h
2283 03-03-2020 22:10:00 2.4 C 5.37 g/m*3 2.4 C 0 km/h
2284 03-03-2020 22:15:00 2.4 C 5.37 g/m*3 2.4 C 0 km/h
2285 03-03-2020 22:20:00 2.4 C 5.37 g/m*3 2.4 C 0 km/h
2286 03-03-2020 22:25:00 2.4 C 5.37 g/m*3 2.4 C 0 km/h
2287 03-03-2020 22:30:00 2.4 C 5.37 g/m*3 2.4 C 0 km/h
2288 03-03-2020 22:35:00 2.3 C 5.33 g/m*3 2.3 C 0 km/h
2289 03-03-2020 22:40:00 2.3 C 5.33 g/m*3 2.3 C 0 km/h
2290 03-03-2020 22:45:00 2.3 C 5.33 g/m*3 2.3 C 0 km/h
2291 03-03-2020 22:50:00 2.2 C 5.29 g/m*3 2.2 C 0 km/h
2292 03-03-2020 22:55:00 2.2 C 5.29 g/m*3 2.2 C 0 km/h
2293 03-03-2020 23:00:00 2.2 C 5.29 g/m*3 2.2 C 0 km/h
2294 03-03-2020 23:05:00 2.2 C 5.35 g/m*3 2.2 C 4.8 km/h
2295 03-03-2020 23:10:00 2.3 C 5.39 g/m*3 2.3 C 3.2 km/h
2296 03-03-2020 23:15:00 2.4 C 5.42 g/m*3 0.59 C 6.4 km/h
2297 03-03-2020 23:20:00 2.6 C 5.5 g/m*3 0.82 C 6.4 km/h
2298 03-03-2020 23:25:00 2.8 C 5.57 g/m*3 2.8 C 3.2 km/h
2299 03-03-2020 23:30:00 2.8 C 5.57 g/m*3 2.8 C 3.2 km/h
2300 03-03-2020 23:35:00 2.9 C 5.61 g/m*3 2.9 C 4.8 km/h
Sensor: Nr:Datum:Temp:Abs-Feuchte:Windchill:Wind:
Aussen-T/F 2301 03-03-2020 23:40:00 2.9 C 5.61 g/m*3 2.9 C 3.2 km/h
2302 03-03-2020 23:45:00 3 C 5.65 g/m*3 3 C 3.2 km/h
2303 03-03-2020 23:50:00 3 C 5.65 g/m*3 3 C 3.2 km/h
2304 03-03-2020 23:55:00 3 C 5.59 g/m*3 3 C 4.8 km/h
2305 04-03-2020 00:00:00 3.1 C 5.63 g/m*3 1.4 C 6.4 km/h
2306 04-03-2020 00:05:00 3.1 C 5.63 g/m*3 3.1 C 3.2 km/h
2307 04-03-2020 00:10:00 3.2 C 5.66 g/m*3 3.2 C 1.6 km/h
2308 04-03-2020 00:15:00 3.2 C 5.66 g/m*3 3.2 C 3.2 km/h
2309 04-03-2020 00:20:00 3.2 C 5.66 g/m*3 3.2 C 3.2 km/h
2310 04-03-2020 00:25:00 3.2 C 5.66 g/m*3 3.2 C 3.2 km/h
2311 04-03-2020 00:30:00 3.2 C 5.66 g/m*3 3.2 C 3.2 km/h
2312 04-03-2020 00:35:00 3.2 C 5.66 g/m*3 3.2 C 3.2 km/h
2313 04-03-2020 00:40:00 3.2 C 5.66 g/m*3 1.51 C 6.4 km/h
2314 04-03-2020 00:45:00 3.2 C 5.6 g/m*3 3.2 C 3.2 km/h
2315 04-03-2020 00:50:00 3.2 C 5.6 g/m*3 3.2 C 3.2 km/h
2316 04-03-2020 00:55:00 3.1 C 5.57 g/m*3 3.1 C 1.6 km/h
2317 04-03-2020 01:00:00 3 C 5.53 g/m*3 3 C 1.6 km/h
2318 04-03-2020 01:05:00 2.9 C 5.49 g/m*3 1.17 C 6.4 km/h
2319 04-03-2020 01:10:00 2.9 C 5.49 g/m*3 0.64 C 8.1 km/h
2320 04-03-2020 01:15:00 3 C 5.53 g/m*3 0.76 C 8.1 km/h
2321 04-03-2020 01:20:00 3 C 5.53 g/m*3 3 C 4.8 km/h
2322 04-03-2020 01:25:00 3 C 5.53 g/m*3 -0.34 C 12.9 km/h
2323 04-03-2020 01:30:00 2.9 C 5.49 g/m*3 1.17 C 6.4 km/h
2324 04-03-2020 01:35:00 2.9 C 5.49 g/m*3 0.64 C 8.1 km/h
2325 04-03-2020 01:40:00 2.9 C 5.43 g/m*3 1.17 C 6.4 km/h
Sensor: Nr:Datum:Temp:Abs-Feuchte:Windchill:Wind:
Aussen-T/F 2326 04-03-2020 01:45:00 2.9 C 5.49 g/m*3 0.64 C 8.1 km/h
2327 04-03-2020 01:50:00 2.9 C 5.49 g/m*3 0.64 C 8.1 km/h
2328 04-03-2020 01:55:00 2.9 C 5.43 g/m*3 -0.14 C 11.3 km/h
2329 04-03-2020 02:00:00 3 C 5.47 g/m*3 0.76 C 8.1 km/h
2330 04-03-2020 02:05:00 3 C 5.47 g/m*3 0.34 C 9.7 km/h
2331 04-03-2020 02:10:00 3.1 C 5.51 g/m*3 0.1 C 11.3 km/h
2332 04-03-2020 02:15:00 3.1 C 5.51 g/m*3 0.46 C 9.7 km/h
2333 04-03-2020 02:20:00 3.2 C 5.54 g/m*3 0.99 C 8.1 km/h
2334 04-03-2020 02:25:00 3.2 C 5.54 g/m*3 0.58 C 9.7 km/h
2335 04-03-2020 02:30:00 3.2 C 5.54 g/m*3 -0.39 C 14.5 km/h
2336 04-03-2020 02:35:00 3.3 C 5.58 g/m*3 -0.26 C 14.5 km/h
2337 04-03-2020 02:40:00 3.4 C 5.62 g/m*3 0.82 C 9.7 km/h
2338 04-03-2020 02:45:00 3.5 C 5.66 g/m*3 0.94 C 9.7 km/h
2339 04-03-2020 02:50:00 3.7 C 5.67 g/m*3 1.58 C 8.1 km/h
2340 04-03-2020 02:55:00 3.8 C 5.71 g/m*3 2.21 C 6.4 km/h
2341 04-03-2020 03:00:00 3.8 C 5.71 g/m*3 0.94 C 11.3 km/h
2342 04-03-2020 03:05:00 3.8 C 5.71 g/m*3 1.7 C 8.1 km/h
2343 04-03-2020 03:10:00 3.9 C 5.68 g/m*3 3.9 C 4.8 km/h
2344 04-03-2020 03:15:00 3.9 C 5.68 g/m*3 3.9 C 3.2 km/h
2345 04-03-2020 03:20:00 3.8 C 5.65 g/m*3 2.21 C 6.4 km/h
2346 04-03-2020 03:25:00 3.9 C 5.68 g/m*3 1.41 C 9.7 km/h
2347 04-03-2020 03:30:00 3.9 C 5.68 g/m*3 3.9 C 3.2 km/h
2348 04-03-2020 03:35:00 3.9 C 5.68 g/m*3 3.9 C 0 km/h
2349 04-03-2020 03:40:00 3.8 C 5.65 g/m*3 3.8 C 0 km/h
2350 04-03-2020 03:45:00 3.8 C 5.65 g/m*3 3.8 C 0 km/h
Sensor: Nr:Datum:Temp:Abs-Feuchte:Windchill:Wind:
Aussen-T/F 2351 04-03-2020 03:50:00 3.8 C 5.65 g/m*3 3.8 C 0 km/h
2352 04-03-2020 03:55:00 3.6 C 5.57 g/m*3 3.6 C 3.2 km/h
2353 04-03-2020 04:00:00 3.6 C 5.57 g/m*3 3.6 C 3.2 km/h
2354 04-03-2020 04:05:00 3.6 C 5.63 g/m*3 1.06 C 9.7 km/h
2355 04-03-2020 04:10:00 3.7 C 5.67 g/m*3 2.09 C 6.4 km/h
2356 04-03-2020 04:15:00 3.8 C 5.71 g/m*3 0.94 C 11.3 km/h
2357 04-03-2020 04:20:00 3.9 C 5.75 g/m*3 1.41 C 9.7 km/h
2358 04-03-2020 04:25:00 3.9 C 5.68 g/m*3 0.75 C 12.9 km/h
2359 04-03-2020 04:30:00 4.1 C 5.76 g/m*3 1.65 C 9.7 km/h
2360 04-03-2020 04:35:00 4.1 C 5.76 g/m*3 1 C 12.9 km/h
2361 04-03-2020 04:40:00 4.2 C 5.8 g/m*3 2.17 C 8.1 km/h
2362 04-03-2020 04:45:00 4.2 C 5.8 g/m*3 2.17 C 8.1 km/h
2363 04-03-2020 04:50:00 4.2 C 5.8 g/m*3 1.77 C 9.7 km/h
2364 04-03-2020 04:55:00 4.2 C 5.8 g/m*3 1.43 C 11.3 km/h
2365 04-03-2020 05:00:00 4.2 C 5.8 g/m*3 2.67 C 6.4 km/h
2366 04-03-2020 05:05:00 4.2 C 5.8 g/m*3 2.67 C 6.4 km/h
2367 04-03-2020 05:10:00 4.2 C 5.8 g/m*3 2.17 C 8.1 km/h
2368 04-03-2020 05:15:00 4.2 C 5.86 g/m*3 1.77 C 9.7 km/h
2369 04-03-2020 05:20:00 4.2 C 5.86 g/m*3 1.77 C 9.7 km/h
2370 04-03-2020 05:25:00 4.1 C 5.89 g/m*3 1.31 C 11.3 km/h
2371 04-03-2020 05:30:00 4.1 C 5.89 g/m*3 2.55 C 6.4 km/h
2372 04-03-2020 05:35:00 4.1 C 5.89 g/m*3 1 C 12.9 km/h
2373 04-03-2020 05:40:00 4 C 5.85 g/m*3 1.93 C 8.1 km/h
2374 04-03-2020 05:45:00 4 C 5.91 g/m*3 1.18 C 11.3 km/h
2375 04-03-2020 05:50:00 4 C 5.91 g/m*3 1.18 C 11.3 km/h
Sensor: Nr:Datum:Temp:Abs-Feuchte:Windchill:Wind:
Aussen-T/F 2376 04-03-2020 05:55:00 4 C 5.91 g/m*3 1.18 C 11.3 km/h
2377 04-03-2020 06:00:00 4 C 5.91 g/m*3 1.18 C 11.3 km/h
2378 04-03-2020 06:05:00 4 C 5.91 g/m*3 1.53 C 9.7 km/h
2379 04-03-2020 06:10:00 4.1 C 5.95 g/m*3 2.55 C 6.4 km/h
2380 04-03-2020 06:15:00 4.1 C 5.95 g/m*3 2.05 C 8.1 km/h
2381 04-03-2020 06:20:00 4.1 C 5.95 g/m*3 2.05 C 8.1 km/h
2382 04-03-2020 06:25:00 4.1 C 5.95 g/m*3 1.31 C 11.3 km/h
2383 04-03-2020 06:30:00 4.1 C 5.95 g/m*3 2.05 C 8.1 km/h
2384 04-03-2020 06:35:00 4.1 C 5.95 g/m*3 1 C 12.9 km/h
2385 04-03-2020 06:40:00 4.2 C 5.99 g/m*3 1.77 C 9.7 km/h
2386 04-03-2020 06:45:00 4.2 C 5.93 g/m*3 1.77 C 9.7 km/h
2387 04-03-2020 06:50:00 4.3 C 5.97 g/m*3 0.72 C 16.1 km/h
2388 04-03-2020 06:55:00 4.3 C 5.97 g/m*3 1.55 C 11.3 km/h
2389 04-03-2020 07:00:00 4.3 C 5.97 g/m*3 1.89 C 9.7 km/h
2390 04-03-2020 07:05:00 4.3 C 5.97 g/m*3 1.89 C 9.7 km/h
2391 04-03-2020 07:10:00 4.3 C 5.97 g/m*3 2.78 C 6.4 km/h
2392 04-03-2020 07:15:00 4.3 C 5.97 g/m*3 1.89 C 9.7 km/h
2393 04-03-2020 07:20:00 4.3 C 5.97 g/m*3 1.55 C 11.3 km/h
2394 04-03-2020 07:25:00 4.4 C 6.01 g/m*3 2.4 C 8.1 km/h
2395 04-03-2020 07:30:00 4.4 C 6.01 g/m*3 1.09 C 14.5 km/h
2396 04-03-2020 07:35:00 4.5 C 5.98 g/m*3 2.13 C 9.7 km/h
2397 04-03-2020 07:40:00 4.5 C 5.98 g/m*3 1.79 C 11.3 km/h
2398 04-03-2020 07:45:00 4.6 C 6.02 g/m*3 1.61 C 12.9 km/h
2399 04-03-2020 07:50:00 4.6 C 6.02 g/m*3 2.64 C 8.1 km/h
2400 04-03-2020 07:55:00 4.6 C 6.02 g/m*3 3.13 C 6.4 km/h
Sensor: Nr:Datum:Temp:Abs-Feuchte:Windchill:Wind:
Aussen-T/F 2401 04-03-2020 08:00:00 4.5 C 5.98 g/m*3 2.52 C 8.1 km/h
2402 04-03-2020 08:05:00 4.4 C 5.94 g/m*3 2.9 C 6.4 km/h
2403 04-03-2020 08:10:00 4.3 C 5.9 g/m*3 1.89 C 9.7 km/h
2404 04-03-2020 08:15:00 4.3 C 5.9 g/m*3 2.78 C 6.4 km/h
2405 04-03-2020 08:20:00 4.3 C 5.9 g/m*3 4.3 C 4.8 km/h
2406 04-03-2020 08:25:00 4.3 C 5.9 g/m*3 1.89 C 9.7 km/h
2407 04-03-2020 08:30:00 4.4 C 5.94 g/m*3 2.9 C 6.4 km/h
2408 04-03-2020 08:35:00 4.4 C 5.94 g/m*3 2.4 C 8.1 km/h
2409 04-03-2020 08:40:00 4.4 C 5.94 g/m*3 2.4 C 8.1 km/h
2410 04-03-2020 08:45:00 4.4 C 5.94 g/m*3 1.67 C 11.3 km/h
2411 04-03-2020 08:50:00 4.5 C 5.98 g/m*3 1.48 C 12.9 km/h
2412 04-03-2020 08:55:00 4.5 C 5.98 g/m*3 3.02 C 6.4 km/h
2413 04-03-2020 09:00:00 4.5 C 5.98 g/m*3 3.02 C 6.4 km/h
2414 04-03-2020 09:05:00 4.6 C 6.02 g/m*3 2.25 C 9.7 km/h
2415 04-03-2020 09:10:00 4.7 C 6.06 g/m*3 3.25 C 6.4 km/h
2416 04-03-2020 09:15:00 4.7 C 6 g/m*3 2.37 C 9.7 km/h
2417 04-03-2020 09:20:00 4.8 C 6.04 g/m*3 1.85 C 12.9 km/h
2418 04-03-2020 09:25:00 4.9 C 6.08 g/m*3 1.97 C 12.9 km/h
2419 04-03-2020 09:30:00 5.1 C 6.09 g/m*3 2.22 C 12.9 km/h
2420 04-03-2020 09:35:00 5.1 C 6.09 g/m*3 2.22 C 12.9 km/h
2421 04-03-2020 09:40:00 5.2 C 6.06 g/m*3 2.34 C 12.9 km/h
2422 04-03-2020 09:45:00 5.3 C 6.1 g/m*3 1.16 C 22.5 km/h
2423 04-03-2020 09:50:00 5.5 C 6.18 g/m*3 1.42 C 22.5 km/h
2424 04-03-2020 09:55:00 5.7 C 6.19 g/m*3 2.69 C 14.5 km/h
2425 04-03-2020 10:00:00 5.8 C 6.16 g/m*3 2.58 C 16.1 km/h
Sensor: Nr:Datum:Temp:Abs-Feuchte:Windchill:Wind:
Aussen-T/F 2426 04-03-2020 10:05:00 5.9 C 6.2 g/m*3 2.93 C 14.5 km/h
2427 04-03-2020 10:10:00 6 C 6.24 g/m*3 2.41 C 19.3 km/h
2428 04-03-2020 10:15:00 6.1 C 6.21 g/m*3 2.73 C 17.7 km/h
2429 04-03-2020 10:20:00 6.2 C 6.25 g/m*3 3.3 C 14.5 km/h
2430 04-03-2020 10:25:00 6.2 C 6.25 g/m*3 2.86 C 17.7 km/h
2431 04-03-2020 10:30:00 6.3 C 6.22 g/m*3 3.43 C 14.5 km/h
2432 04-03-2020 10:35:00 6.5 C 6.3 g/m*3 4.51 C 9.7 km/h
2433 04-03-2020 10:40:00 6.6 C 6.27 g/m*3 2.99 C 20.9 km/h
2434 04-03-2020 10:45:00 6.7 C 6.31 g/m*3 3.69 C 16.1 km/h
2435 04-03-2020 10:50:00 6.7 C 6.31 g/m*3 4.17 C 12.9 km/h
2436 04-03-2020 10:55:00 6.7 C 6.31 g/m*3 3.69 C 16.1 km/h
2437 04-03-2020 11:00:00 6.8 C 6.35 g/m*3 4.04 C 14.5 km/h
2438 04-03-2020 11:05:00 6.9 C 6.31 g/m*3 3.73 C 17.7 km/h
2439 04-03-2020 11:10:00 7.1 C 6.4 g/m*3 3.8 C 19.3 km/h
2440 04-03-2020 11:15:00 7.2 C 6.44 g/m*3 5.04 C 11.3 km/h
2441 04-03-2020 11:20:00 7.4 C 6.44 g/m*3 4.36 C 17.7 km/h
2442 04-03-2020 11:25:00 7.5 C 6.4 g/m*3 4.48 C 17.7 km/h
2443 04-03-2020 11:30:00 7.6 C 6.44 g/m*3 5.02 C 14.5 km/h
2444 04-03-2020 11:35:00 7.6 C 6.44 g/m*3 4.61 C 17.7 km/h
2445 04-03-2020 11:40:00 7.7 C 6.41 g/m*3 5.94 C 9.7 km/h
2446 04-03-2020 11:45:00 7.8 C 6.45 g/m*3 5.51 C 12.9 km/h
2447 04-03-2020 11:50:00 8 C 6.45 g/m*3 5.75 C 12.9 km/h
2448 04-03-2020 11:55:00 8.1 C 6.49 g/m*3 6.42 C 9.7 km/h
2449 04-03-2020 12:00:00 8.2 C 6.45 g/m*3 5.55 C 16.1 km/h
2450 04-03-2020 12:05:00 8.3 C 6.49 g/m*3 5.89 C 14.5 km/h
Sensor: Nr:Datum:Temp:Abs-Feuchte:Windchill:Wind:
Aussen-T/F 2451 04-03-2020 12:10:00 8.4 C 6.53 g/m*3 6.78 C 9.7 km/h
2452 04-03-2020 12:15:00 8.6 C 6.62 g/m*3 6.05 C 16.1 km/h
2453 04-03-2020 12:20:00 8.8 C 6.7 g/m*3 7.25 C 9.7 km/h
2454 04-03-2020 12:25:00 9 C 6.61 g/m*3 7.81 C 8.1 km/h
2455 04-03-2020 12:30:00 9.1 C 6.57 g/m*3 6.48 C 17.7 km/h
2456 04-03-2020 12:35:00 9.2 C 6.7 g/m*3 6.79 C 16.1 km/h
2457 04-03-2020 12:40:00 9.2 C 6.61 g/m*3 7.73 C 9.7 km/h
2458 04-03-2020 12:45:00 9.3 C 6.56 g/m*3 6.92 C 16.1 km/h
2459 04-03-2020 12:50:00 9.3 C 6.56 g/m*3 7.12 C 14.5 km/h
2460 04-03-2020 12:55:00 9.3 C 6.56 g/m*3 6.56 C 19.3 km/h
2461 04-03-2020 13:00:00 9.2 C 6.52 g/m*3 6.79 C 16.1 km/h
2462 04-03-2020 13:05:00 9.1 C 6.48 g/m*3 7.09 C 12.9 km/h
2463 04-03-2020 13:10:00 9.1 C 6.48 g/m*3 6.67 C 16.1 km/h
2464 04-03-2020 13:15:00 9.1 C 6.48 g/m*3 6.67 C 16.1 km/h
2465 04-03-2020 13:20:00 9.1 C 6.48 g/m*3 6.31 C 19.3 km/h
2466 04-03-2020 13:25:00 9.2 C 6.52 g/m*3 7.21 C 12.9 km/h
2467 04-03-2020 13:30:00 9.3 C 6.56 g/m*3 7.12 C 14.5 km/h
2468 04-03-2020 13:35:00 9.2 C 6.52 g/m*3 6.61 C 17.7 km/h
2469 04-03-2020 13:40:00 9.1 C 6.39 g/m*3 6.31 C 19.3 km/h
2470 04-03-2020 13:45:00 8.8 C 6.27 g/m*3 6.11 C 17.7 km/h
2471 04-03-2020 13:50:00 8.9 C 6.39 g/m*3 6.62 C 14.5 km/h
2472 04-03-2020 13:55:00 9.2 C 6.43 g/m*3 7.21 C 12.9 km/h
2473 04-03-2020 14:00:00 9.4 C 6.42 g/m*3 6.38 C 22.5 km/h
2474 04-03-2020 14:05:00 9.6 C 6.41 g/m*3 6.94 C 19.3 km/h
2475 04-03-2020 14:10:00 9.7 C 6.55 g/m*3 7.41 C 16.1 km/h
Sensor: Nr:Datum:Temp:Abs-Feuchte:Windchill:Wind:
Aussen-T/F 2476 04-03-2020 14:15:00 9.8 C 6.49 g/m*3 7.19 C 19.3 km/h
2477 04-03-2020 14:20:00 9.8 C 6.4 g/m*3 7.04 C 20.9 km/h
2478 04-03-2020 14:25:00 9.8 C 6.49 g/m*3 7.54 C 16.1 km/h
2479 04-03-2020 14:30:00 9.8 C 6.4 g/m*3 7.36 C 17.7 km/h
2480 04-03-2020 14:35:00 9.7 C 6.27 g/m*3 7.23 C 17.7 km/h
2481 04-03-2020 14:40:00 9.6 C 6.5 g/m*3 7.48 C 14.5 km/h
2482 04-03-2020 14:45:00 9.5 C 6.46 g/m*3 7.16 C 16.1 km/h
2483 04-03-2020 14:50:00 9.3 C 6.47 g/m*3 6.26 C 22.5 km/h
2484 04-03-2020 14:55:00 9.1 C 6.48 g/m*3 6.48 C 17.7 km/h
2485 04-03-2020 15:00:00 9 C 6.44 g/m*3 6.36 C 17.7 km/h
2486 04-03-2020 15:05:00 9 C 6.52 g/m*3 7.49 C 9.7 km/h
2487 04-03-2020 15:10:00 9.1 C 6.57 g/m*3 7.33 C 11.3 km/h
2488 04-03-2020 15:15:00 9.2 C 6.52 g/m*3 7.21 C 12.9 km/h
2489 04-03-2020 15:20:00 9.1 C 6.39 g/m*3 6 C 22.5 km/h
2490 04-03-2020 15:25:00 9.2 C 6.52 g/m*3 6.13 C 22.5 km/h
2491 04-03-2020 15:30:00 9.2 C 6.34 g/m*3 6.13 C 22.5 km/h
2492 04-03-2020 15:35:00 9.1 C 6.48 g/m*3 6.48 C 17.7 km/h
2493 04-03-2020 15:40:00 9.1 C 6.57 g/m*3 6.48 C 17.7 km/h
2494 04-03-2020 15:45:00 9.2 C 6.61 g/m*3 6.99 C 14.5 km/h
2495 04-03-2020 15:50:00 9.2 C 6.61 g/m*3 6.13 C 22.5 km/h
2496 04-03-2020 15:55:00 9.2 C 6.61 g/m*3 6.99 C 14.5 km/h
2497 04-03-2020 16:00:00 9.2 C 6.61 g/m*3 6.13 C 22.5 km/h
2498 04-03-2020 16:05:00 9.2 C 6.52 g/m*3 6.61 C 17.7 km/h
2499 04-03-2020 16:10:00 9.2 C 6.52 g/m*3 6.61 C 17.7 km/h
2500 04-03-2020 16:15:00 9.1 C 6.48 g/m*3 6.31 C 19.3 km/h
Sensor: Nr:Datum:Temp:Abs-Feuchte:Windchill:Wind:
Aussen-T/F 2501 04-03-2020 16:20:00 9.2 C 6.52 g/m*3 6.99 C 14.5 km/h
2502 04-03-2020 16:25:00 9.1 C 6.39 g/m*3 6.87 C 14.5 km/h
2503 04-03-2020 16:30:00 8.9 C 6.31 g/m*3 6.42 C 16.1 km/h
2504 04-03-2020 16:35:00 8.8 C 6.35 g/m*3 7.25 C 9.7 km/h
2505 04-03-2020 16:40:00 8.8 C 6.35 g/m*3 6.97 C 11.3 km/h
2506 04-03-2020 16:45:00 8.9 C 6.31 g/m*3 7.09 C 11.3 km/h
2507 04-03-2020 16:50:00 9 C 6.35 g/m*3 7.49 C 9.7 km/h
2508 04-03-2020 16:55:00 9 C 6.26 g/m*3 6.75 C 14.5 km/h
2509 04-03-2020 17:00:00 9.1 C 6.3 g/m*3 7.61 C 9.7 km/h
2510 04-03-2020 17:05:00 9.1 C 6.3 g/m*3 7.33 C 11.3 km/h
2511 04-03-2020 17:10:00 9.1 C 6.3 g/m*3 7.09 C 12.9 km/h
2512 04-03-2020 17:15:00 9.2 C 6.43 g/m*3 7.73 C 9.7 km/h
2513 04-03-2020 17:20:00 9.2 C 6.34 g/m*3 7.21 C 12.9 km/h
2514 04-03-2020 17:25:00 8.9 C 6.13 g/m*3 6.62 C 14.5 km/h
2515 04-03-2020 17:30:00 8.7 C 6.23 g/m*3 8.7 C 4.8 km/h
2516 04-03-2020 17:35:00 8.6 C 6.27 g/m*3 8.6 C 1.6 km/h
2517 04-03-2020 17:40:00 8.4 C 6.28 g/m*3 8.4 C 1.6 km/h
2518 04-03-2020 17:45:00 8.3 C 6.32 g/m*3 8.3 C 1.6 km/h
2519 04-03-2020 17:50:00 8.1 C 6.32 g/m*3 8.1 C 3.2 km/h
2520 04-03-2020 17:55:00 7.7 C 6.24 g/m*3 7.7 C 4.8 km/h
2521 04-03-2020 18:00:00 7.3 C 6.16 g/m*3 7.3 C 4.8 km/h
2522 04-03-2020 18:05:00 6.9 C 6.16 g/m*3 6.9 C 4.8 km/h
2523 04-03-2020 18:10:00 6.6 C 6.11 g/m*3 6.6 C 4.8 km/h
2524 04-03-2020 18:15:00 6.2 C 6.03 g/m*3 6.2 C 4.8 km/h
2525 04-03-2020 18:20:00 5.9 C 5.98 g/m*3 5.9 C 4.8 km/h
Sensor: Nr:Datum:Temp:Abs-Feuchte:Windchill:Wind:
Aussen-T/F 2526 04-03-2020 18:25:00 5.7 C 5.98 g/m*3 5.7 C 4.8 km/h
2527 04-03-2020 18:30:00 5.5 C 5.9 g/m*3 5.5 C 4.8 km/h
2528 04-03-2020 18:35:00 5.3 C 5.89 g/m*3 5.3 C 4.8 km/h
2529 04-03-2020 18:40:00 5.1 C 5.88 g/m*3 5.1 C 4.8 km/h
2530 04-03-2020 18:45:00 4.9 C 5.81 g/m*3 4.9 C 4.8 km/h
2531 04-03-2020 18:50:00 4.8 C 5.83 g/m*3 4.8 C 4.8 km/h
2532 04-03-2020 18:55:00 4.6 C 5.76 g/m*3 4.6 C 4.8 km/h
2533 04-03-2020 19:00:00 4.5 C 5.72 g/m*3 4.5 C 4.8 km/h
2534 04-03-2020 19:05:00 4.3 C 5.71 g/m*3 4.3 C 4.8 km/h
2535 04-03-2020 19:10:00 4.3 C 5.71 g/m*3 4.3 C 4.8 km/h
2536 04-03-2020 19:15:00 4.2 C 5.73 g/m*3 4.2 C 4.8 km/h
2537 04-03-2020 19:20:00 4.2 C 5.73 g/m*3 4.2 C 4.8 km/h
2538 04-03-2020 19:25:00 4.2 C 5.8 g/m*3 4.2 C 4.8 km/h
2539 04-03-2020 19:30:00 4.2 C 5.8 g/m*3 4.2 C 4.8 km/h
2540 04-03-2020 19:35:00 4.2 C 5.8 g/m*3 4.2 C 4.8 km/h
2541 04-03-2020 19:40:00 4.2 C 5.8 g/m*3 4.2 C 4.8 km/h
2542 04-03-2020 19:45:00 4.2 C 5.8 g/m*3 4.2 C 4.8 km/h
2543 04-03-2020 19:50:00 4.2 C 5.8 g/m*3 4.2 C 4.8 km/h
2544 04-03-2020 19:55:00 4.2 C 5.8 g/m*3 4.2 C 4.8 km/h
2545 04-03-2020 20:00:00 4.2 C 5.8 g/m*3 4.2 C 0 km/h
2546 04-03-2020 20:05:00 4.1 C 5.82 g/m*3 4.1 C 3.2 km/h
2547 04-03-2020 20:10:00 4.1 C 5.82 g/m*3 4.1 C 1.6 km/h
2548 04-03-2020 20:15:00 4.1 C 5.82 g/m*3 4.1 C 3.2 km/h
2549 04-03-2020 20:20:00 4.1 C 5.82 g/m*3 4.1 C 1.6 km/h
2550 04-03-2020 20:25:00 4.1 C 5.82 g/m*3 4.1 C 4.8 km/h
Sensor: Nr:Datum:Temp:Abs-Feuchte:Windchill:Wind:
Aussen-T/F 2551 04-03-2020 20:30:00 4 C 5.79 g/m*3 4 C 1.6 km/h
2552 04-03-2020 20:35:00 3.9 C 5.75 g/m*3 3.9 C 3.2 km/h
2553 04-03-2020 20:40:00 3.8 C 5.71 g/m*3 3.8 C 4.8 km/h
2554 04-03-2020 20:45:00 3.7 C 5.67 g/m*3 3.7 C 4.8 km/h
2555 04-03-2020 20:50:00 3.7 C 5.67 g/m*3 3.7 C 3.2 km/h
2556 04-03-2020 20:55:00 3.6 C 5.63 g/m*3 3.6 C 1.6 km/h
2557 04-03-2020 21:00:00 3.4 C 5.56 g/m*3 3.4 C 0 km/h
2558 04-03-2020 21:05:00 3.4 C 5.56 g/m*3 3.4 C 4.8 km/h
2559 04-03-2020 21:10:00 3.3 C 5.58 g/m*3 3.3 C 4.8 km/h
2560 04-03-2020 21:15:00 3.3 C 5.58 g/m*3 3.3 C 3.2 km/h
2561 04-03-2020 21:20:00 3.2 C 5.54 g/m*3 3.2 C 3.2 km/h
2562 04-03-2020 21:25:00 3.2 C 5.54 g/m*3 3.2 C 3.2 km/h
2563 04-03-2020 21:30:00 3.3 C 5.64 g/m*3 3.3 C 4.8 km/h
2564 04-03-2020 21:35:00 3.3 C 5.64 g/m*3 3.3 C 3.2 km/h
2565 04-03-2020 21:40:00 3.4 C 5.68 g/m*3 3.4 C 4.8 km/h
2566 04-03-2020 21:45:00 3.4 C 5.68 g/m*3 3.4 C 3.2 km/h
2567 04-03-2020 21:50:00 3.4 C 5.68 g/m*3 3.4 C 4.8 km/h
2568 04-03-2020 21:55:00 3.6 C 5.76 g/m*3 3.6 C 4.8 km/h
2569 04-03-2020 22:00:00 3.6 C 5.76 g/m*3 3.6 C 3.2 km/h
2570 04-03-2020 22:05:00 3.5 C 5.72 g/m*3 3.5 C 0 km/h
2571 04-03-2020 22:10:00 3.4 C 5.62 g/m*3 3.4 C 0 km/h
2572 04-03-2020 22:15:00 3.3 C 5.58 g/m*3 3.3 C 0 km/h
2573 04-03-2020 22:20:00 3.3 C 5.64 g/m*3 3.3 C 0 km/h
2574 04-03-2020 22:25:00 3.2 C 5.6 g/m*3 3.2 C 0 km/h
2575 04-03-2020 22:30:00 3.2 C 5.6 g/m*3 3.2 C 1.6 km/h
Sensor: Nr:Datum:Temp:Abs-Feuchte:Windchill:Wind:
Aussen-T/F 2576 04-03-2020 22:35:00 3.2 C 5.6 g/m*3 3.2 C 0 km/h
2577 04-03-2020 22:40:00 3.2 C 5.6 g/m*3 3.2 C 0 km/h
2578 04-03-2020 22:45:00 3.2 C 5.66 g/m*3 3.2 C 0 km/h
2579 04-03-2020 22:50:00 3.3 C 5.7 g/m*3 3.3 C 0 km/h
2580 04-03-2020 22:55:00 3.4 C 5.74 g/m*3 3.4 C 0 km/h
2581 04-03-2020 23:00:00 3.5 C 5.78 g/m*3 3.5 C 1.6 km/h
2582 04-03-2020 23:05:00 3.6 C 5.82 g/m*3 3.6 C 3.2 km/h
2583 04-03-2020 23:10:00 3.6 C 5.82 g/m*3 3.6 C 0 km/h
2584 04-03-2020 23:15:00 3.7 C 5.86 g/m*3 3.7 C 0 km/h
2585 04-03-2020 23:20:00 3.7 C 5.86 g/m*3 3.7 C 0 km/h
2586 04-03-2020 23:25:00 3.8 C 5.9 g/m*3 3.8 C 0 km/h
2587 04-03-2020 23:30:00 3.8 C 5.9 g/m*3 3.8 C 0 km/h
2588 04-03-2020 23:35:00 3.8 C 5.9 g/m*3 3.8 C 0 km/h
2589 04-03-2020 23:40:00 3.9 C 5.94 g/m*3 3.9 C 0 km/h
2590 04-03-2020 23:45:00 4.1 C 6.02 g/m*3 4.1 C 0 km/h
2591 04-03-2020 23:50:00 4.1 C 6.02 g/m*3 4.1 C 0 km/h
2592 04-03-2020 23:55:00 4.2 C 6.06 g/m*3 4.2 C 0 km/h
2593 05-03-2020 00:00:00 4.2 C 6.06 g/m*3 4.2 C 0 km/h
2594 05-03-2020 00:05:00 4.2 C 6.06 g/m*3 4.2 C 0 km/h
2595 05-03-2020 00:10:00 4.3 C 6.1 g/m*3 4.3 C 0 km/h
2596 05-03-2020 00:15:00 4.3 C 6.1 g/m*3 4.3 C 0 km/h
2597 05-03-2020 00:20:00 4.3 C 6.1 g/m*3 4.3 C 0 km/h
2598 05-03-2020 00:25:00 4.3 C 6.1 g/m*3 4.3 C 0 km/h
2599 05-03-2020 00:30:00 4.4 C 6.2 g/m*3 4.4 C 0 km/h
2600 05-03-2020 00:35:00 4.5 C 6.24 g/m*3 4.5 C 4.8 km/h
Sensor: Nr:Datum:Temp:Abs-Feuchte:Windchill:Wind:
Aussen-T/F 2601 05-03-2020 00:40:00 4.6 C 6.29 g/m*3 4.6 C 3.2 km/h
2602 05-03-2020 00:45:00 4.6 C 6.29 g/m*3 4.6 C 0 km/h
2603 05-03-2020 00:50:00 4.6 C 6.29 g/m*3 4.6 C 0 km/h
2604 05-03-2020 00:55:00 4.5 C 6.24 g/m*3 4.5 C 0 km/h
2605 05-03-2020 01:00:00 4.4 C 6.14 g/m*3 4.4 C 0 km/h
2606 05-03-2020 01:05:00 4.3 C 6.1 g/m*3 4.3 C 0 km/h
2607 05-03-2020 01:10:00 4.3 C 6.1 g/m*3 4.3 C 0 km/h
2608 05-03-2020 01:15:00 4.3 C 6.16 g/m*3 4.3 C 0 km/h
2609 05-03-2020 01:20:00 4.3 C 6.16 g/m*3 4.3 C 0 km/h
2610 05-03-2020 01:25:00 4.3 C 6.16 g/m*3 4.3 C 0 km/h
2611 05-03-2020 01:30:00 4.3 C 6.16 g/m*3 4.3 C 0 km/h
2612 05-03-2020 01:35:00 4.2 C 6.12 g/m*3 4.2 C 1.6 km/h
2613 05-03-2020 01:40:00 4.2 C 6.12 g/m*3 4.2 C 1.6 km/h
2614 05-03-2020 01:45:00 4.3 C 6.16 g/m*3 4.3 C 0 km/h
2615 05-03-2020 01:50:00 4.3 C 6.16 g/m*3 4.3 C 3.2 km/h
2616 05-03-2020 01:55:00 4.3 C 6.16 g/m*3 4.3 C 3.2 km/h
2617 05-03-2020 02:00:00 4.3 C 6.16 g/m*3 4.3 C 4.8 km/h
2618 05-03-2020 02:05:00 4.4 C 6.2 g/m*3 4.4 C 0 km/h
2619 05-03-2020 02:10:00 4.4 C 6.2 g/m*3 4.4 C 3.2 km/h
2620 05-03-2020 02:15:00 4.4 C 6.14 g/m*3 2.9 C 6.4 km/h
2621 05-03-2020 02:20:00 4.5 C 6.18 g/m*3 4.5 C 3.2 km/h
2622 05-03-2020 02:25:00 4.5 C 6.18 g/m*3 4.5 C 0 km/h
2623 05-03-2020 02:30:00 4.5 C 6.18 g/m*3 4.5 C 3.2 km/h
2624 05-03-2020 02:35:00 4.6 C 6.22 g/m*3 4.6 C 4.8 km/h
2625 05-03-2020 02:40:00 4.6 C 6.22 g/m*3 4.6 C 3.2 km/h
Sensor: Nr:Datum:Temp:Abs-Feuchte:Windchill:Wind:
Aussen-T/F 2626 05-03-2020 02:45:00 4.6 C 6.22 g/m*3 4.6 C 1.6 km/h
2627 05-03-2020 02:50:00 4.7 C 6.19 g/m*3 2.37 C 9.7 km/h
2628 05-03-2020 02:55:00 4.7 C 6.19 g/m*3 4.7 C 1.6 km/h
2629 05-03-2020 03:00:00 4.8 C 6.17 g/m*3 4.8 C 4.8 km/h
2630 05-03-2020 03:05:00 4.8 C 6.17 g/m*3 4.8 C 1.6 km/h
2631 05-03-2020 03:10:00 4.8 C 6.17 g/m*3 4.8 C 3.2 km/h
2632 05-03-2020 03:15:00 4.8 C 6.17 g/m*3 4.8 C 1.6 km/h
2633 05-03-2020 03:20:00 4.8 C 6.17 g/m*3 4.8 C 3.2 km/h
2634 05-03-2020 03:25:00 4.9 C 6.21 g/m*3 4.9 C 4.8 km/h
2635 05-03-2020 03:30:00 4.9 C 6.21 g/m*3 4.9 C 3.2 km/h
2636 05-03-2020 03:35:00 4.9 C 6.14 g/m*3 4.9 C 4.8 km/h
2637 05-03-2020 03:40:00 4.9 C 6.14 g/m*3 4.9 C 3.2 km/h
2638 05-03-2020 03:45:00 4.9 C 6.14 g/m*3 4.9 C 0 km/h
2639 05-03-2020 03:50:00 4.9 C 6.14 g/m*3 4.9 C 1.6 km/h
2640 05-03-2020 03:55:00 4.9 C 6.14 g/m*3 4.9 C 3.2 km/h
2641 05-03-2020 04:00:00 4.9 C 6.14 g/m*3 4.9 C 1.6 km/h
2642 05-03-2020 04:05:00 4.9 C 6.14 g/m*3 4.9 C 3.2 km/h
2643 05-03-2020 04:10:00 4.9 C 6.21 g/m*3 4.9 C 3.2 km/h
2644 05-03-2020 04:15:00 4.9 C 6.21 g/m*3 4.9 C 4.8 km/h
2645 05-03-2020 04:20:00 4.9 C 6.21 g/m*3 2.99 C 8.1 km/h
2646 05-03-2020 04:25:00 4.9 C 6.14 g/m*3 4.9 C 3.2 km/h
2647 05-03-2020 04:30:00 4.9 C 6.14 g/m*3 4.9 C 4.8 km/h
2648 05-03-2020 04:35:00 5 C 6.18 g/m*3 5 C 4.8 km/h
2649 05-03-2020 04:40:00 5 C 6.18 g/m*3 5 C 4.8 km/h
2650 05-03-2020 04:45:00 5 C 6.18 g/m*3 3.11 C 8.1 km/h
Sensor: Nr:Datum:Temp:Abs-Feuchte:Windchill:Wind:
Aussen-T/F 2651 05-03-2020 04:50:00 5 C 6.18 g/m*3 3.59 C 6.4 km/h
2652 05-03-2020 04:55:00 5 C 6.18 g/m*3 5 C 1.6 km/h
2653 05-03-2020 05:00:00 5 C 6.18 g/m*3 5 C 4.8 km/h
2654 05-03-2020 05:05:00 5 C 6.18 g/m*3 5 C 1.6 km/h
2655 05-03-2020 05:10:00 5 C 6.18 g/m*3 5 C 3.2 km/h
2656 05-03-2020 05:15:00 4.9 C 6.14 g/m*3 4.9 C 1.6 km/h
2657 05-03-2020 05:20:00 4.9 C 6.14 g/m*3 4.9 C 4.8 km/h
2658 05-03-2020 05:25:00 4.9 C 6.14 g/m*3 4.9 C 1.6 km/h
2659 05-03-2020 05:30:00 4.9 C 6.14 g/m*3 4.9 C 4.8 km/h
2660 05-03-2020 05:35:00 4.9 C 6.21 g/m*3 4.9 C 3.2 km/h
2661 05-03-2020 05:40:00 4.9 C 6.21 g/m*3 4.9 C 4.8 km/h
2662 05-03-2020 05:45:00 4.9 C 6.21 g/m*3 4.9 C 1.6 km/h
2663 05-03-2020 05:50:00 4.9 C 6.21 g/m*3 4.9 C 3.2 km/h
2664 05-03-2020 05:55:00 4.9 C 6.21 g/m*3 4.9 C 3.2 km/h
2665 05-03-2020 06:00:00 4.9 C 6.21 g/m*3 4.9 C 3.2 km/h
2666 05-03-2020 06:05:00 4.9 C 6.21 g/m*3 4.9 C 1.6 km/h
2667 05-03-2020 06:10:00 4.9 C 6.14 g/m*3 3.48 C 6.4 km/h
2668 05-03-2020 06:15:00 4.9 C 6.14 g/m*3 4.9 C 3.2 km/h
2669 05-03-2020 06:20:00 5 C 6.18 g/m*3 3.11 C 8.1 km/h
2670 05-03-2020 06:25:00 5 C 6.18 g/m*3 5 C 3.2 km/h
2671 05-03-2020 06:30:00 5.1 C 6.22 g/m*3 3.71 C 6.4 km/h
2672 05-03-2020 06:35:00 5.1 C 6.22 g/m*3 3.71 C 6.4 km/h
2673 05-03-2020 06:40:00 5.1 C 6.22 g/m*3 5.1 C 1.6 km/h
2674 05-03-2020 06:45:00 5.1 C 6.22 g/m*3 3.23 C 8.1 km/h
2675 05-03-2020 06:50:00 5.1 C 6.22 g/m*3 5.1 C 3.2 km/h
Sensor: Nr:Datum:Temp:Abs-Feuchte:Windchill:Wind:
Aussen-T/F 2676 05-03-2020 06:55:00 5.1 C 6.22 g/m*3 5.1 C 3.2 km/h
2677 05-03-2020 07:00:00 5.2 C 6.27 g/m*3 5.2 C 3.2 km/h
2678 05-03-2020 07:05:00 5.2 C 6.27 g/m*3 5.2 C 4.8 km/h
2679 05-03-2020 07:10:00 5.2 C 6.27 g/m*3 2.96 C 9.7 km/h
2680 05-03-2020 07:15:00 5.2 C 6.2 g/m*3 3.82 C 6.4 km/h
2681 05-03-2020 07:20:00 5.2 C 6.27 g/m*3 3.34 C 8.1 km/h
2682 05-03-2020 07:25:00 5.3 C 6.31 g/m*3 5.3 C 3.2 km/h
2683 05-03-2020 07:30:00 5.3 C 6.31 g/m*3 5.3 C 1.6 km/h
2684 05-03-2020 07:35:00 5.3 C 6.31 g/m*3 5.3 C 4.8 km/h
2685 05-03-2020 07:40:00 5.3 C 6.31 g/m*3 5.3 C 3.2 km/h
2686 05-03-2020 07:45:00 5.3 C 6.24 g/m*3 5.3 C 4.8 km/h
2687 05-03-2020 07:50:00 5.4 C 6.35 g/m*3 5.4 C 3.2 km/h
2688 05-03-2020 07:55:00 5.4 C 6.35 g/m*3 4.06 C 6.4 km/h
2689 05-03-2020 08:00:00 5.4 C 6.28 g/m*3 5.4 C 4.8 km/h
2690 05-03-2020 08:05:00 5.5 C 6.32 g/m*3 5.5 C 3.2 km/h
2691 05-03-2020 08:10:00 5.6 C 6.43 g/m*3 4.29 C 6.4 km/h
2692 05-03-2020 08:15:00 5.6 C 6.43 g/m*3 4.29 C 6.4 km/h
2693 05-03-2020 08:20:00 5.6 C 6.43 g/m*3 3.11 C 11.3 km/h
2694 05-03-2020 08:25:00 5.6 C 6.43 g/m*3 4.29 C 6.4 km/h
2695 05-03-2020 08:30:00 5.6 C 6.43 g/m*3 5.6 C 0 km/h
2696 05-03-2020 08:35:00 5.7 C 6.48 g/m*3 2.95 C 12.9 km/h
2697 05-03-2020 08:40:00 5.7 C 6.48 g/m*3 2.95 C 12.9 km/h
2698 05-03-2020 08:45:00 5.8 C 6.52 g/m*3 3.68 C 9.7 km/h
2699 05-03-2020 08:50:00 5.8 C 6.45 g/m*3 3.36 C 11.3 km/h
2700 05-03-2020 08:55:00 5.8 C 6.45 g/m*3 3.36 C 11.3 km/h
Sensor: Nr:Datum:Temp:Abs-Feuchte:Windchill:Wind:
Aussen-T/F 2701 05-03-2020 09:00:00 5.9 C 6.56 g/m*3 5.9 C 4.8 km/h
2702 05-03-2020 09:05:00 5.9 C 6.49 g/m*3 4.63 C 6.4 km/h
2703 05-03-2020 09:10:00 6 C 6.53 g/m*3 3.92 C 9.7 km/h
2704 05-03-2020 09:15:00 6 C 6.53 g/m*3 6 C 3.2 km/h
2705 05-03-2020 09:20:00 6.1 C 6.58 g/m*3 6.1 C 1.6 km/h
2706 05-03-2020 09:25:00 6.2 C 6.62 g/m*3 4.98 C 6.4 km/h
2707 05-03-2020 09:30:00 6.2 C 6.55 g/m*3 4.98 C 6.4 km/h
2708 05-03-2020 09:35:00 6.3 C 6.66 g/m*3 5.1 C 6.4 km/h
2709 05-03-2020 09:40:00 6.3 C 6.59 g/m*3 4.64 C 8.1 km/h
2710 05-03-2020 09:45:00 6.3 C 6.59 g/m*3 6.3 C 4.8 km/h
2711 05-03-2020 09:50:00 6.4 C 6.63 g/m*3 4.39 C 9.7 km/h
2712 05-03-2020 09:55:00 6.5 C 6.67 g/m*3 5.33 C 6.4 km/h
2713 05-03-2020 10:00:00 6.6 C 6.72 g/m*3 4.99 C 8.1 km/h
2714 05-03-2020 10:05:00 6.6 C 6.64 g/m*3 6.6 C 3.2 km/h
2715 05-03-2020 10:10:00 6.6 C 6.64 g/m*3 6.6 C 3.2 km/h
2716 05-03-2020 10:15:00 6.6 C 6.64 g/m*3 4.99 C 8.1 km/h
2717 05-03-2020 10:20:00 6.6 C 6.64 g/m*3 4.99 C 8.1 km/h
2718 05-03-2020 10:25:00 6.6 C 6.72 g/m*3 5.44 C 6.4 km/h
2719 05-03-2020 10:30:00 6.6 C 6.64 g/m*3 4.99 C 8.1 km/h
2720 05-03-2020 10:35:00 6.5 C 6.67 g/m*3 4.87 C 8.1 km/h
2721 05-03-2020 10:40:00 6.5 C 6.67 g/m*3 4.87 C 8.1 km/h
2722 05-03-2020 10:45:00 6.4 C 6.63 g/m*3 6.4 C 4.8 km/h
2723 05-03-2020 10:50:00 6.5 C 6.67 g/m*3 6.5 C 4.8 km/h
2724 05-03-2020 10:55:00 6.5 C 6.67 g/m*3 5.33 C 6.4 km/h
2725 05-03-2020 11:00:00 6.6 C 6.79 g/m*3 5.44 C 6.4 km/h
Sensor: Nr:Datum:Temp:Abs-Feuchte:Windchill:Wind:
Aussen-T/F 2726 05-03-2020 11:05:00 6.6 C 6.79 g/m*3 6.6 C 4.8 km/h
2727 05-03-2020 11:10:00 6.7 C 6.84 g/m*3 4.75 C 9.7 km/h
2728 05-03-2020 11:15:00 6.7 C 6.76 g/m*3 4.75 C 9.7 km/h
2729 05-03-2020 11:20:00 6.8 C 6.81 g/m*3 6.8 C 3.2 km/h
2730 05-03-2020 11:25:00 6.8 C 6.81 g/m*3 5.67 C 6.4 km/h
2731 05-03-2020 11:30:00 6.9 C 6.85 g/m*3 5.79 C 6.4 km/h
2732 05-03-2020 11:35:00 7 C 6.9 g/m*3 7 C 3.2 km/h
2733 05-03-2020 11:40:00 7.1 C 6.94 g/m*3 5.58 C 8.1 km/h
2734 05-03-2020 11:45:00 7.1 C 6.94 g/m*3 6.02 C 6.4 km/h
2735 05-03-2020 11:50:00 7.2 C 6.99 g/m*3 6.13 C 6.4 km/h
2736 05-03-2020 11:55:00 7.2 C 6.99 g/m*3 7.2 C 4.8 km/h
2737 05-03-2020 12:00:00 7.2 C 6.91 g/m*3 7.2 C 3.2 km/h
2738 05-03-2020 12:05:00 7.2 C 6.91 g/m*3 7.2 C 3.2 km/h
2739 05-03-2020 12:10:00 7.3 C 6.95 g/m*3 7.3 C 4.8 km/h
2740 05-03-2020 12:15:00 7.3 C 6.95 g/m*3 7.3 C 4.8 km/h
2741 05-03-2020 12:20:00 7.3 C 6.95 g/m*3 7.3 C 4.8 km/h
2742 05-03-2020 12:25:00 7.3 C 6.95 g/m*3 7.3 C 4.8 km/h
2743 05-03-2020 12:30:00 7.3 C 6.95 g/m*3 5.81 C 8.1 km/h
2744 05-03-2020 12:35:00 7.4 C 7.08 g/m*3 7.4 C 1.6 km/h
2745 05-03-2020 12:40:00 7.4 C 7.08 g/m*3 6.37 C 6.4 km/h
2746 05-03-2020 12:45:00 7.4 C 7.08 g/m*3 5.93 C 8.1 km/h
2747 05-03-2020 12:50:00 7.4 C 7.16 g/m*3 7.4 C 3.2 km/h
2748 05-03-2020 12:55:00 7.4 C 7.16 g/m*3 7.4 C 4.8 km/h
2749 05-03-2020 13:00:00 7.3 C 7.19 g/m*3 6.25 C 6.4 km/h
2750 05-03-2020 13:05:00 7.3 C 7.19 g/m*3 7.3 C 4.8 km/h
Sensor: Nr:Datum:Temp:Abs-Feuchte:Windchill:Wind:
Aussen-T/F 2751 05-03-2020 13:10:00 7.3 C 7.19 g/m*3 6.25 C 6.4 km/h
2752 05-03-2020 13:15:00 7.3 C 7.27 g/m*3 7.3 C 4.8 km/h
2753 05-03-2020 13:20:00 7.3 C 7.27 g/m*3 7.3 C 4.8 km/h
2754 05-03-2020 13:25:00 7.3 C 7.27 g/m*3 7.3 C 4.8 km/h
2755 05-03-2020 13:30:00 7.2 C 7.22 g/m*3 5.69 C 8.1 km/h
2756 05-03-2020 13:35:00 7.2 C 7.22 g/m*3 7.2 C 4.8 km/h
2757 05-03-2020 13:40:00 7.2 C 7.22 g/m*3 7.2 C 4.8 km/h
2758 05-03-2020 13:45:00 7.2 C 7.22 g/m*3 7.2 C 4.8 km/h
2759 05-03-2020 13:50:00 7.2 C 7.3 g/m*3 7.2 C 1.6 km/h
2760 05-03-2020 13:55:00 7.2 C 7.3 g/m*3 7.2 C 3.2 km/h
2761 05-03-2020 14:00:00 7.1 C 7.25 g/m*3 7.1 C 1.6 km/h
2762 05-03-2020 14:05:00 7.1 C 7.25 g/m*3 7.1 C 3.2 km/h
2763 05-03-2020 14:10:00 7.1 C 7.25 g/m*3 7.1 C 3.2 km/h
2764 05-03-2020 14:15:00 7.1 C 7.25 g/m*3 7.1 C 4.8 km/h
2765 05-03-2020 14:20:00 7.1 C 7.33 g/m*3 7.1 C 4.8 km/h
2766 05-03-2020 14:25:00 7.1 C 7.25 g/m*3 7.1 C 4.8 km/h
2767 05-03-2020 14:30:00 7 C 7.21 g/m*3 7 C 3.2 km/h
2768 05-03-2020 14:35:00 6.9 C 7.24 g/m*3 6.9 C 1.6 km/h
2769 05-03-2020 14:40:00 7 C 7.28 g/m*3 7 C 1.6 km/h
2770 05-03-2020 14:45:00 6.9 C 7.24 g/m*3 6.9 C 1.6 km/h
2771 05-03-2020 14:50:00 6.9 C 7.24 g/m*3 6.9 C 0 km/h
2772 05-03-2020 14:55:00 7 C 7.28 g/m*3 7 C 0 km/h
2773 05-03-2020 15:00:00 7 C 7.28 g/m*3 7 C 0 km/h
2774 05-03-2020 15:05:00 7 C 7.28 g/m*3 7 C 0 km/h
2775 05-03-2020 15:10:00 7 C 7.28 g/m*3 7 C 1.6 km/h
Sensor: Nr:Datum:Temp:Abs-Feuchte:Windchill:Wind:
Aussen-T/F 2776 05-03-2020 15:15:00 7 C 7.28 g/m*3 7 C 1.6 km/h
2777 05-03-2020 15:20:00 7 C 7.28 g/m*3 7 C 1.6 km/h
2778 05-03-2020 15:25:00 6.9 C 7.31 g/m*3 6.9 C 0 km/h
2779 05-03-2020 15:30:00 6.9 C 7.31 g/m*3 6.9 C 0 km/h
2780 05-03-2020 15:35:00 6.9 C 7.31 g/m*3 6.9 C 4.8 km/h
2781 05-03-2020 15:40:00 6.9 C 7.31 g/m*3 6.9 C 0 km/h
2782 05-03-2020 15:45:00 7 C 7.36 g/m*3 7 C 4.8 km/h
2783 05-03-2020 15:50:00 7 C 7.36 g/m*3 7 C 1.6 km/h
2784 05-03-2020 15:55:00 7 C 7.36 g/m*3 7 C 1.6 km/h
2785 05-03-2020 16:00:00 7.1 C 7.41 g/m*3 7.1 C 0 km/h
2786 05-03-2020 16:05:00 7.2 C 7.46 g/m*3 5.69 C 8.1 km/h
2787 05-03-2020 16:10:00 7.2 C 7.46 g/m*3 5.35 C 9.7 km/h
2788 05-03-2020 16:15:00 7.2 C 7.46 g/m*3 5.69 C 8.1 km/h
2789 05-03-2020 16:20:00 7.2 C 7.46 g/m*3 5.04 C 11.3 km/h
2790 05-03-2020 16:25:00 7.2 C 7.46 g/m*3 4.53 C 14.5 km/h
2791 05-03-2020 16:30:00 7.1 C 7.41 g/m*3 6.02 C 6.4 km/h
2792 05-03-2020 16:35:00 7.1 C 7.41 g/m*3 7.1 C 1.6 km/h
2793 05-03-2020 16:40:00 7.1 C 7.41 g/m*3 6.02 C 6.4 km/h
2794 05-03-2020 16:45:00 7 C 7.28 g/m*3 7 C 3.2 km/h
2795 05-03-2020 16:50:00 7 C 7.36 g/m*3 5.46 C 8.1 km/h
2796 05-03-2020 16:55:00 7 C 7.36 g/m*3 5.11 C 9.7 km/h
2797 05-03-2020 17:00:00 6.9 C 7.31 g/m*3 6.9 C 3.2 km/h
2798 05-03-2020 17:05:00 6.9 C 7.31 g/m*3 6.9 C 1.6 km/h
2799 05-03-2020 17:10:00 6.9 C 7.31 g/m*3 5.34 C 8.1 km/h
2800 05-03-2020 17:15:00 6.8 C 7.27 g/m*3 6.8 C 0 km/h
Sensor: Nr:Datum:Temp:Abs-Feuchte:Windchill:Wind:
Aussen-T/F 2801 05-03-2020 17:20:00 6.8 C 7.27 g/m*3 6.8 C 3.2 km/h
2802 05-03-2020 17:25:00 6.8 C 7.27 g/m*3 6.8 C 4.8 km/h
2803 05-03-2020 17:30:00 6.8 C 7.27 g/m*3 6.8 C 4.8 km/h
2804 05-03-2020 17:35:00 6.7 C 7.22 g/m*3 6.7 C 3.2 km/h
2805 05-03-2020 17:40:00 6.7 C 7.22 g/m*3 6.7 C 4.8 km/h
2806 05-03-2020 17:45:00 6.7 C 7.22 g/m*3 6.7 C 4.8 km/h
2807 05-03-2020 17:50:00 6.7 C 7.22 g/m*3 5.11 C 8.1 km/h
2808 05-03-2020 17:55:00 6.7 C 7.22 g/m*3 6.7 C 1.6 km/h
2809 05-03-2020 18:00:00 6.7 C 7.22 g/m*3 6.7 C 1.6 km/h
2810 05-03-2020 18:05:00 6.7 C 7.22 g/m*3 6.7 C 1.6 km/h
2811 05-03-2020 18:10:00 6.7 C 7.22 g/m*3 6.7 C 3.2 km/h
2812 05-03-2020 18:15:00 6.6 C 7.17 g/m*3 6.6 C 4.8 km/h
2813 05-03-2020 18:20:00 6.6 C 7.17 g/m*3 6.6 C 0 km/h
2814 05-03-2020 18:25:00 6.6 C 7.17 g/m*3 6.6 C 0 km/h
2815 05-03-2020 18:30:00 6.6 C 7.17 g/m*3 6.6 C 0 km/h
2816 05-03-2020 18:35:00 6.6 C 7.17 g/m*3 6.6 C 0 km/h
2817 05-03-2020 18:40:00 6.6 C 7.17 g/m*3 6.6 C 0 km/h
2818 05-03-2020 18:45:00 6.6 C 7.17 g/m*3 6.6 C 0 km/h
2819 05-03-2020 18:50:00 6.5 C 7.2 g/m*3 6.5 C 0 km/h
2820 05-03-2020 18:55:00 6.5 C 7.2 g/m*3 6.5 C 0 km/h
2821 05-03-2020 19:00:00 6.4 C 7.15 g/m*3 6.4 C 0 km/h
2822 05-03-2020 19:05:00 6.4 C 7.15 g/m*3 6.4 C 0 km/h
2823 05-03-2020 19:10:00 6.4 C 7.15 g/m*3 6.4 C 1.6 km/h
2824 05-03-2020 19:15:00 6.4 C 7.15 g/m*3 6.4 C 1.6 km/h
2825 05-03-2020 19:20:00 6.4 C 7.15 g/m*3 6.4 C 0 km/h
Sensor: Nr:Datum:Temp:Abs-Feuchte:Windchill:Wind:
Aussen-T/F 2826 05-03-2020 19:25:00 6.4 C 7.15 g/m*3 6.4 C 0 km/h
2827 05-03-2020 19:30:00 6.4 C 7.15 g/m*3 6.4 C 0 km/h
2828 05-03-2020 19:35:00 6.3 C 7.11 g/m*3 6.3 C 0 km/h
2829 05-03-2020 19:40:00 6.3 C 7.11 g/m*3 6.3 C 0 km/h
2830 05-03-2020 19:45:00 6.3 C 7.11 g/m*3 6.3 C 3.2 km/h
2831 05-03-2020 19:50:00 6.3 C 7.11 g/m*3 6.3 C 3.2 km/h
2832 05-03-2020 19:55:00 6.3 C 7.11 g/m*3 6.3 C 1.6 km/h
2833 05-03-2020 20:00:00 6.4 C 7.15 g/m*3 6.4 C 0 km/h
2834 05-03-2020 20:05:00 6.4 C 7.15 g/m*3 6.4 C 1.6 km/h
2835 05-03-2020 20:10:00 6.5 C 7.2 g/m*3 6.5 C 0 km/h
2836 05-03-2020 20:15:00 6.6 C 7.25 g/m*3 6.6 C 1.6 km/h
2837 05-03-2020 20:20:00 6.6 C 7.25 g/m*3 6.6 C 3.2 km/h
2838 05-03-2020 20:25:00 6.7 C 7.29 g/m*3 6.7 C 3.2 km/h
2839 05-03-2020 20:30:00 6.7 C 7.29 g/m*3 6.7 C 1.6 km/h
2840 05-03-2020 20:35:00 6.8 C 7.34 g/m*3 6.8 C 3.2 km/h
2841 05-03-2020 20:40:00 6.8 C 7.34 g/m*3 6.8 C 3.2 km/h
2842 05-03-2020 20:45:00 6.8 C 7.34 g/m*3 6.8 C 3.2 km/h
2843 05-03-2020 20:50:00 6.8 C 7.34 g/m*3 6.8 C 1.6 km/h
2844 05-03-2020 20:55:00 6.8 C 7.34 g/m*3 6.8 C 3.2 km/h
2845 05-03-2020 21:00:00 6.8 C 7.34 g/m*3 6.8 C 0 km/h
2846 05-03-2020 21:05:00 6.8 C 7.34 g/m*3 6.8 C 1.6 km/h
2847 05-03-2020 21:10:00 6.8 C 7.34 g/m*3 6.8 C 4.8 km/h
2848 05-03-2020 21:15:00 6.8 C 7.34 g/m*3 6.8 C 0 km/h
2849 05-03-2020 21:20:00 6.8 C 7.34 g/m*3 6.8 C 0 km/h
2850 05-03-2020 21:25:00 6.8 C 7.34 g/m*3 6.8 C 0 km/h
Sensor: Nr:Datum:Temp:Abs-Feuchte:Windchill:Wind:
Aussen-T/F 2851 05-03-2020 21:30:00 6.8 C 7.34 g/m*3 6.8 C 1.6 km/h
2852 05-03-2020 21:35:00 6.8 C 7.34 g/m*3 6.8 C 1.6 km/h
2853 05-03-2020 21:40:00 6.8 C 7.34 g/m*3 6.8 C 0 km/h
2854 05-03-2020 21:45:00 6.8 C 7.34 g/m*3 6.8 C 0 km/h
2855 05-03-2020 21:50:00 6.8 C 7.34 g/m*3 6.8 C 1.6 km/h
2856 05-03-2020 21:55:00 6.8 C 7.34 g/m*3 6.8 C 0 km/h
2857 05-03-2020 22:00:00 6.8 C 7.34 g/m*3 6.8 C 0 km/h
2858 05-03-2020 22:05:00 6.8 C 7.34 g/m*3 6.8 C 0 km/h
2859 05-03-2020 22:10:00 6.8 C 7.42 g/m*3 6.8 C 0 km/h
2860 05-03-2020 22:15:00 6.8 C 7.34 g/m*3 6.8 C 0 km/h
2861 05-03-2020 22:20:00 6.8 C 7.42 g/m*3 6.8 C 0 km/h
2862 05-03-2020 22:25:00 6.8 C 7.42 g/m*3 6.8 C 0 km/h
2863 05-03-2020 22:30:00 6.8 C 7.42 g/m*3 6.8 C 0 km/h
2864 05-03-2020 22:35:00 6.8 C 7.42 g/m*3 6.8 C 0 km/h
2865 05-03-2020 22:40:00 6.8 C 7.42 g/m*3 6.8 C 0 km/h
2866 05-03-2020 22:45:00 6.8 C 7.42 g/m*3 6.8 C 0 km/h
2867 05-03-2020 22:50:00 6.8 C 7.42 g/m*3 6.8 C 0 km/h
2868 05-03-2020 22:55:00 6.8 C 7.42 g/m*3 6.8 C 0 km/h
2869 05-03-2020 23:00:00 6.8 C 7.42 g/m*3 6.8 C 0 km/h
2870 05-03-2020 23:05:00 6.8 C 7.42 g/m*3 6.8 C 0 km/h
2871 05-03-2020 23:10:00 6.8 C 7.42 g/m*3 6.8 C 0 km/h
2872 05-03-2020 23:15:00 6.8 C 7.42 g/m*3 6.8 C 0 km/h
2873 05-03-2020 23:20:00 6.8 C 7.42 g/m*3 6.8 C 0 km/h
2874 05-03-2020 23:25:00 6.8 C 7.42 g/m*3 6.8 C 0 km/h
2875 05-03-2020 23:30:00 6.8 C 7.42 g/m*3 6.8 C 0 km/h
Sensor: Nr:Datum:Temp:Abs-Feuchte:Windchill:Wind:
Aussen-T/F 2876 05-03-2020 23:35:00 6.8 C 7.42 g/m*3 6.8 C 0 km/h
2877 05-03-2020 23:40:00 6.8 C 7.42 g/m*3 6.8 C 0 km/h
2878 05-03-2020 23:45:00 6.8 C 7.42 g/m*3 6.8 C 0 km/h
2879 05-03-2020 23:50:00 6.8 C 7.42 g/m*3 6.8 C 0 km/h
2880 05-03-2020 23:55:00 6.8 C 7.42 g/m*3 6.8 C 0 km/h
2881 06-03-2020 00:00:00 6.8 C 7.42 g/m*3 6.8 C 0 km/h
2882 06-03-2020 00:05:00 6.8 C 7.42 g/m*3 6.8 C 0 km/h
2883 06-03-2020 00:10:00 6.8 C 7.42 g/m*3 6.8 C 0 km/h
2884 06-03-2020 00:15:00 6.8 C 7.42 g/m*3 6.8 C 0 km/h
2885 06-03-2020 00:20:00 6.8 C 7.42 g/m*3 6.8 C 0 km/h
2886 06-03-2020 00:25:00 6.8 C 7.42 g/m*3 6.8 C 0 km/h
2887 06-03-2020 00:30:00 6.8 C 7.42 g/m*3 6.8 C 0 km/h
2888 06-03-2020 00:35:00 6.8 C 7.42 g/m*3 6.8 C 0 km/h
2889 06-03-2020 00:40:00 6.9 C 7.47 g/m*3 6.9 C 0 km/h
2890 06-03-2020 00:45:00 6.9 C 7.47 g/m*3 6.9 C 0 km/h
2891 06-03-2020 00:50:00 6.9 C 7.47 g/m*3 6.9 C 0 km/h
2892 06-03-2020 00:55:00 6.9 C 7.47 g/m*3 6.9 C 0 km/h
2893 06-03-2020 01:00:00 6.9 C 7.47 g/m*3 6.9 C 0 km/h
2894 06-03-2020 01:05:00 7 C 7.52 g/m*3 7 C 0 km/h
2895 06-03-2020 01:10:00 7.1 C 7.57 g/m*3 7.1 C 0 km/h
2896 06-03-2020 01:15:00 7.1 C 7.57 g/m*3 7.1 C 0 km/h
2897 06-03-2020 01:20:00 7.2 C 7.61 g/m*3 7.2 C 4.8 km/h
2898 06-03-2020 01:25:00 7.3 C 7.66 g/m*3 6.25 C 6.4 km/h
2899 06-03-2020 01:30:00 7.4 C 7.71 g/m*3 7.4 C 4.8 km/h
2900 06-03-2020 01:35:00 7.4 C 7.71 g/m*3 5.93 C 8.1 km/h
Sensor: Nr:Datum:Temp:Abs-Feuchte:Windchill:Wind:
Aussen-T/F 2901 06-03-2020 01:40:00 7.4 C 7.71 g/m*3 5.93 C 8.1 km/h
2902 06-03-2020 01:45:00 7.4 C 7.71 g/m*3 5.58 C 9.7 km/h
2903 06-03-2020 01:50:00 7.4 C 7.71 g/m*3 4 C 20.9 km/h
2904 06-03-2020 01:55:00 7.4 C 7.71 g/m*3 4 C 20.9 km/h
2905 06-03-2020 02:00:00 7.3 C 7.58 g/m*3 5.16 C 11.3 km/h
2906 06-03-2020 02:05:00 7.2 C 7.54 g/m*3 4.77 C 12.9 km/h
2907 06-03-2020 02:10:00 7.1 C 7.41 g/m*3 4.92 C 11.3 km/h
2908 06-03-2020 02:15:00 7.1 C 7.41 g/m*3 4.92 C 11.3 km/h
2909 06-03-2020 02:20:00 7.1 C 7.33 g/m*3 4.41 C 14.5 km/h
2910 06-03-2020 02:25:00 7.1 C 7.33 g/m*3 6.02 C 6.4 km/h
2911 06-03-2020 02:30:00 7.1 C 7.33 g/m*3 7.1 C 4.8 km/h
2912 06-03-2020 02:35:00 7 C 7.28 g/m*3 5.46 C 8.1 km/h
2913 06-03-2020 02:40:00 6.9 C 7.24 g/m*3 5.34 C 8.1 km/h
2914 06-03-2020 02:45:00 6.9 C 7.24 g/m*3 5.79 C 6.4 km/h
2915 06-03-2020 02:50:00 6.9 C 7.24 g/m*3 6.9 C 4.8 km/h
2916 06-03-2020 02:55:00 6.8 C 7.11 g/m*3 5.22 C 8.1 km/h
2917 06-03-2020 03:00:00 6.8 C 7.11 g/m*3 6.8 C 3.2 km/h
2918 06-03-2020 03:05:00 6.8 C 7.11 g/m*3 5.67 C 6.4 km/h
2919 06-03-2020 03:10:00 6.8 C 7.11 g/m*3 5.67 C 6.4 km/h
2920 06-03-2020 03:15:00 6.7 C 7.07 g/m*3 6.7 C 4.8 km/h
2921 06-03-2020 03:20:00 6.7 C 7.07 g/m*3 5.56 C 6.4 km/h
2922 06-03-2020 03:25:00 6.7 C 7.07 g/m*3 3.92 C 14.5 km/h
2923 06-03-2020 03:30:00 6.7 C 7.07 g/m*3 5.11 C 8.1 km/h
2924 06-03-2020 03:35:00 6.7 C 7.07 g/m*3 6.7 C 4.8 km/h
2925 06-03-2020 03:40:00 6.7 C 7.07 g/m*3 5.11 C 8.1 km/h
Sensor: Nr:Datum:Temp:Abs-Feuchte:Windchill:Wind:
Aussen-T/F 2926 06-03-2020 03:45:00 6.6 C 7.02 g/m*3 6.6 C 3.2 km/h
2927 06-03-2020 03:50:00 6.6 C 7.02 g/m*3 6.6 C 3.2 km/h
2928 06-03-2020 03:55:00 6.6 C 7.02 g/m*3 6.6 C 1.6 km/h
2929 06-03-2020 04:00:00 6.6 C 7.02 g/m*3 6.6 C 4.8 km/h
2930 06-03-2020 04:05:00 6.5 C 6.97 g/m*3 6.5 C 4.8 km/h
2931 06-03-2020 04:10:00 6.5 C 7.05 g/m*3 6.5 C 0 km/h
2932 06-03-2020 04:15:00 6.5 C 7.05 g/m*3 6.5 C 0 km/h
2933 06-03-2020 04:20:00 6.4 C 7 g/m*3 6.4 C 0 km/h
2934 06-03-2020 04:25:00 6.4 C 7 g/m*3 6.4 C 0 km/h
2935 06-03-2020 04:30:00 6.4 C 7 g/m*3 6.4 C 4.8 km/h
2936 06-03-2020 04:35:00 6.4 C 7 g/m*3 6.4 C 3.2 km/h
2937 06-03-2020 04:40:00 6.3 C 6.96 g/m*3 6.3 C 3.2 km/h
2938 06-03-2020 04:45:00 6.3 C 6.96 g/m*3 6.3 C 0 km/h
2939 06-03-2020 04:50:00 6.3 C 7.03 g/m*3 6.3 C 1.6 km/h
2940 06-03-2020 04:55:00 6.3 C 7.03 g/m*3 6.3 C 4.8 km/h
2941 06-03-2020 05:00:00 6.3 C 7.03 g/m*3 6.3 C 3.2 km/h
2942 06-03-2020 05:05:00 6.3 C 7.03 g/m*3 4.64 C 8.1 km/h
2943 06-03-2020 05:10:00 6.3 C 7.03 g/m*3 6.3 C 4.8 km/h
2944 06-03-2020 05:15:00 6.3 C 7.03 g/m*3 4.64 C 8.1 km/h
2945 06-03-2020 05:20:00 6.3 C 7.03 g/m*3 4.27 C 9.7 km/h
2946 06-03-2020 05:25:00 6.3 C 7.03 g/m*3 6.3 C 4.8 km/h
2947 06-03-2020 05:30:00 6.3 C 7.03 g/m*3 6.3 C 4.8 km/h
2948 06-03-2020 05:35:00 6.3 C 7.03 g/m*3 6.3 C 4.8 km/h
2949 06-03-2020 05:40:00 6.4 C 7.08 g/m*3 3.8 C 12.9 km/h
2950 06-03-2020 05:45:00 6.4 C 7.08 g/m*3 4.08 C 11.3 km/h
Sensor: Nr:Datum:Temp:Abs-Feuchte:Windchill:Wind:
Aussen-T/F 2951 06-03-2020 05:50:00 6.4 C 7.08 g/m*3 6.4 C 4.8 km/h
2952 06-03-2020 05:55:00 6.4 C 7.08 g/m*3 4.75 C 8.1 km/h
2953 06-03-2020 06:00:00 6.4 C 7.08 g/m*3 4.39 C 9.7 km/h
2954 06-03-2020 06:05:00 6.5 C 7.12 g/m*3 5.33 C 6.4 km/h
2955 06-03-2020 06:10:00 6.5 C 7.12 g/m*3 3.92 C 12.9 km/h
2956 06-03-2020 06:15:00 6.5 C 7.2 g/m*3 5.33 C 6.4 km/h
2957 06-03-2020 06:20:00 6.5 C 7.2 g/m*3 5.33 C 6.4 km/h
2958 06-03-2020 06:25:00 6.5 C 7.2 g/m*3 5.33 C 6.4 km/h
2959 06-03-2020 06:30:00 6.5 C 7.2 g/m*3 5.33 C 6.4 km/h
2960 06-03-2020 06:35:00 6.6 C 7.25 g/m*3 4.63 C 9.7 km/h
2961 06-03-2020 06:40:00 6.6 C 7.25 g/m*3 3.57 C 16.1 km/h
2962 06-03-2020 06:45:00 6.6 C 7.25 g/m*3 4.99 C 8.1 km/h
2963 06-03-2020 06:50:00 6.6 C 7.25 g/m*3 4.99 C 8.1 km/h
2964 06-03-2020 06:55:00 6.7 C 7.29 g/m*3 5.11 C 8.1 km/h
2965 06-03-2020 07:00:00 6.7 C 7.29 g/m*3 5.56 C 6.4 km/h
2966 06-03-2020 07:05:00 6.7 C 7.29 g/m*3 5.56 C 6.4 km/h
2967 06-03-2020 07:10:00 6.7 C 7.29 g/m*3 6.7 C 3.2 km/h
2968 06-03-2020 07:15:00 6.7 C 7.29 g/m*3 6.7 C 1.6 km/h
2969 06-03-2020 07:20:00 6.7 C 7.29 g/m*3 6.7 C 1.6 km/h
2970 06-03-2020 07:25:00 6.7 C 7.29 g/m*3 6.7 C 4.8 km/h
2971 06-03-2020 07:30:00 6.7 C 7.29 g/m*3 6.7 C 4.8 km/h
2972 06-03-2020 07:35:00 6.7 C 7.29 g/m*3 6.7 C 3.2 km/h
2973 06-03-2020 07:40:00 6.8 C 7.34 g/m*3 6.8 C 3.2 km/h
2974 06-03-2020 07:45:00 6.8 C 7.34 g/m*3 4.87 C 9.7 km/h
2975 06-03-2020 07:50:00 6.7 C 7.29 g/m*3 4.75 C 9.7 km/h
Sensor: Nr:Datum:Temp:Abs-Feuchte:Windchill:Wind:
Aussen-T/F 2976 06-03-2020 07:55:00 6.5 C 7.12 g/m*3 4.51 C 9.7 km/h
2977 06-03-2020 08:00:00 6.4 C 7.08 g/m*3 4.08 C 11.3 km/h
2978 06-03-2020 08:05:00 6.3 C 6.96 g/m*3 3.96 C 11.3 km/h
2979 06-03-2020 08:10:00 6.2 C 6.91 g/m*3 3.3 C 14.5 km/h
2980 06-03-2020 08:15:00 6.1 C 6.79 g/m*3 2.35 C 20.9 km/h
2981 06-03-2020 08:20:00 5.9 C 6.71 g/m*3 4.17 C 8.1 km/h
2982 06-03-2020 08:25:00 5.9 C 6.71 g/m*3 4.17 C 8.1 km/h
2983 06-03-2020 08:30:00 5.9 C 6.71 g/m*3 3.8 C 9.7 km/h
2984 06-03-2020 08:35:00 5.9 C 6.71 g/m*3 4.63 C 6.4 km/h
2985 06-03-2020 08:40:00 5.9 C 6.71 g/m*3 4.63 C 6.4 km/h
2986 06-03-2020 08:45:00 5.9 C 6.71 g/m*3 5.9 C 1.6 km/h
2987 06-03-2020 08:50:00 5.8 C 6.66 g/m*3 4.52 C 6.4 km/h
2988 06-03-2020 08:55:00 5.8 C 6.73 g/m*3 5.8 C 4.8 km/h
2989 06-03-2020 09:00:00 5.8 C 6.73 g/m*3 3.68 C 9.7 km/h
2990 06-03-2020 09:05:00 5.7 C 6.69 g/m*3 4.4 C 6.4 km/h
2991 06-03-2020 09:10:00 5.8 C 6.73 g/m*3 4.52 C 6.4 km/h
2992 06-03-2020 09:15:00 5.8 C 6.73 g/m*3 5.8 C 4.8 km/h
2993 06-03-2020 09:20:00 5.7 C 6.69 g/m*3 5.7 C 4.8 km/h
2994 06-03-2020 09:25:00 5.7 C 6.62 g/m*3 4.4 C 6.4 km/h
2995 06-03-2020 09:30:00 5.7 C 6.62 g/m*3 3.56 C 9.7 km/h
2996 06-03-2020 09:35:00 5.7 C 6.62 g/m*3 3.93 C 8.1 km/h
2997 06-03-2020 09:40:00 5.7 C 6.62 g/m*3 3.93 C 8.1 km/h
2998 06-03-2020 09:45:00 5.7 C 6.62 g/m*3 3.23 C 11.3 km/h
2999 06-03-2020 09:50:00 5.7 C 6.55 g/m*3 2.69 C 14.5 km/h
3000 06-03-2020 09:55:00 5.7 C 6.55 g/m*3 3.56 C 9.7 km/h
Sensor: Nr:Datum:Temp:Abs-Feuchte:Windchill:Wind:
Aussen-T/F 3001 06-03-2020 10:00:00 5.7 C 6.48 g/m*3 3.23 C 11.3 km/h
3002 06-03-2020 10:05:00 5.7 C 6.48 g/m*3 3.56 C 9.7 km/h
3003 06-03-2020 10:10:00 5.7 C 6.48 g/m*3 3.93 C 8.1 km/h
3004 06-03-2020 10:15:00 5.7 C 6.48 g/m*3 3.56 C 9.7 km/h
3005 06-03-2020 10:20:00 5.7 C 6.55 g/m*3 2.69 C 14.5 km/h
3006 06-03-2020 10:25:00 5.7 C 6.48 g/m*3 3.56 C 9.7 km/h
3007 06-03-2020 10:30:00 5.7 C 6.48 g/m*3 3.23 C 11.3 km/h
3008 06-03-2020 10:35:00 5.6 C 6.36 g/m*3 3.44 C 9.7 km/h
3009 06-03-2020 10:40:00 5.6 C 6.36 g/m*3 3.11 C 11.3 km/h
3010 06-03-2020 10:45:00 5.7 C 6.48 g/m*3 3.23 C 11.3 km/h
3011 06-03-2020 10:50:00 5.7 C 6.48 g/m*3 3.93 C 8.1 km/h
3012 06-03-2020 10:55:00 5.7 C 6.48 g/m*3 3.56 C 9.7 km/h
3013 06-03-2020 11:00:00 5.7 C 6.48 g/m*3 2.95 C 12.9 km/h
3014 06-03-2020 11:05:00 5.7 C 6.4 g/m*3 2.69 C 14.5 km/h
3015 06-03-2020 11:10:00 5.7 C 6.4 g/m*3 2.95 C 12.9 km/h
3016 06-03-2020 11:15:00 5.8 C 6.52 g/m*3 3.68 C 9.7 km/h
3017 06-03-2020 11:20:00 5.9 C 6.56 g/m*3 4.63 C 6.4 km/h
3018 06-03-2020 11:25:00 5.9 C 6.56 g/m*3 4.63 C 6.4 km/h
3019 06-03-2020 11:30:00 5.9 C 6.49 g/m*3 4.63 C 6.4 km/h
3020 06-03-2020 11:35:00 5.9 C 6.49 g/m*3 4.63 C 6.4 km/h
3021 06-03-2020 11:40:00 5.9 C 6.49 g/m*3 3.8 C 9.7 km/h
3022 06-03-2020 11:45:00 5.9 C 6.42 g/m*3 3.19 C 12.9 km/h
3023 06-03-2020 11:50:00 5.8 C 6.38 g/m*3 4.05 C 8.1 km/h
3024 06-03-2020 11:55:00 5.8 C 6.45 g/m*3 3.36 C 11.3 km/h
3025 06-03-2020 12:00:00 5.8 C 6.45 g/m*3 4.05 C 8.1 km/h
Sensor: Nr:Datum:Temp:Abs-Feuchte:Windchill:Wind:
Aussen-T/F 3026 06-03-2020 12:05:00 5.7 C 6.4 g/m*3 3.56 C 9.7 km/h
3027 06-03-2020 12:10:00 5.7 C 6.4 g/m*3 3.93 C 8.1 km/h
3028 06-03-2020 12:15:00 5.6 C 6.36 g/m*3 2.83 C 12.9 km/h
3029 06-03-2020 12:20:00 5.6 C 6.36 g/m*3 2.57 C 14.5 km/h
3030 06-03-2020 12:25:00 5.6 C 6.43 g/m*3 2.33 C 16.1 km/h
3031 06-03-2020 12:30:00 5.6 C 6.43 g/m*3 2.57 C 14.5 km/h
3032 06-03-2020 12:35:00 5.5 C 6.39 g/m*3 3.32 C 9.7 km/h
3033 06-03-2020 12:40:00 5.4 C 6.35 g/m*3 2.87 C 11.3 km/h
3034 06-03-2020 12:45:00 5.4 C 6.35 g/m*3 5.4 C 4.8 km/h
3035 06-03-2020 12:50:00 5.5 C 6.39 g/m*3 2.99 C 11.3 km/h
3036 06-03-2020 12:55:00 5.5 C 6.39 g/m*3 2.99 C 11.3 km/h
3037 06-03-2020 13:00:00 5.5 C 6.39 g/m*3 2.7 C 12.9 km/h
3038 06-03-2020 13:05:00 5.6 C 6.43 g/m*3 1.91 C 19.3 km/h
3039 06-03-2020 13:10:00 5.6 C 6.43 g/m*3 3.44 C 9.7 km/h
3040 06-03-2020 13:15:00 5.6 C 6.43 g/m*3 4.29 C 6.4 km/h
3041 06-03-2020 13:20:00 5.6 C 6.43 g/m*3 3.81 C 8.1 km/h
3042 06-03-2020 13:25:00 5.7 C 6.48 g/m*3 4.4 C 6.4 km/h
3043 06-03-2020 13:30:00 5.7 C 6.48 g/m*3 3.23 C 11.3 km/h
3044 06-03-2020 13:35:00 5.7 C 6.4 g/m*3 2.69 C 14.5 km/h
3045 06-03-2020 13:40:00 5.8 C 6.45 g/m*3 2.81 C 14.5 km/h
3046 06-03-2020 13:45:00 5.8 C 6.45 g/m*3 2.81 C 14.5 km/h
3047 06-03-2020 13:50:00 5.8 C 6.45 g/m*3 4.05 C 8.1 km/h
3048 06-03-2020 13:55:00 5.8 C 6.45 g/m*3 4.05 C 8.1 km/h
3049 06-03-2020 14:00:00 5.8 C 6.45 g/m*3 4.52 C 6.4 km/h
3050 06-03-2020 14:05:00 5.8 C 6.45 g/m*3 2.81 C 14.5 km/h
Sensor: Nr:Datum:Temp:Abs-Feuchte:Windchill:Wind:
Aussen-T/F 3051 06-03-2020 14:10:00 5.7 C 6.48 g/m*3 3.56 C 9.7 km/h
3052 06-03-2020 14:15:00 5.7 C 6.48 g/m*3 3.56 C 9.7 km/h
3053 06-03-2020 14:20:00 5.7 C 6.4 g/m*3 3.23 C 11.3 km/h
3054 06-03-2020 14:25:00 5.7 C 6.4 g/m*3 3.93 C 8.1 km/h
3055 06-03-2020 14:30:00 5.8 C 6.45 g/m*3 4.05 C 8.1 km/h
3056 06-03-2020 14:35:00 5.8 C 6.52 g/m*3 4.05 C 8.1 km/h
3057 06-03-2020 14:40:00 5.8 C 6.52 g/m*3 3.36 C 11.3 km/h
3058 06-03-2020 14:45:00 5.8 C 6.45 g/m*3 3.68 C 9.7 km/h
3059 06-03-2020 14:50:00 5.8 C 6.45 g/m*3 4.52 C 6.4 km/h
3060 06-03-2020 14:55:00 5.9 C 6.49 g/m*3 4.17 C 8.1 km/h
3061 06-03-2020 15:00:00 5.9 C 6.49 g/m*3 3.19 C 12.9 km/h
3062 06-03-2020 15:05:00 5.9 C 6.49 g/m*3 3.8 C 9.7 km/h
3063 06-03-2020 15:10:00 5.9 C 6.42 g/m*3 3.19 C 12.9 km/h
3064 06-03-2020 15:15:00 5.9 C 6.42 g/m*3 3.8 C 9.7 km/h
3065 06-03-2020 15:20:00 6 C 6.46 g/m*3 6 C 4.8 km/h
3066 06-03-2020 15:25:00 6.1 C 6.5 g/m*3 4.4 C 8.1 km/h
3067 06-03-2020 15:30:00 6.1 C 6.5 g/m*3 6.1 C 4.8 km/h
3068 06-03-2020 15:35:00 6.2 C 6.55 g/m*3 6.2 C 4.8 km/h
3069 06-03-2020 15:40:00 6.2 C 6.47 g/m*3 4.98 C 6.4 km/h
3070 06-03-2020 15:45:00 6.3 C 6.51 g/m*3 4.64 C 8.1 km/h
3071 06-03-2020 15:50:00 6.3 C 6.44 g/m*3 6.3 C 4.8 km/h
3072 06-03-2020 15:55:00 6.4 C 6.48 g/m*3 4.08 C 11.3 km/h
3073 06-03-2020 16:00:00 6.4 C 6.41 g/m*3 4.75 C 8.1 km/h
3074 06-03-2020 16:05:00 6.5 C 6.45 g/m*3 4.2 C 11.3 km/h
3075 06-03-2020 16:10:00 6.6 C 6.49 g/m*3 3.79 C 14.5 km/h
Sensor: Nr:Datum:Temp:Abs-Feuchte:Windchill:Wind:
Aussen-T/F 3076 06-03-2020 16:15:00 6.6 C 6.49 g/m*3 4.32 C 11.3 km/h
3077 06-03-2020 16:20:00 6.7 C 6.46 g/m*3 4.17 C 12.9 km/h
3078 06-03-2020 16:25:00 6.7 C 6.46 g/m*3 6.7 C 4.8 km/h
3079 06-03-2020 16:30:00 6.7 C 6.46 g/m*3 5.11 C 8.1 km/h
3080 06-03-2020 16:35:00 6.8 C 6.58 g/m*3 6.8 C 3.2 km/h
3081 06-03-2020 16:40:00 6.8 C 6.58 g/m*3 6.8 C 4.8 km/h
3082 06-03-2020 16:45:00 6.8 C 6.65 g/m*3 6.8 C 1.6 km/h
3083 06-03-2020 16:50:00 6.8 C 6.65 g/m*3 5.67 C 6.4 km/h
3084 06-03-2020 16:55:00 6.7 C 6.61 g/m*3 5.56 C 6.4 km/h
3085 06-03-2020 17:00:00 6.8 C 6.65 g/m*3 5.22 C 8.1 km/h
3086 06-03-2020 17:05:00 6.8 C 6.65 g/m*3 5.22 C 8.1 km/h
3087 06-03-2020 17:10:00 6.8 C 6.65 g/m*3 5.67 C 6.4 km/h
3088 06-03-2020 17:15:00 6.9 C 6.7 g/m*3 5.34 C 8.1 km/h
3089 06-03-2020 17:20:00 7.1 C 6.71 g/m*3 5.58 C 8.1 km/h
3090 06-03-2020 17:25:00 7.1 C 6.71 g/m*3 4.92 C 11.3 km/h
3091 06-03-2020 17:30:00 7.2 C 6.59 g/m*3 4.53 C 14.5 km/h
3092 06-03-2020 17:35:00 7.3 C 6.64 g/m*3 5.16 C 11.3 km/h
3093 06-03-2020 17:40:00 7.3 C 6.64 g/m*3 5.16 C 11.3 km/h
3094 06-03-2020 17:45:00 7.3 C 6.64 g/m*3 4.9 C 12.9 km/h
3095 06-03-2020 17:50:00 7.3 C 6.72 g/m*3 7.3 C 4.8 km/h
3096 06-03-2020 17:55:00 7.3 C 6.64 g/m*3 6.25 C 6.4 km/h
3097 06-03-2020 18:00:00 7.4 C 6.68 g/m*3 6.37 C 6.4 km/h
3098 06-03-2020 18:05:00 7.3 C 6.56 g/m*3 5.81 C 8.1 km/h
3099 06-03-2020 18:10:00 7.3 C 6.56 g/m*3 5.47 C 9.7 km/h
3100 06-03-2020 18:15:00 7.3 C 6.56 g/m*3 5.81 C 8.1 km/h
Sensor: Nr:Datum:Temp:Abs-Feuchte:Windchill:Wind:
Aussen-T/F 3101 06-03-2020 18:20:00 7.2 C 6.59 g/m*3 7.2 C 1.6 km/h
3102 06-03-2020 18:25:00 7.1 C 6.55 g/m*3 7.1 C 4.8 km/h
3103 06-03-2020 18:30:00 7 C 6.51 g/m*3 7 C 3.2 km/h
3104 06-03-2020 18:35:00 6.8 C 6.42 g/m*3 5.67 C 6.4 km/h
3105 06-03-2020 18:40:00 6.8 C 6.5 g/m*3 6.8 C 4.8 km/h
3106 06-03-2020 18:45:00 6.7 C 6.46 g/m*3 5.11 C 8.1 km/h
3107 06-03-2020 18:50:00 6.7 C 6.46 g/m*3 4.75 C 9.7 km/h
3108 06-03-2020 18:55:00 6.8 C 6.42 g/m*3 5.22 C 8.1 km/h
3109 06-03-2020 19:00:00 6.8 C 6.42 g/m*3 4.87 C 9.7 km/h
3110 06-03-2020 19:05:00 6.9 C 6.47 g/m*3 4.99 C 9.7 km/h
3111 06-03-2020 19:10:00 6.9 C 6.47 g/m*3 5.34 C 8.1 km/h
3112 06-03-2020 19:15:00 6.8 C 6.42 g/m*3 5.67 C 6.4 km/h
3113 06-03-2020 19:20:00 6.8 C 6.42 g/m*3 6.8 C 4.8 km/h
3114 06-03-2020 19:25:00 6.8 C 6.42 g/m*3 5.67 C 6.4 km/h
3115 06-03-2020 19:30:00 6.7 C 6.46 g/m*3 5.56 C 6.4 km/h
3116 06-03-2020 19:35:00 6.7 C 6.46 g/m*3 5.11 C 8.1 km/h
3117 06-03-2020 19:40:00 6.7 C 6.46 g/m*3 4.75 C 9.7 km/h
3118 06-03-2020 19:45:00 6.7 C 6.38 g/m*3 4.75 C 9.7 km/h
3119 06-03-2020 19:50:00 6.7 C 6.38 g/m*3 4.75 C 9.7 km/h
3120 06-03-2020 19:55:00 6.7 C 6.31 g/m*3 4.44 C 11.3 km/h
3121 06-03-2020 20:00:00 6.7 C 6.31 g/m*3 4.75 C 9.7 km/h
3122 06-03-2020 20:05:00 6.6 C 6.27 g/m*3 5.44 C 6.4 km/h
3123 06-03-2020 20:10:00 6.6 C 6.27 g/m*3 4.32 C 11.3 km/h
3124 06-03-2020 20:15:00 6.6 C 6.34 g/m*3 4.32 C 11.3 km/h
3125 06-03-2020 20:20:00 6.5 C 6.3 g/m*3 4.51 C 9.7 km/h
Sensor: Nr:Datum:Temp:Abs-Feuchte:Windchill:Wind:
Aussen-T/F 3126 06-03-2020 20:25:00 6.4 C 6.26 g/m*3 4.75 C 8.1 km/h
3127 06-03-2020 20:30:00 6.3 C 6.22 g/m*3 3.96 C 11.3 km/h
3128 06-03-2020 20:35:00 6.2 C 6.25 g/m*3 4.15 C 9.7 km/h
3129 06-03-2020 20:40:00 6.2 C 6.18 g/m*3 4.98 C 6.4 km/h
3130 06-03-2020 20:45:00 6.1 C 6.21 g/m*3 4.04 C 9.7 km/h
3131 06-03-2020 20:50:00 6 C 6.17 g/m*3 4.28 C 8.1 km/h
3132 06-03-2020 20:55:00 5.9 C 6.13 g/m*3 4.17 C 8.1 km/h
3133 06-03-2020 21:00:00 5.9 C 6.2 g/m*3 3.48 C 11.3 km/h
3134 06-03-2020 21:05:00 5.8 C 6.16 g/m*3 3.68 C 9.7 km/h
3135 06-03-2020 21:10:00 5.7 C 6.12 g/m*3 3.93 C 8.1 km/h
3136 06-03-2020 21:15:00 5.7 C 6.12 g/m*3 3.93 C 8.1 km/h
3137 06-03-2020 21:20:00 5.7 C 6.12 g/m*3 3.23 C 11.3 km/h
3138 06-03-2020 21:25:00 5.6 C 6.08 g/m*3 2.83 C 12.9 km/h
3139 06-03-2020 21:30:00 5.6 C 6.08 g/m*3 2.83 C 12.9 km/h
3140 06-03-2020 21:35:00 5.6 C 6.08 g/m*3 3.44 C 9.7 km/h
3141 06-03-2020 21:40:00 5.6 C 6.01 g/m*3 2.57 C 14.5 km/h
3142 06-03-2020 21:45:00 5.6 C 6.01 g/m*3 2.83 C 12.9 km/h
3143 06-03-2020 21:50:00 5.7 C 6.12 g/m*3 4.4 C 6.4 km/h
3144 06-03-2020 21:55:00 5.6 C 6.01 g/m*3 3.44 C 9.7 km/h
3145 06-03-2020 22:00:00 5.5 C 6.04 g/m*3 2.44 C 14.5 km/h
3146 06-03-2020 22:05:00 5.4 C 6 g/m*3 4.06 C 6.4 km/h
3147 06-03-2020 22:10:00 5.4 C 6 g/m*3 5.4 C 4.8 km/h
3148 06-03-2020 22:15:00 5.4 C 6.07 g/m*3 3.58 C 8.1 km/h
3149 06-03-2020 22:20:00 5.4 C 6 g/m*3 5.4 C 4.8 km/h
3150 06-03-2020 22:25:00 5.4 C 6 g/m*3 5.4 C 4.8 km/h
Sensor: Nr:Datum:Temp:Abs-Feuchte:Windchill:Wind:
Aussen-T/F 3151 06-03-2020 22:30:00 5.5 C 6.11 g/m*3 3.32 C 9.7 km/h
3152 06-03-2020 22:35:00 5.6 C 6.08 g/m*3 3.44 C 9.7 km/h
3153 06-03-2020 22:40:00 5.6 C 6.15 g/m*3 4.29 C 6.4 km/h
3154 06-03-2020 22:45:00 5.6 C 6.15 g/m*3 3.11 C 11.3 km/h
3155 06-03-2020 22:50:00 5.7 C 6.12 g/m*3 3.56 C 9.7 km/h
3156 06-03-2020 22:55:00 5.8 C 6.16 g/m*3 4.52 C 6.4 km/h
3157 06-03-2020 23:00:00 5.8 C 6.16 g/m*3 3.68 C 9.7 km/h
3158 06-03-2020 23:05:00 5.8 C 6.16 g/m*3 5.8 C 3.2 km/h
3159 06-03-2020 23:10:00 5.8 C 6.09 g/m*3 3.36 C 11.3 km/h
3160 06-03-2020 23:15:00 5.9 C 6.13 g/m*3 4.17 C 8.1 km/h
3161 06-03-2020 23:20:00 5.9 C 6.06 g/m*3 3.19 C 12.9 km/h
3162 06-03-2020 23:25:00 5.9 C 6.06 g/m*3 3.48 C 11.3 km/h
3163 06-03-2020 23:30:00 5.9 C 6.06 g/m*3 4.63 C 6.4 km/h
3164 06-03-2020 23:35:00 5.9 C 6.06 g/m*3 3.48 C 11.3 km/h
3165 06-03-2020 23:40:00 5.9 C 6.06 g/m*3 2.93 C 14.5 km/h
3166 06-03-2020 23:45:00 5.9 C 6.06 g/m*3 3.19 C 12.9 km/h
3167 06-03-2020 23:50:00 6 C 6.1 g/m*3 4.75 C 6.4 km/h
3168 06-03-2020 23:55:00 5.9 C 6.06 g/m*3 4.63 C 6.4 km/h
3169 07-03-2020 00:00:00 5.9 C 6.06 g/m*3 5.9 C 4.8 km/h
3170 07-03-2020 00:05:00 5.9 C 6.06 g/m*3 4.63 C 6.4 km/h
3171 07-03-2020 00:10:00 5.8 C 6.02 g/m*3 4.52 C 6.4 km/h
3172 07-03-2020 00:15:00 5.8 C 5.95 g/m*3 5.8 C 4.8 km/h
3173 07-03-2020 00:20:00 5.8 C 6.02 g/m*3 4.52 C 6.4 km/h
3174 07-03-2020 00:25:00 5.8 C 6.02 g/m*3 4.52 C 6.4 km/h
3175 07-03-2020 00:30:00 5.8 C 6.02 g/m*3 3.68 C 9.7 km/h
Sensor: Nr:Datum:Temp:Abs-Feuchte:Windchill:Wind:
Aussen-T/F 3176 07-03-2020 00:35:00 5.8 C 6.02 g/m*3 3.68 C 9.7 km/h
3177 07-03-2020 00:40:00 5.8 C 6.02 g/m*3 4.05 C 8.1 km/h
3178 07-03-2020 00:45:00 5.8 C 5.95 g/m*3 4.05 C 8.1 km/h
3179 07-03-2020 00:50:00 5.8 C 6.02 g/m*3 4.52 C 6.4 km/h
3180 07-03-2020 00:55:00 5.8 C 6.02 g/m*3 4.05 C 8.1 km/h
3181 07-03-2020 01:00:00 5.8 C 6.02 g/m*3 4.52 C 6.4 km/h
3182 07-03-2020 01:05:00 5.8 C 6.02 g/m*3 4.52 C 6.4 km/h
3183 07-03-2020 01:10:00 5.8 C 6.02 g/m*3 3.68 C 9.7 km/h
3184 07-03-2020 01:15:00 5.8 C 6.09 g/m*3 4.05 C 8.1 km/h
3185 07-03-2020 01:20:00 5.8 C 6.09 g/m*3 5.8 C 4.8 km/h
3186 07-03-2020 01:25:00 5.8 C 6.09 g/m*3 5.8 C 4.8 km/h
3187 07-03-2020 01:30:00 5.8 C 6.09 g/m*3 2.58 C 16.1 km/h
3188 07-03-2020 01:35:00 5.8 C 6.09 g/m*3 5.8 C 3.2 km/h
3189 07-03-2020 01:40:00 5.8 C 6.09 g/m*3 4.52 C 6.4 km/h
3190 07-03-2020 01:45:00 5.8 C 6.09 g/m*3 5.8 C 4.8 km/h
3191 07-03-2020 01:50:00 5.9 C 6.13 g/m*3 4.17 C 8.1 km/h
3192 07-03-2020 01:55:00 5.9 C 6.13 g/m*3 4.63 C 6.4 km/h
3193 07-03-2020 02:00:00 5.9 C 6.2 g/m*3 4.63 C 6.4 km/h
3194 07-03-2020 02:05:00 5.9 C 6.13 g/m*3 4.17 C 8.1 km/h
3195 07-03-2020 02:10:00 5.9 C 6.13 g/m*3 5.9 C 4.8 km/h
3196 07-03-2020 02:15:00 5.9 C 6.13 g/m*3 4.17 C 8.1 km/h
3197 07-03-2020 02:20:00 6 C 6.24 g/m*3 3.92 C 9.7 km/h
3198 07-03-2020 02:25:00 5.9 C 6.2 g/m*3 4.63 C 6.4 km/h
3199 07-03-2020 02:30:00 5.9 C 6.2 g/m*3 3.48 C 11.3 km/h
3200 07-03-2020 02:35:00 5.9 C 6.2 g/m*3 2.7 C 16.1 km/h
Sensor: Nr:Datum:Temp:Abs-Feuchte:Windchill:Wind:
Aussen-T/F 3201 07-03-2020 02:40:00 5.9 C 6.2 g/m*3 3.8 C 9.7 km/h
3202 07-03-2020 02:45:00 5.8 C 6.16 g/m*3 4.52 C 6.4 km/h
3203 07-03-2020 02:50:00 5.8 C 6.16 g/m*3 3.36 C 11.3 km/h
3204 07-03-2020 02:55:00 5.8 C 6.16 g/m*3 4.05 C 8.1 km/h
3205 07-03-2020 03:00:00 5.8 C 6.16 g/m*3 5.8 C 4.8 km/h
3206 07-03-2020 03:05:00 5.7 C 6.12 g/m*3 3.23 C 11.3 km/h
3207 07-03-2020 03:10:00 5.7 C 6.12 g/m*3 3.93 C 8.1 km/h
3208 07-03-2020 03:15:00 5.7 C 6.12 g/m*3 5.7 C 4.8 km/h
3209 07-03-2020 03:20:00 5.6 C 6.08 g/m*3 3.81 C 8.1 km/h
3210 07-03-2020 03:25:00 5.6 C 6.15 g/m*3 5.6 C 3.2 km/h
3211 07-03-2020 03:30:00 5.6 C 6.15 g/m*3 5.6 C 3.2 km/h
3212 07-03-2020 03:35:00 5.5 C 6.11 g/m*3 3.7 C 8.1 km/h
3213 07-03-2020 03:40:00 5.5 C 6.11 g/m*3 5.5 C 4.8 km/h
3214 07-03-2020 03:45:00 5.4 C 6.07 g/m*3 2.87 C 11.3 km/h
3215 07-03-2020 03:50:00 5.4 C 6.07 g/m*3 4.06 C 6.4 km/h
3216 07-03-2020 03:55:00 5.5 C 6.11 g/m*3 5.5 C 0 km/h
3217 07-03-2020 04:00:00 5.4 C 6.07 g/m*3 5.4 C 3.2 km/h
3218 07-03-2020 04:05:00 5.4 C 6.07 g/m*3 3.2 C 9.7 km/h
3219 07-03-2020 04:10:00 5.4 C 6.07 g/m*3 3.2 C 9.7 km/h
3220 07-03-2020 04:15:00 5.4 C 6.07 g/m*3 5.4 C 4.8 km/h
3221 07-03-2020 04:20:00 5.4 C 6.07 g/m*3 4.06 C